<?xml version="1.0" encoding="UTF-8" standalone="no" ?>
<gpx xmlns="http://www.topografix.com/GPX/1/1" xmlns:xsi="http://www.w3.org/2001/XMLSchema-instance" xsi:schemaLocation="http://www.topografix.com/GPX/1/1 http://www.topografix.com/GPX/1/1/gpx.xsd" version="1.1" creator="VisuGPX - https://www.visugpx.com">
  <metadata>
    <name>Malons - Les ruchers anciens</name>
    <desc><![CDATA[Une boucle dans la forêt domaniale du Mas de l' Ayre avec une visite aux ruches tronc une ancienne façon de fabriquer des ruches.
]]></desc>
  </metadata>
  <trk>
    <name><![CDATA[2011-06-14-01]]></name>
    <trkseg>
      <trkpt lat="44.41506" lon="4.02214">
        <ele>840.9</ele>
        <time>2011-06-14T12:13:44Z</time>
      </trkpt>
      <trkpt lat="44.41506" lon="4.02214">
        <ele>840.5</ele>
        <time>2011-06-14T12:13:45Z</time>
      </trkpt>
      <trkpt lat="44.41501" lon="4.02192">
        <ele>841.5</ele>
        <time>2011-06-14T12:14:15Z</time>
      </trkpt>
      <trkpt lat="44.41498" lon="4.02182">
        <ele>843.7</ele>
        <time>2011-06-14T12:14:24Z</time>
      </trkpt>
      <trkpt lat="44.41496" lon="4.02171">
        <ele>847</ele>
        <time>2011-06-14T12:14:34Z</time>
      </trkpt>
      <trkpt lat="44.41491" lon="4.02162">
        <ele>843.7</ele>
        <time>2011-06-14T12:14:40Z</time>
      </trkpt>
      <trkpt lat="44.41485" lon="4.02153">
        <ele>844.7</ele>
        <time>2011-06-14T12:14:47Z</time>
      </trkpt>
      <trkpt lat="44.41484" lon="4.0215">
        <ele>845</ele>
        <time>2011-06-14T12:14:48Z</time>
      </trkpt>
      <trkpt lat="44.41478" lon="4.02135">
        <ele>844</ele>
        <time>2011-06-14T12:15:00Z</time>
      </trkpt>
      <trkpt lat="44.41471" lon="4.02126">
        <ele>844</ele>
        <time>2011-06-14T12:15:08Z</time>
      </trkpt>
      <trkpt lat="44.41465" lon="4.02118">
        <ele>844.4</ele>
        <time>2011-06-14T12:15:15Z</time>
      </trkpt>
      <trkpt lat="44.41461" lon="4.02107">
        <ele>847.2</ele>
        <time>2011-06-14T12:15:25Z</time>
      </trkpt>
      <trkpt lat="44.41457" lon="4.02096">
        <ele>847.7</ele>
        <time>2011-06-14T12:15:33Z</time>
      </trkpt>
      <trkpt lat="44.41451" lon="4.02087">
        <ele>847.5</ele>
        <time>2011-06-14T12:15:41Z</time>
      </trkpt>
      <trkpt lat="44.41448" lon="4.02077">
        <ele>849.5</ele>
        <time>2011-06-14T12:15:48Z</time>
      </trkpt>
      <trkpt lat="44.41448" lon="4.02075">
        <ele>849.7</ele>
        <time>2011-06-14T12:15:49Z</time>
      </trkpt>
      <trkpt lat="44.41437" lon="4.02058">
        <ele>851.5</ele>
        <time>2011-06-14T12:16:02Z</time>
      </trkpt>
      <trkpt lat="44.41436" lon="4.02047">
        <ele>853.4</ele>
        <time>2011-06-14T12:16:12Z</time>
      </trkpt>
      <trkpt lat="44.4143" lon="4.02039">
        <ele>853.2</ele>
        <time>2011-06-14T12:16:18Z</time>
      </trkpt>
      <trkpt lat="44.41427" lon="4.02027">
        <ele>851.4</ele>
        <time>2011-06-14T12:16:25Z</time>
      </trkpt>
      <trkpt lat="44.41429" lon="4.02015">
        <ele>851.7</ele>
        <time>2011-06-14T12:16:34Z</time>
      </trkpt>
      <trkpt lat="44.41429" lon="4.02004">
        <ele>853.5</ele>
        <time>2011-06-14T12:16:45Z</time>
      </trkpt>
      <trkpt lat="44.41423" lon="4.01995">
        <ele>851.7</ele>
        <time>2011-06-14T12:16:51Z</time>
      </trkpt>
      <trkpt lat="44.41422" lon="4.01993">
        <ele>851.4</ele>
        <time>2011-06-14T12:16:52Z</time>
      </trkpt>
      <trkpt lat="44.41417" lon="4.01975">
        <ele>849.2</ele>
        <time>2011-06-14T12:17:04Z</time>
      </trkpt>
      <trkpt lat="44.41412" lon="4.01966">
        <ele>849.7</ele>
        <time>2011-06-14T12:17:13Z</time>
      </trkpt>
      <trkpt lat="44.41405" lon="4.01959">
        <ele>852.4</ele>
        <time>2011-06-14T12:17:20Z</time>
      </trkpt>
      <trkpt lat="44.41398" lon="4.01953">
        <ele>853.2</ele>
        <time>2011-06-14T12:17:28Z</time>
      </trkpt>
      <trkpt lat="44.41391" lon="4.01948">
        <ele>851</ele>
        <time>2011-06-14T12:17:34Z</time>
      </trkpt>
      <trkpt lat="44.41383" lon="4.01945">
        <ele>846.7</ele>
        <time>2011-06-14T12:17:40Z</time>
      </trkpt>
      <trkpt lat="44.41375" lon="4.01945">
        <ele>847.9</ele>
        <time>2011-06-14T12:17:49Z</time>
      </trkpt>
      <trkpt lat="44.41367" lon="4.01944">
        <ele>852.2</ele>
        <time>2011-06-14T12:17:58Z</time>
      </trkpt>
      <trkpt lat="44.41366" lon="4.01945">
        <ele>852.2</ele>
        <time>2011-06-14T12:17:59Z</time>
      </trkpt>
      <trkpt lat="44.4135" lon="4.01942">
        <ele>861.4</ele>
        <time>2011-06-14T12:18:13Z</time>
      </trkpt>
      <trkpt lat="44.41342" lon="4.01941">
        <ele>865.5</ele>
        <time>2011-06-14T12:18:19Z</time>
      </trkpt>
      <trkpt lat="44.41334" lon="4.01943">
        <ele>865.2</ele>
        <time>2011-06-14T12:18:27Z</time>
      </trkpt>
      <trkpt lat="44.41325" lon="4.01945">
        <ele>861</ele>
        <time>2011-06-14T12:18:34Z</time>
      </trkpt>
      <trkpt lat="44.41316" lon="4.01946">
        <ele>857.4</ele>
        <time>2011-06-14T12:18:38Z</time>
      </trkpt>
      <trkpt lat="44.41309" lon="4.01944">
        <ele>858</ele>
        <time>2011-06-14T12:18:41Z</time>
      </trkpt>
      <trkpt lat="44.413" lon="4.01945">
        <ele>864.2</ele>
        <time>2011-06-14T12:18:48Z</time>
      </trkpt>
      <trkpt lat="44.41293" lon="4.01938">
        <ele>869.9</ele>
        <time>2011-06-14T12:19:10Z</time>
      </trkpt>
      <trkpt lat="44.41293" lon="4.01937">
        <ele>868.7</ele>
        <time>2011-06-14T12:19:11Z</time>
      </trkpt>
      <trkpt lat="44.41294" lon="4.01914">
        <ele>863.5</ele>
        <time>2011-06-14T12:19:25Z</time>
      </trkpt>
      <trkpt lat="44.41294" lon="4.01903">
        <ele>868.7</ele>
        <time>2011-06-14T12:19:32Z</time>
      </trkpt>
      <trkpt lat="44.41297" lon="4.01893">
        <ele>866.7</ele>
        <time>2011-06-14T12:19:40Z</time>
      </trkpt>
      <trkpt lat="44.41299" lon="4.0188">
        <ele>865.2</ele>
        <time>2011-06-14T12:19:48Z</time>
      </trkpt>
      <trkpt lat="44.413" lon="4.01869">
        <ele>861.5</ele>
        <time>2011-06-14T12:19:55Z</time>
      </trkpt>
      <trkpt lat="44.41301" lon="4.01858">
        <ele>862</ele>
        <time>2011-06-14T12:20:03Z</time>
      </trkpt>
      <trkpt lat="44.41302" lon="4.01847">
        <ele>864.2</ele>
        <time>2011-06-14T12:20:11Z</time>
      </trkpt>
      <trkpt lat="44.41301" lon="4.01845">
        <ele>863.9</ele>
        <time>2011-06-14T12:20:12Z</time>
      </trkpt>
      <trkpt lat="44.4129" lon="4.01834">
        <ele>863.5</ele>
        <time>2011-06-14T12:20:19Z</time>
      </trkpt>
      <trkpt lat="44.41284" lon="4.01826">
        <ele>863</ele>
        <time>2011-06-14T12:20:26Z</time>
      </trkpt>
      <trkpt lat="44.41278" lon="4.01817">
        <ele>863.7</ele>
        <time>2011-06-14T12:20:34Z</time>
      </trkpt>
      <trkpt lat="44.41271" lon="4.01808">
        <ele>866.2</ele>
        <time>2011-06-14T12:20:43Z</time>
      </trkpt>
      <trkpt lat="44.41264" lon="4.01803">
        <ele>865.2</ele>
        <time>2011-06-14T12:20:50Z</time>
      </trkpt>
      <trkpt lat="44.41256" lon="4.01798">
        <ele>866.5</ele>
        <time>2011-06-14T12:20:56Z</time>
      </trkpt>
      <trkpt lat="44.41248" lon="4.01794">
        <ele>867.7</ele>
        <time>2011-06-14T12:21:02Z</time>
      </trkpt>
      <trkpt lat="44.4124" lon="4.01791">
        <ele>867.4</ele>
        <time>2011-06-14T12:21:09Z</time>
      </trkpt>
      <trkpt lat="44.41233" lon="4.01789">
        <ele>871</ele>
        <time>2011-06-14T12:21:22Z</time>
      </trkpt>
      <trkpt lat="44.41231" lon="4.01788">
        <ele>870.2</ele>
        <time>2011-06-14T12:21:23Z</time>
      </trkpt>
      <trkpt lat="44.41216" lon="4.01782">
        <ele>870</ele>
        <time>2011-06-14T12:21:36Z</time>
      </trkpt>
      <trkpt lat="44.41209" lon="4.01778">
        <ele>876.9</ele>
        <time>2011-06-14T12:21:43Z</time>
      </trkpt>
      <trkpt lat="44.41201" lon="4.01773">
        <ele>879.2</ele>
        <time>2011-06-14T12:21:51Z</time>
      </trkpt>
      <trkpt lat="44.41193" lon="4.0177">
        <ele>874.2</ele>
        <time>2011-06-14T12:21:57Z</time>
      </trkpt>
      <trkpt lat="44.41186" lon="4.01768">
        <ele>875.7</ele>
        <time>2011-06-14T12:22:03Z</time>
      </trkpt>
      <trkpt lat="44.41178" lon="4.01769">
        <ele>878</ele>
        <time>2011-06-14T12:22:12Z</time>
      </trkpt>
      <trkpt lat="44.4117" lon="4.01767">
        <ele>877.9</ele>
        <time>2011-06-14T12:22:17Z</time>
      </trkpt>
      <trkpt lat="44.41162" lon="4.01765">
        <ele>873.9</ele>
        <time>2011-06-14T12:22:22Z</time>
      </trkpt>
      <trkpt lat="44.41154" lon="4.01763">
        <ele>873</ele>
        <time>2011-06-14T12:22:28Z</time>
      </trkpt>
      <trkpt lat="44.41153" lon="4.01763">
        <ele>873</ele>
        <time>2011-06-14T12:22:29Z</time>
      </trkpt>
      <trkpt lat="44.41138" lon="4.01764">
        <ele>872.2</ele>
        <time>2011-06-14T12:22:49Z</time>
      </trkpt>
      <trkpt lat="44.4113" lon="4.01762">
        <ele>870.5</ele>
        <time>2011-06-14T12:22:54Z</time>
      </trkpt>
      <trkpt lat="44.41121" lon="4.01762">
        <ele>865.9</ele>
        <time>2011-06-14T12:22:59Z</time>
      </trkpt>
      <trkpt lat="44.41113" lon="4.01766">
        <ele>877.7</ele>
        <time>2011-06-14T12:23:08Z</time>
      </trkpt>
      <trkpt lat="44.41108" lon="4.01776">
        <ele>890.4</ele>
        <time>2011-06-14T12:23:19Z</time>
      </trkpt>
      <trkpt lat="44.411" lon="4.01778">
        <ele>893</ele>
        <time>2011-06-14T12:23:26Z</time>
      </trkpt>
      <trkpt lat="44.41094" lon="4.01781">
        <ele>888.2</ele>
        <time>2011-06-14T12:23:32Z</time>
      </trkpt>
      <trkpt lat="44.41091" lon="4.0178">
        <ele>887.7</ele>
        <time>2011-06-14T12:23:33Z</time>
      </trkpt>
      <trkpt lat="44.41076" lon="4.0178">
        <ele>892.2</ele>
        <time>2011-06-14T12:23:42Z</time>
      </trkpt>
      <trkpt lat="44.41069" lon="4.01785">
        <ele>889.2</ele>
        <time>2011-06-14T12:23:50Z</time>
      </trkpt>
      <trkpt lat="44.41061" lon="4.01788">
        <ele>889.2</ele>
        <time>2011-06-14T12:23:58Z</time>
      </trkpt>
      <trkpt lat="44.41053" lon="4.01791">
        <ele>891.7</ele>
        <time>2011-06-14T12:24:07Z</time>
      </trkpt>
      <trkpt lat="44.41045" lon="4.01794">
        <ele>887.5</ele>
        <time>2011-06-14T12:24:16Z</time>
      </trkpt>
      <trkpt lat="44.41036" lon="4.01797">
        <ele>888.2</ele>
        <time>2011-06-14T12:24:26Z</time>
      </trkpt>
      <trkpt lat="44.41028" lon="4.01795">
        <ele>880.2</ele>
        <time>2011-06-14T12:24:32Z</time>
      </trkpt>
      <trkpt lat="44.4102" lon="4.01793">
        <ele>880</ele>
        <time>2011-06-14T12:24:37Z</time>
      </trkpt>
      <trkpt lat="44.41018" lon="4.01792">
        <ele>878.5</ele>
        <time>2011-06-14T12:24:38Z</time>
      </trkpt>
      <trkpt lat="44.41003" lon="4.01791">
        <ele>877.5</ele>
        <time>2011-06-14T12:24:56Z</time>
      </trkpt>
      <trkpt lat="44.40995" lon="4.0179">
        <ele>881.9</ele>
        <time>2011-06-14T12:25:08Z</time>
      </trkpt>
      <trkpt lat="44.40986" lon="4.01786">
        <ele>881.5</ele>
        <time>2011-06-14T12:25:17Z</time>
      </trkpt>
      <trkpt lat="44.40978" lon="4.01784">
        <ele>879.7</ele>
        <time>2011-06-14T12:25:23Z</time>
      </trkpt>
      <trkpt lat="44.4097" lon="4.01783">
        <ele>879</ele>
        <time>2011-06-14T12:25:31Z</time>
      </trkpt>
      <trkpt lat="44.40961" lon="4.01784">
        <ele>883.9</ele>
        <time>2011-06-14T12:25:49Z</time>
      </trkpt>
      <trkpt lat="44.4096" lon="4.01783">
        <ele>883.5</ele>
        <time>2011-06-14T12:25:50Z</time>
      </trkpt>
      <trkpt lat="44.40945" lon="4.01777">
        <ele>885.5</ele>
        <time>2011-06-14T12:26:00Z</time>
      </trkpt>
      <trkpt lat="44.40937" lon="4.01774">
        <ele>887.5</ele>
        <time>2011-06-14T12:26:09Z</time>
      </trkpt>
      <trkpt lat="44.4093" lon="4.01773">
        <ele>886.5</ele>
        <time>2011-06-14T12:26:14Z</time>
      </trkpt>
      <trkpt lat="44.40921" lon="4.01774">
        <ele>886.5</ele>
        <time>2011-06-14T12:26:22Z</time>
      </trkpt>
      <trkpt lat="44.40914" lon="4.01773">
        <ele>883</ele>
        <time>2011-06-14T12:26:31Z</time>
      </trkpt>
      <trkpt lat="44.40907" lon="4.01773">
        <ele>885.5</ele>
        <time>2011-06-14T12:26:37Z</time>
      </trkpt>
      <trkpt lat="44.40899" lon="4.0177">
        <ele>885</ele>
        <time>2011-06-14T12:26:40Z</time>
      </trkpt>
      <trkpt lat="44.40892" lon="4.01763">
        <ele>885</ele>
        <time>2011-06-14T12:26:49Z</time>
      </trkpt>
      <trkpt lat="44.40884" lon="4.0176">
        <ele>884.5</ele>
        <time>2011-06-14T12:26:56Z</time>
      </trkpt>
      <trkpt lat="44.40883" lon="4.0176">
        <ele>884.4</ele>
        <time>2011-06-14T12:26:57Z</time>
      </trkpt>
      <trkpt lat="44.40868" lon="4.01756">
        <ele>886.5</ele>
        <time>2011-06-14T12:27:14Z</time>
      </trkpt>
      <trkpt lat="44.40861" lon="4.01752">
        <ele>885.9</ele>
        <time>2011-06-14T12:27:21Z</time>
      </trkpt>
      <trkpt lat="44.40854" lon="4.01747">
        <ele>884.7</ele>
        <time>2011-06-14T12:27:28Z</time>
      </trkpt>
      <trkpt lat="44.40846" lon="4.01742">
        <ele>884</ele>
        <time>2011-06-14T12:27:37Z</time>
      </trkpt>
      <trkpt lat="44.4084" lon="4.01738">
        <ele>886</ele>
        <time>2011-06-14T12:27:40Z</time>
      </trkpt>
      <trkpt lat="44.40834" lon="4.01731">
        <ele>888.2</ele>
        <time>2011-06-14T12:27:45Z</time>
      </trkpt>
      <trkpt lat="44.40825" lon="4.0173">
        <ele>889.7</ele>
        <time>2011-06-14T12:27:54Z</time>
      </trkpt>
      <trkpt lat="44.40817" lon="4.01728">
        <ele>889.7</ele>
        <time>2011-06-14T12:28:01Z</time>
      </trkpt>
      <trkpt lat="44.40816" lon="4.01727">
        <ele>888.4</ele>
        <time>2011-06-14T12:28:02Z</time>
      </trkpt>
      <trkpt lat="44.40802" lon="4.01721">
        <ele>887.5</ele>
        <time>2011-06-14T12:28:22Z</time>
      </trkpt>
      <trkpt lat="44.40794" lon="4.01715">
        <ele>889.4</ele>
        <time>2011-06-14T12:28:37Z</time>
      </trkpt>
      <trkpt lat="44.40787" lon="4.0171">
        <ele>889.4</ele>
        <time>2011-06-14T12:28:42Z</time>
      </trkpt>
      <trkpt lat="44.4078" lon="4.01704">
        <ele>892.5</ele>
        <time>2011-06-14T12:28:55Z</time>
      </trkpt>
      <trkpt lat="44.40773" lon="4.01698">
        <ele>889.5</ele>
        <time>2011-06-14T12:28:59Z</time>
      </trkpt>
      <trkpt lat="44.40769" lon="4.01688">
        <ele>893.7</ele>
        <time>2011-06-14T12:29:05Z</time>
      </trkpt>
      <trkpt lat="44.40767" lon="4.01687">
        <ele>895.2</ele>
        <time>2011-06-14T12:29:06Z</time>
      </trkpt>
      <trkpt lat="44.40757" lon="4.01672">
        <ele>904</ele>
        <time>2011-06-14T12:29:29Z</time>
      </trkpt>
      <trkpt lat="44.40751" lon="4.01665">
        <ele>903.5</ele>
        <time>2011-06-14T12:29:36Z</time>
      </trkpt>
      <trkpt lat="44.40746" lon="4.01657">
        <ele>905</ele>
        <time>2011-06-14T12:29:42Z</time>
      </trkpt>
      <trkpt lat="44.40739" lon="4.0165">
        <ele>905.7</ele>
        <time>2011-06-14T12:29:48Z</time>
      </trkpt>
      <trkpt lat="44.40735" lon="4.01642">
        <ele>905.7</ele>
        <time>2011-06-14T12:29:55Z</time>
      </trkpt>
      <trkpt lat="44.40728" lon="4.01638">
        <ele>903.4</ele>
        <time>2011-06-14T12:29:58Z</time>
      </trkpt>
      <trkpt lat="44.40721" lon="4.0163">
        <ele>902.7</ele>
        <time>2011-06-14T12:30:04Z</time>
      </trkpt>
      <trkpt lat="44.40716" lon="4.0162">
        <ele>905.7</ele>
        <time>2011-06-14T12:30:13Z</time>
      </trkpt>
      <trkpt lat="44.40715" lon="4.01619">
        <ele>905.9</ele>
        <time>2011-06-14T12:30:14Z</time>
      </trkpt>
      <trkpt lat="44.407" lon="4.01611">
        <ele>904.7</ele>
        <time>2011-06-14T12:30:31Z</time>
      </trkpt>
      <trkpt lat="44.40693" lon="4.01607">
        <ele>903.7</ele>
        <time>2011-06-14T12:30:37Z</time>
      </trkpt>
      <trkpt lat="44.40685" lon="4.01602">
        <ele>901</ele>
        <time>2011-06-14T12:30:40Z</time>
      </trkpt>
      <trkpt lat="44.40679" lon="4.01597">
        <ele>901</ele>
        <time>2011-06-14T12:30:43Z</time>
      </trkpt>
      <trkpt lat="44.40671" lon="4.01593">
        <ele>901.2</ele>
        <time>2011-06-14T12:30:47Z</time>
      </trkpt>
      <trkpt lat="44.40665" lon="4.01587">
        <ele>907.4</ele>
        <time>2011-06-14T12:31:06Z</time>
      </trkpt>
      <trkpt lat="44.40657" lon="4.01583">
        <ele>904.7</ele>
        <time>2011-06-14T12:31:10Z</time>
      </trkpt>
      <trkpt lat="44.4065" lon="4.01578">
        <ele>902</ele>
        <time>2011-06-14T12:31:14Z</time>
      </trkpt>
      <trkpt lat="44.40642" lon="4.01575">
        <ele>897.7</ele>
        <time>2011-06-14T12:31:20Z</time>
      </trkpt>
      <trkpt lat="44.40641" lon="4.01573">
        <ele>897</ele>
        <time>2011-06-14T12:31:21Z</time>
      </trkpt>
      <trkpt lat="44.40629" lon="4.01561">
        <ele>905.5</ele>
        <time>2011-06-14T12:31:41Z</time>
      </trkpt>
      <trkpt lat="44.40622" lon="4.01556">
        <ele>907.4</ele>
        <time>2011-06-14T12:31:47Z</time>
      </trkpt>
      <trkpt lat="44.40615" lon="4.01553">
        <ele>908.5</ele>
        <time>2011-06-14T12:31:56Z</time>
      </trkpt>
      <trkpt lat="44.40608" lon="4.01546">
        <ele>911</ele>
        <time>2011-06-14T12:32:02Z</time>
      </trkpt>
      <trkpt lat="44.40601" lon="4.01542">
        <ele>907.2</ele>
        <time>2011-06-14T12:32:08Z</time>
      </trkpt>
      <trkpt lat="44.40593" lon="4.01535">
        <ele>905.2</ele>
        <time>2011-06-14T12:32:22Z</time>
      </trkpt>
      <trkpt lat="44.40593" lon="4.01534">
        <ele>905.5</ele>
        <time>2011-06-14T12:32:23Z</time>
      </trkpt>
      <trkpt lat="44.40587" lon="4.01517">
        <ele>913.5</ele>
        <time>2011-06-14T12:32:41Z</time>
      </trkpt>
      <trkpt lat="44.4058" lon="4.0151">
        <ele>911.9</ele>
        <time>2011-06-14T12:32:48Z</time>
      </trkpt>
      <trkpt lat="44.40576" lon="4.01501">
        <ele>910.5</ele>
        <time>2011-06-14T12:32:55Z</time>
      </trkpt>
      <trkpt lat="44.40571" lon="4.01492">
        <ele>915.4</ele>
        <time>2011-06-14T12:33:03Z</time>
      </trkpt>
      <trkpt lat="44.40563" lon="4.01488">
        <ele>913</ele>
        <time>2011-06-14T12:33:09Z</time>
      </trkpt>
      <trkpt lat="44.40557" lon="4.0148">
        <ele>913</ele>
        <time>2011-06-14T12:33:18Z</time>
      </trkpt>
      <trkpt lat="44.40554" lon="4.01469">
        <ele>913.5</ele>
        <time>2011-06-14T12:33:29Z</time>
      </trkpt>
      <trkpt lat="44.40553" lon="4.01469">
        <ele>913.2</ele>
        <time>2011-06-14T12:33:30Z</time>
      </trkpt>
      <trkpt lat="44.40545" lon="4.01451">
        <ele>918.7</ele>
        <time>2011-06-14T12:33:47Z</time>
      </trkpt>
      <trkpt lat="44.40549" lon="4.01441">
        <ele>925.7</ele>
        <time>2011-06-14T12:33:56Z</time>
      </trkpt>
      <trkpt lat="44.40543" lon="4.01434">
        <ele>923.2</ele>
        <time>2011-06-14T12:33:59Z</time>
      </trkpt>
      <trkpt lat="44.40537" lon="4.01427">
        <ele>920.7</ele>
        <time>2011-06-14T12:34:04Z</time>
      </trkpt>
      <trkpt lat="44.40533" lon="4.01418">
        <ele>922.4</ele>
        <time>2011-06-14T12:34:10Z</time>
      </trkpt>
      <trkpt lat="44.4053" lon="4.01408">
        <ele>926</ele>
        <time>2011-06-14T12:34:17Z</time>
      </trkpt>
      <trkpt lat="44.4053" lon="4.01397">
        <ele>927.5</ele>
        <time>2011-06-14T12:34:26Z</time>
      </trkpt>
      <trkpt lat="44.40523" lon="4.01392">
        <ele>923.2</ele>
        <time>2011-06-14T12:34:31Z</time>
      </trkpt>
      <trkpt lat="44.40521" lon="4.01391">
        <ele>921.7</ele>
        <time>2011-06-14T12:34:32Z</time>
      </trkpt>
      <trkpt lat="44.40509" lon="4.01378">
        <ele>917.7</ele>
        <time>2011-06-14T12:34:42Z</time>
      </trkpt>
      <trkpt lat="44.40507" lon="4.01367">
        <ele>929.2</ele>
        <time>2011-06-14T12:34:56Z</time>
      </trkpt>
      <trkpt lat="44.40503" lon="4.01359">
        <ele>926</ele>
        <time>2011-06-14T12:35:01Z</time>
      </trkpt>
      <trkpt lat="44.40498" lon="4.01348">
        <ele>922.7</ele>
        <time>2011-06-14T12:35:11Z</time>
      </trkpt>
      <trkpt lat="44.40493" lon="4.01339">
        <ele>926</ele>
        <time>2011-06-14T12:35:21Z</time>
      </trkpt>
      <trkpt lat="44.40488" lon="4.01332">
        <ele>927.4</ele>
        <time>2011-06-14T12:35:26Z</time>
      </trkpt>
      <trkpt lat="44.40486" lon="4.01324">
        <ele>928.9</ele>
        <time>2011-06-14T12:35:32Z</time>
      </trkpt>
      <trkpt lat="44.40482" lon="4.01323">
        <ele>926.2</ele>
        <time>2011-06-14T12:35:33Z</time>
      </trkpt>
      <trkpt lat="44.40471" lon="4.0131">
        <ele>921</ele>
        <time>2011-06-14T12:35:42Z</time>
      </trkpt>
      <trkpt lat="44.40469" lon="4.01298">
        <ele>926.4</ele>
        <time>2011-06-14T12:35:51Z</time>
      </trkpt>
      <trkpt lat="44.40465" lon="4.01288">
        <ele>930.9</ele>
        <time>2011-06-14T12:36:01Z</time>
      </trkpt>
      <trkpt lat="44.40459" lon="4.0128">
        <ele>931.5</ele>
        <time>2011-06-14T12:36:09Z</time>
      </trkpt>
      <trkpt lat="44.40451" lon="4.01276">
        <ele>927.7</ele>
        <time>2011-06-14T12:36:13Z</time>
      </trkpt>
      <trkpt lat="44.4045" lon="4.01265">
        <ele>928.5</ele>
        <time>2011-06-14T12:36:23Z</time>
      </trkpt>
      <trkpt lat="44.40445" lon="4.01257">
        <ele>927.5</ele>
        <time>2011-06-14T12:36:29Z</time>
      </trkpt>
      <trkpt lat="44.40444" lon="4.01245">
        <ele>932.2</ele>
        <time>2011-06-14T12:36:40Z</time>
      </trkpt>
      <trkpt lat="44.40444" lon="4.01244">
        <ele>932.7</ele>
        <time>2011-06-14T12:36:41Z</time>
      </trkpt>
      <trkpt lat="44.40432" lon="4.01229">
        <ele>927</ele>
        <time>2011-06-14T12:36:53Z</time>
      </trkpt>
      <trkpt lat="44.40428" lon="4.01217">
        <ele>927.5</ele>
        <time>2011-06-14T12:37:02Z</time>
      </trkpt>
      <trkpt lat="44.40424" lon="4.01206">
        <ele>924.5</ele>
        <time>2011-06-14T12:37:10Z</time>
      </trkpt>
      <trkpt lat="44.40422" lon="4.01195">
        <ele>925.9</ele>
        <time>2011-06-14T12:37:19Z</time>
      </trkpt>
      <trkpt lat="44.40416" lon="4.01188">
        <ele>926.4</ele>
        <time>2011-06-14T12:37:25Z</time>
      </trkpt>
      <trkpt lat="44.4041" lon="4.0118">
        <ele>926.7</ele>
        <time>2011-06-14T12:37:30Z</time>
      </trkpt>
      <trkpt lat="44.40403" lon="4.01172">
        <ele>925.5</ele>
        <time>2011-06-14T12:37:36Z</time>
      </trkpt>
      <trkpt lat="44.40397" lon="4.01164">
        <ele>926</ele>
        <time>2011-06-14T12:37:50Z</time>
      </trkpt>
      <trkpt lat="44.40396" lon="4.01164">
        <ele>924.9</ele>
        <time>2011-06-14T12:37:51Z</time>
      </trkpt>
      <trkpt lat="44.40382" lon="4.01158">
        <ele>912.2</ele>
        <time>2011-06-14T12:38:10Z</time>
      </trkpt>
      <trkpt lat="44.40373" lon="4.01154">
        <ele>908.7</ele>
        <time>2011-06-14T12:38:21Z</time>
      </trkpt>
      <trkpt lat="44.40367" lon="4.01147">
        <ele>910.7</ele>
        <time>2011-06-14T12:38:30Z</time>
      </trkpt>
      <trkpt lat="44.40358" lon="4.01145">
        <ele>911.2</ele>
        <time>2011-06-14T12:38:38Z</time>
      </trkpt>
      <trkpt lat="44.40349" lon="4.01143">
        <ele>912</ele>
        <time>2011-06-14T12:38:46Z</time>
      </trkpt>
      <trkpt lat="44.40343" lon="4.01136">
        <ele>912.2</ele>
        <time>2011-06-14T12:38:54Z</time>
      </trkpt>
      <trkpt lat="44.40341" lon="4.01134">
        <ele>913.5</ele>
        <time>2011-06-14T12:38:55Z</time>
      </trkpt>
      <trkpt lat="44.40326" lon="4.01132">
        <ele>912.9</ele>
        <time>2011-06-14T12:39:08Z</time>
      </trkpt>
      <trkpt lat="44.40319" lon="4.01126">
        <ele>913.9</ele>
        <time>2011-06-14T12:39:15Z</time>
      </trkpt>
      <trkpt lat="44.40311" lon="4.01123">
        <ele>913.2</ele>
        <time>2011-06-14T12:39:23Z</time>
      </trkpt>
      <trkpt lat="44.40303" lon="4.0112">
        <ele>916</ele>
        <time>2011-06-14T12:39:33Z</time>
      </trkpt>
      <trkpt lat="44.40295" lon="4.01116">
        <ele>915</ele>
        <time>2011-06-14T12:39:43Z</time>
      </trkpt>
      <trkpt lat="44.40287" lon="4.01112">
        <ele>913.4</ele>
        <time>2011-06-14T12:39:50Z</time>
      </trkpt>
      <trkpt lat="44.40281" lon="4.01106">
        <ele>914.9</ele>
        <time>2011-06-14T12:39:56Z</time>
      </trkpt>
      <trkpt lat="44.4028" lon="4.01105">
        <ele>914.7</ele>
        <time>2011-06-14T12:39:57Z</time>
      </trkpt>
      <trkpt lat="44.40265" lon="4.01096">
        <ele>912.7</ele>
        <time>2011-06-14T12:40:11Z</time>
      </trkpt>
      <trkpt lat="44.40259" lon="4.01088">
        <ele>914.2</ele>
        <time>2011-06-14T12:40:17Z</time>
      </trkpt>
      <trkpt lat="44.40253" lon="4.0108">
        <ele>918.7</ele>
        <time>2011-06-14T12:40:24Z</time>
      </trkpt>
      <trkpt lat="44.40248" lon="4.01071">
        <ele>917.2</ele>
        <time>2011-06-14T12:40:34Z</time>
      </trkpt>
      <trkpt lat="44.40242" lon="4.01063">
        <ele>919.7</ele>
        <time>2011-06-14T12:40:41Z</time>
      </trkpt>
      <trkpt lat="44.40235" lon="4.01055">
        <ele>918.5</ele>
        <time>2011-06-14T12:40:49Z</time>
      </trkpt>
      <trkpt lat="44.40232" lon="4.01046">
        <ele>926.5</ele>
        <time>2011-06-14T12:40:59Z</time>
      </trkpt>
      <trkpt lat="44.40231" lon="4.01044">
        <ele>927</ele>
        <time>2011-06-14T12:41:00Z</time>
      </trkpt>
      <trkpt lat="44.40222" lon="4.01027">
        <ele>937.5</ele>
        <time>2011-06-14T12:41:10Z</time>
      </trkpt>
      <trkpt lat="44.40218" lon="4.01018">
        <ele>939.5</ele>
        <time>2011-06-14T12:41:19Z</time>
      </trkpt>
      <trkpt lat="44.40211" lon="4.01011">
        <ele>936.5</ele>
        <time>2011-06-14T12:41:29Z</time>
      </trkpt>
      <trkpt lat="44.40209" lon="4.00999">
        <ele>936.7</ele>
        <time>2011-06-14T12:41:41Z</time>
      </trkpt>
      <trkpt lat="44.40204" lon="4.00989">
        <ele>939.7</ele>
        <time>2011-06-14T12:41:48Z</time>
      </trkpt>
      <trkpt lat="44.40199" lon="4.0098">
        <ele>943</ele>
        <time>2011-06-14T12:41:54Z</time>
      </trkpt>
      <trkpt lat="44.40194" lon="4.0097">
        <ele>944.2</ele>
        <time>2011-06-14T12:42:01Z</time>
      </trkpt>
      <trkpt lat="44.40193" lon="4.00969">
        <ele>944.2</ele>
        <time>2011-06-14T12:42:02Z</time>
      </trkpt>
      <trkpt lat="44.40185" lon="4.0095">
        <ele>948</ele>
        <time>2011-06-14T12:42:18Z</time>
      </trkpt>
      <trkpt lat="44.40178" lon="4.00944">
        <ele>946.5</ele>
        <time>2011-06-14T12:42:24Z</time>
      </trkpt>
      <trkpt lat="44.40172" lon="4.00936">
        <ele>945.2</ele>
        <time>2011-06-14T12:42:34Z</time>
      </trkpt>
      <trkpt lat="44.40167" lon="4.0093">
        <ele>946.5</ele>
        <time>2011-06-14T12:42:40Z</time>
      </trkpt>
      <trkpt lat="44.40161" lon="4.00923">
        <ele>942</ele>
        <time>2011-06-14T12:42:47Z</time>
      </trkpt>
      <trkpt lat="44.40155" lon="4.00913">
        <ele>936.5</ele>
        <time>2011-06-14T12:42:56Z</time>
      </trkpt>
      <trkpt lat="44.40148" lon="4.00906">
        <ele>934.2</ele>
        <time>2011-06-14T12:43:03Z</time>
      </trkpt>
      <trkpt lat="44.40148" lon="4.00905">
        <ele>934.2</ele>
        <time>2011-06-14T12:43:04Z</time>
      </trkpt>
      <trkpt lat="44.4014" lon="4.00886">
        <ele>936.5</ele>
        <time>2011-06-14T12:43:20Z</time>
      </trkpt>
      <trkpt lat="44.40134" lon="4.00877">
        <ele>932.5</ele>
        <time>2011-06-14T12:43:30Z</time>
      </trkpt>
      <trkpt lat="44.40128" lon="4.00869">
        <ele>932</ele>
        <time>2011-06-14T12:43:40Z</time>
      </trkpt>
      <trkpt lat="44.4012" lon="4.00866">
        <ele>931.5</ele>
        <time>2011-06-14T12:43:48Z</time>
      </trkpt>
      <trkpt lat="44.40112" lon="4.00863">
        <ele>930.2</ele>
        <time>2011-06-14T12:43:57Z</time>
      </trkpt>
      <trkpt lat="44.40104" lon="4.00858">
        <ele>930.7</ele>
        <time>2011-06-14T12:44:06Z</time>
      </trkpt>
      <trkpt lat="44.40103" lon="4.00858">
        <ele>931</ele>
        <time>2011-06-14T12:44:07Z</time>
      </trkpt>
      <trkpt lat="44.40088" lon="4.0086">
        <ele>926.9</ele>
        <time>2011-06-14T12:44:23Z</time>
      </trkpt>
      <trkpt lat="44.4008" lon="4.00858">
        <ele>924.5</ele>
        <time>2011-06-14T12:44:33Z</time>
      </trkpt>
      <trkpt lat="44.40071" lon="4.00858">
        <ele>925.5</ele>
        <time>2011-06-14T12:44:41Z</time>
      </trkpt>
      <trkpt lat="44.40063" lon="4.00859">
        <ele>928.5</ele>
        <time>2011-06-14T12:44:50Z</time>
      </trkpt>
      <trkpt lat="44.40055" lon="4.0086">
        <ele>928.7</ele>
        <time>2011-06-14T12:44:57Z</time>
      </trkpt>
      <trkpt lat="44.40047" lon="4.00863">
        <ele>936.9</ele>
        <time>2011-06-14T12:45:06Z</time>
      </trkpt>
      <trkpt lat="44.40039" lon="4.00867">
        <ele>944.2</ele>
        <time>2011-06-14T12:45:12Z</time>
      </trkpt>
      <trkpt lat="44.40037" lon="4.00868">
        <ele>945.5</ele>
        <time>2011-06-14T12:45:13Z</time>
      </trkpt>
      <trkpt lat="44.40022" lon="4.00876">
        <ele>950.4</ele>
        <time>2011-06-14T12:45:27Z</time>
      </trkpt>
      <trkpt lat="44.40013" lon="4.00877">
        <ele>956.9</ele>
        <time>2011-06-14T12:45:34Z</time>
      </trkpt>
      <trkpt lat="44.40005" lon="4.00877">
        <ele>956</ele>
        <time>2011-06-14T12:45:39Z</time>
      </trkpt>
      <trkpt lat="44.39999" lon="4.00885">
        <ele>953.4</ele>
        <time>2011-06-14T12:45:48Z</time>
      </trkpt>
      <trkpt lat="44.39997" lon="4.00897">
        <ele>949.2</ele>
        <time>2011-06-14T12:45:56Z</time>
      </trkpt>
      <trkpt lat="44.39998" lon="4.0091">
        <ele>945</ele>
        <time>2011-06-14T12:46:04Z</time>
      </trkpt>
      <trkpt lat="44.39996" lon="4.00921">
        <ele>945.2</ele>
        <time>2011-06-14T12:46:10Z</time>
      </trkpt>
      <trkpt lat="44.39999" lon="4.00932">
        <ele>949</ele>
        <time>2011-06-14T12:46:18Z</time>
      </trkpt>
      <trkpt lat="44.39998" lon="4.00934">
        <ele>949.4</ele>
        <time>2011-06-14T12:46:19Z</time>
      </trkpt>
      <trkpt lat="44.39998" lon="4.00956">
        <ele>945.7</ele>
        <time>2011-06-14T12:46:35Z</time>
      </trkpt>
      <trkpt lat="44.39995" lon="4.00968">
        <ele>946</ele>
        <time>2011-06-14T12:46:44Z</time>
      </trkpt>
      <trkpt lat="44.39992" lon="4.00979">
        <ele>945.7</ele>
        <time>2011-06-14T12:46:53Z</time>
      </trkpt>
      <trkpt lat="44.39989" lon="4.00989">
        <ele>945.2</ele>
        <time>2011-06-14T12:47:01Z</time>
      </trkpt>
      <trkpt lat="44.39985" lon="4.01">
        <ele>945.7</ele>
        <time>2011-06-14T12:47:08Z</time>
      </trkpt>
      <trkpt lat="44.39977" lon="4.01007">
        <ele>945.5</ele>
        <time>2011-06-14T12:47:16Z</time>
      </trkpt>
      <trkpt lat="44.39969" lon="4.01011">
        <ele>941</ele>
        <time>2011-06-14T12:47:30Z</time>
      </trkpt>
      <trkpt lat="44.39969" lon="4.01011">
        <ele>940.5</ele>
        <time>2011-06-14T12:47:31Z</time>
      </trkpt>
      <trkpt lat="44.39952" lon="4.01017">
        <ele>933.9</ele>
        <time>2011-06-14T12:47:46Z</time>
      </trkpt>
      <trkpt lat="44.39945" lon="4.01022">
        <ele>933.2</ele>
        <time>2011-06-14T12:47:52Z</time>
      </trkpt>
      <trkpt lat="44.39937" lon="4.01028">
        <ele>933.7</ele>
        <time>2011-06-14T12:48:00Z</time>
      </trkpt>
      <trkpt lat="44.39929" lon="4.01027">
        <ele>936.2</ele>
        <time>2011-06-14T12:48:07Z</time>
      </trkpt>
      <trkpt lat="44.39921" lon="4.01033">
        <ele>937.5</ele>
        <time>2011-06-14T12:48:14Z</time>
      </trkpt>
      <trkpt lat="44.39913" lon="4.01038">
        <ele>940.7</ele>
        <time>2011-06-14T12:48:21Z</time>
      </trkpt>
      <trkpt lat="44.39904" lon="4.01042">
        <ele>938</ele>
        <time>2011-06-14T12:48:30Z</time>
      </trkpt>
      <trkpt lat="44.39898" lon="4.01048">
        <ele>938.5</ele>
        <time>2011-06-14T12:48:37Z</time>
      </trkpt>
      <trkpt lat="44.39897" lon="4.01049">
        <ele>938</ele>
        <time>2011-06-14T12:48:38Z</time>
      </trkpt>
      <trkpt lat="44.39883" lon="4.01059">
        <ele>938.2</ele>
        <time>2011-06-14T12:48:52Z</time>
      </trkpt>
      <trkpt lat="44.39875" lon="4.01066">
        <ele>935.2</ele>
        <time>2011-06-14T12:49:02Z</time>
      </trkpt>
      <trkpt lat="44.39867" lon="4.0107">
        <ele>937.5</ele>
        <time>2011-06-14T12:49:09Z</time>
      </trkpt>
      <trkpt lat="44.39861" lon="4.01078">
        <ele>935</ele>
        <time>2011-06-14T12:49:19Z</time>
      </trkpt>
      <trkpt lat="44.39853" lon="4.01084">
        <ele>936</ele>
        <time>2011-06-14T12:49:27Z</time>
      </trkpt>
      <trkpt lat="44.39846" lon="4.01092">
        <ele>937</ele>
        <time>2011-06-14T12:49:34Z</time>
      </trkpt>
      <trkpt lat="44.39839" lon="4.01097">
        <ele>933.4</ele>
        <time>2011-06-14T12:49:43Z</time>
      </trkpt>
      <trkpt lat="44.39838" lon="4.01098">
        <ele>932.7</ele>
        <time>2011-06-14T12:49:44Z</time>
      </trkpt>
      <trkpt lat="44.39827" lon="4.01113">
        <ele>927</ele>
        <time>2011-06-14T12:49:59Z</time>
      </trkpt>
      <trkpt lat="44.3982" lon="4.0112">
        <ele>922.7</ele>
        <time>2011-06-14T12:50:08Z</time>
      </trkpt>
      <trkpt lat="44.39813" lon="4.01125">
        <ele>925.2</ele>
        <time>2011-06-14T12:50:15Z</time>
      </trkpt>
      <trkpt lat="44.39806" lon="4.01132">
        <ele>925.2</ele>
        <time>2011-06-14T12:50:23Z</time>
      </trkpt>
      <trkpt lat="44.398" lon="4.01141">
        <ele>924.9</ele>
        <time>2011-06-14T12:50:31Z</time>
      </trkpt>
      <trkpt lat="44.39795" lon="4.0115">
        <ele>922.5</ele>
        <time>2011-06-14T12:50:38Z</time>
      </trkpt>
      <trkpt lat="44.39793" lon="4.01161">
        <ele>915</ele>
        <time>2011-06-14T12:50:46Z</time>
      </trkpt>
      <trkpt lat="44.39793" lon="4.01162">
        <ele>913.7</ele>
        <time>2011-06-14T12:50:47Z</time>
      </trkpt>
      <trkpt lat="44.39789" lon="4.01183">
        <ele>906.5</ele>
        <time>2011-06-14T12:51:02Z</time>
      </trkpt>
      <trkpt lat="44.39788" lon="4.01196">
        <ele>910.2</ele>
        <time>2011-06-14T12:51:09Z</time>
      </trkpt>
      <trkpt lat="44.39787" lon="4.01208">
        <ele>923.9</ele>
        <time>2011-06-14T12:51:17Z</time>
      </trkpt>
      <trkpt lat="44.39783" lon="4.01219">
        <ele>927</ele>
        <time>2011-06-14T12:51:26Z</time>
      </trkpt>
      <trkpt lat="44.39782" lon="4.01231">
        <ele>926.7</ele>
        <time>2011-06-14T12:52:04Z</time>
      </trkpt>
      <trkpt lat="44.3978" lon="4.01231">
        <ele>926</ele>
        <time>2011-06-14T12:52:05Z</time>
      </trkpt>
      <trkpt lat="44.39766" lon="4.01238">
        <ele>924.2</ele>
        <time>2011-06-14T12:52:19Z</time>
      </trkpt>
      <trkpt lat="44.39758" lon="4.01235">
        <ele>922</ele>
        <time>2011-06-14T12:52:31Z</time>
      </trkpt>
      <trkpt lat="44.39749" lon="4.01239">
        <ele>921.7</ele>
        <time>2011-06-14T12:52:41Z</time>
      </trkpt>
      <trkpt lat="44.39741" lon="4.0124">
        <ele>922</ele>
        <time>2011-06-14T12:52:49Z</time>
      </trkpt>
      <trkpt lat="44.39732" lon="4.01244">
        <ele>923.2</ele>
        <time>2011-06-14T12:54:54Z</time>
      </trkpt>
      <trkpt lat="44.39732" lon="4.01244">
        <ele>923</ele>
        <time>2011-06-14T12:54:55Z</time>
      </trkpt>
      <trkpt lat="44.39726" lon="4.01233">
        <ele>943.2</ele>
        <time>2011-06-14T12:56:47Z</time>
      </trkpt>
      <trkpt lat="44.39736" lon="4.01233">
        <ele>934</ele>
        <time>2011-06-14T12:57:18Z</time>
      </trkpt>
      <trkpt lat="44.39741" lon="4.01242">
        <ele>910.2</ele>
        <time>2011-06-14T12:57:48Z</time>
      </trkpt>
      <trkpt lat="44.39742" lon="4.01244">
        <ele>909.7</ele>
        <time>2011-06-14T12:57:49Z</time>
      </trkpt>
      <trkpt lat="44.39733" lon="4.01239">
        <ele>926</ele>
        <time>2011-06-14T12:58:55Z</time>
      </trkpt>
      <trkpt lat="44.39724" lon="4.01245">
        <ele>919</ele>
        <time>2011-06-14T13:01:55Z</time>
      </trkpt>
      <trkpt lat="44.39712" lon="4.01261">
        <ele>913.7</ele>
        <time>2011-06-14T13:02:19Z</time>
      </trkpt>
      <trkpt lat="44.39706" lon="4.01269">
        <ele>913.7</ele>
        <time>2011-06-14T13:02:30Z</time>
      </trkpt>
      <trkpt lat="44.39698" lon="4.01274">
        <ele>913.5</ele>
        <time>2011-06-14T13:02:39Z</time>
      </trkpt>
      <trkpt lat="44.39691" lon="4.0128">
        <ele>911.5</ele>
        <time>2011-06-14T13:02:49Z</time>
      </trkpt>
      <trkpt lat="44.39683" lon="4.01282">
        <ele>911.2</ele>
        <time>2011-06-14T13:02:57Z</time>
      </trkpt>
      <trkpt lat="44.39682" lon="4.01283">
        <ele>911.2</ele>
        <time>2011-06-14T13:02:58Z</time>
      </trkpt>
      <trkpt lat="44.39667" lon="4.01292">
        <ele>904.7</ele>
        <time>2011-06-14T13:03:15Z</time>
      </trkpt>
      <trkpt lat="44.39659" lon="4.01296">
        <ele>904.4</ele>
        <time>2011-06-14T13:03:24Z</time>
      </trkpt>
      <trkpt lat="44.39652" lon="4.01304">
        <ele>906.5</ele>
        <time>2011-06-14T13:03:34Z</time>
      </trkpt>
      <trkpt lat="44.39645" lon="4.01307">
        <ele>905.2</ele>
        <time>2011-06-14T13:03:44Z</time>
      </trkpt>
      <trkpt lat="44.39637" lon="4.01311">
        <ele>903</ele>
        <time>2011-06-14T13:03:54Z</time>
      </trkpt>
      <trkpt lat="44.39629" lon="4.01316">
        <ele>900.2</ele>
        <time>2011-06-14T13:04:04Z</time>
      </trkpt>
      <trkpt lat="44.39628" lon="4.01316">
        <ele>900</ele>
        <time>2011-06-14T13:04:05Z</time>
      </trkpt>
      <trkpt lat="44.39612" lon="4.01318">
        <ele>895.7</ele>
        <time>2011-06-14T13:04:20Z</time>
      </trkpt>
      <trkpt lat="44.39604" lon="4.01319">
        <ele>894</ele>
        <time>2011-06-14T13:04:30Z</time>
      </trkpt>
      <trkpt lat="44.39596" lon="4.01319">
        <ele>892</ele>
        <time>2011-06-14T13:04:39Z</time>
      </trkpt>
      <trkpt lat="44.39588" lon="4.01316">
        <ele>892.5</ele>
        <time>2011-06-14T13:04:48Z</time>
      </trkpt>
      <trkpt lat="44.39579" lon="4.01313">
        <ele>891.7</ele>
        <time>2011-06-14T13:04:56Z</time>
      </trkpt>
      <trkpt lat="44.39571" lon="4.0131">
        <ele>889.7</ele>
        <time>2011-06-14T13:05:05Z</time>
      </trkpt>
      <trkpt lat="44.39564" lon="4.01306">
        <ele>889.2</ele>
        <time>2011-06-14T13:05:13Z</time>
      </trkpt>
      <trkpt lat="44.39563" lon="4.01304">
        <ele>889.7</ele>
        <time>2011-06-14T13:05:14Z</time>
      </trkpt>
      <trkpt lat="44.39548" lon="4.01294">
        <ele>894</ele>
        <time>2011-06-14T13:05:26Z</time>
      </trkpt>
      <trkpt lat="44.3954" lon="4.0129">
        <ele>896.5</ele>
        <time>2011-06-14T13:05:34Z</time>
      </trkpt>
      <trkpt lat="44.39532" lon="4.01292">
        <ele>893.5</ele>
        <time>2011-06-14T13:05:44Z</time>
      </trkpt>
      <trkpt lat="44.39523" lon="4.01292">
        <ele>889.5</ele>
        <time>2011-06-14T13:05:54Z</time>
      </trkpt>
      <trkpt lat="44.39515" lon="4.01292">
        <ele>888.2</ele>
        <time>2011-06-14T13:06:02Z</time>
      </trkpt>
      <trkpt lat="44.39508" lon="4.01289">
        <ele>889.9</ele>
        <time>2011-06-14T13:06:08Z</time>
      </trkpt>
      <trkpt lat="44.39499" lon="4.0129">
        <ele>888.2</ele>
        <time>2011-06-14T13:06:18Z</time>
      </trkpt>
      <trkpt lat="44.39498" lon="4.0129">
        <ele>887.9</ele>
        <time>2011-06-14T13:06:19Z</time>
      </trkpt>
      <trkpt lat="44.39482" lon="4.0129">
        <ele>885.5</ele>
        <time>2011-06-14T13:06:36Z</time>
      </trkpt>
      <trkpt lat="44.39474" lon="4.01288">
        <ele>888.5</ele>
        <time>2011-06-14T13:06:43Z</time>
      </trkpt>
      <trkpt lat="44.39465" lon="4.01285">
        <ele>892.5</ele>
        <time>2011-06-14T13:06:50Z</time>
      </trkpt>
      <trkpt lat="44.39457" lon="4.01286">
        <ele>891.4</ele>
        <time>2011-06-14T13:06:59Z</time>
      </trkpt>
      <trkpt lat="44.39448" lon="4.01288">
        <ele>890.2</ele>
        <time>2011-06-14T13:07:07Z</time>
      </trkpt>
      <trkpt lat="44.3944" lon="4.01286">
        <ele>890.5</ele>
        <time>2011-06-14T13:07:13Z</time>
      </trkpt>
      <trkpt lat="44.39431" lon="4.01287">
        <ele>887.2</ele>
        <time>2011-06-14T13:07:22Z</time>
      </trkpt>
      <trkpt lat="44.39431" lon="4.01288">
        <ele>887</ele>
        <time>2011-06-14T13:07:23Z</time>
      </trkpt>
      <trkpt lat="44.39416" lon="4.01295">
        <ele>885.7</ele>
        <time>2011-06-14T13:07:38Z</time>
      </trkpt>
      <trkpt lat="44.39408" lon="4.01298">
        <ele>885.4</ele>
        <time>2011-06-14T13:07:46Z</time>
      </trkpt>
      <trkpt lat="44.39401" lon="4.01305">
        <ele>881.5</ele>
        <time>2011-06-14T13:07:57Z</time>
      </trkpt>
      <trkpt lat="44.39392" lon="4.01307">
        <ele>881</ele>
        <time>2011-06-14T13:08:06Z</time>
      </trkpt>
      <trkpt lat="44.39384" lon="4.01311">
        <ele>884</ele>
        <time>2011-06-14T13:08:15Z</time>
      </trkpt>
      <trkpt lat="44.39375" lon="4.01311">
        <ele>883.5</ele>
        <time>2011-06-14T13:08:25Z</time>
      </trkpt>
      <trkpt lat="44.39374" lon="4.01311">
        <ele>883.5</ele>
        <time>2011-06-14T13:08:26Z</time>
      </trkpt>
      <trkpt lat="44.39359" lon="4.01316">
        <ele>881.2</ele>
        <time>2011-06-14T13:08:39Z</time>
      </trkpt>
      <trkpt lat="44.39352" lon="4.0132">
        <ele>882.2</ele>
        <time>2011-06-14T13:08:47Z</time>
      </trkpt>
      <trkpt lat="44.39344" lon="4.01326">
        <ele>881.4</ele>
        <time>2011-06-14T13:08:56Z</time>
      </trkpt>
      <trkpt lat="44.39339" lon="4.01335">
        <ele>880.5</ele>
        <time>2011-06-14T13:09:03Z</time>
      </trkpt>
      <trkpt lat="44.39331" lon="4.0134">
        <ele>878</ele>
        <time>2011-06-14T13:09:10Z</time>
      </trkpt>
      <trkpt lat="44.39323" lon="4.01344">
        <ele>872.9</ele>
        <time>2011-06-14T13:09:18Z</time>
      </trkpt>
      <trkpt lat="44.39315" lon="4.01347">
        <ele>871.5</ele>
        <time>2011-06-14T13:09:25Z</time>
      </trkpt>
      <trkpt lat="44.39307" lon="4.01354">
        <ele>875</ele>
        <time>2011-06-14T13:09:35Z</time>
      </trkpt>
      <trkpt lat="44.39306" lon="4.01355">
        <ele>876</ele>
        <time>2011-06-14T13:09:36Z</time>
      </trkpt>
      <trkpt lat="44.39291" lon="4.01358">
        <ele>878</ele>
        <time>2011-06-14T13:09:50Z</time>
      </trkpt>
      <trkpt lat="44.39283" lon="4.01362">
        <ele>878</ele>
        <time>2011-06-14T13:09:58Z</time>
      </trkpt>
      <trkpt lat="44.39274" lon="4.01365">
        <ele>879.5</ele>
        <time>2011-06-14T13:10:06Z</time>
      </trkpt>
      <trkpt lat="44.39267" lon="4.01371">
        <ele>878.5</ele>
        <time>2011-06-14T13:10:14Z</time>
      </trkpt>
      <trkpt lat="44.39258" lon="4.01374">
        <ele>878</ele>
        <time>2011-06-14T13:10:22Z</time>
      </trkpt>
      <trkpt lat="44.39251" lon="4.0138">
        <ele>874.7</ele>
        <time>2011-06-14T13:10:31Z</time>
      </trkpt>
      <trkpt lat="44.39243" lon="4.01378">
        <ele>871.5</ele>
        <time>2011-06-14T13:10:38Z</time>
      </trkpt>
      <trkpt lat="44.39242" lon="4.01377">
        <ele>872.2</ele>
        <time>2011-06-14T13:10:39Z</time>
      </trkpt>
      <trkpt lat="44.39227" lon="4.01371">
        <ele>878.5</ele>
        <time>2011-06-14T13:10:52Z</time>
      </trkpt>
      <trkpt lat="44.39219" lon="4.01369">
        <ele>879</ele>
        <time>2011-06-14T13:10:58Z</time>
      </trkpt>
      <trkpt lat="44.39211" lon="4.01368">
        <ele>879</ele>
        <time>2011-06-14T13:11:04Z</time>
      </trkpt>
      <trkpt lat="44.39202" lon="4.0137">
        <ele>878</ele>
        <time>2011-06-14T13:11:13Z</time>
      </trkpt>
      <trkpt lat="44.39195" lon="4.01365">
        <ele>881.5</ele>
        <time>2011-06-14T13:11:19Z</time>
      </trkpt>
      <trkpt lat="44.39187" lon="4.01368">
        <ele>878.2</ele>
        <time>2011-06-14T13:11:27Z</time>
      </trkpt>
      <trkpt lat="44.39179" lon="4.01371">
        <ele>870.4</ele>
        <time>2011-06-14T13:11:34Z</time>
      </trkpt>
      <trkpt lat="44.3917" lon="4.01371">
        <ele>867.7</ele>
        <time>2011-06-14T13:11:43Z</time>
      </trkpt>
      <trkpt lat="44.39169" lon="4.01371">
        <ele>867.5</ele>
        <time>2011-06-14T13:11:44Z</time>
      </trkpt>
      <trkpt lat="44.39154" lon="4.01366">
        <ele>872.2</ele>
        <time>2011-06-14T13:11:58Z</time>
      </trkpt>
      <trkpt lat="44.39145" lon="4.01366">
        <ele>876.4</ele>
        <time>2011-06-14T13:12:07Z</time>
      </trkpt>
      <trkpt lat="44.39136" lon="4.01366">
        <ele>870.2</ele>
        <time>2011-06-14T13:12:16Z</time>
      </trkpt>
      <trkpt lat="44.39128" lon="4.0136">
        <ele>874.9</ele>
        <time>2011-06-14T13:12:23Z</time>
      </trkpt>
      <trkpt lat="44.3912" lon="4.01361">
        <ele>872.4</ele>
        <time>2011-06-14T13:12:30Z</time>
      </trkpt>
      <trkpt lat="44.39111" lon="4.01361">
        <ele>869.2</ele>
        <time>2011-06-14T13:12:38Z</time>
      </trkpt>
      <trkpt lat="44.39103" lon="4.01359">
        <ele>865</ele>
        <time>2011-06-14T13:12:46Z</time>
      </trkpt>
      <trkpt lat="44.39102" lon="4.01359">
        <ele>864.9</ele>
        <time>2011-06-14T13:12:47Z</time>
      </trkpt>
      <trkpt lat="44.39086" lon="4.01361">
        <ele>860</ele>
        <time>2011-06-14T13:13:00Z</time>
      </trkpt>
      <trkpt lat="44.39078" lon="4.01361">
        <ele>859.7</ele>
        <time>2011-06-14T13:13:08Z</time>
      </trkpt>
      <trkpt lat="44.3907" lon="4.01365">
        <ele>861.7</ele>
        <time>2011-06-14T13:13:17Z</time>
      </trkpt>
      <trkpt lat="44.39062" lon="4.01369">
        <ele>862.2</ele>
        <time>2011-06-14T13:13:26Z</time>
      </trkpt>
      <trkpt lat="44.39054" lon="4.01371">
        <ele>859.9</ele>
        <time>2011-06-14T13:13:33Z</time>
      </trkpt>
      <trkpt lat="44.39045" lon="4.01372">
        <ele>859.2</ele>
        <time>2011-06-14T13:13:42Z</time>
      </trkpt>
      <trkpt lat="44.39037" lon="4.01374">
        <ele>858.2</ele>
        <time>2011-06-14T13:13:49Z</time>
      </trkpt>
      <trkpt lat="44.39036" lon="4.01374">
        <ele>858.5</ele>
        <time>2011-06-14T13:13:50Z</time>
      </trkpt>
      <trkpt lat="44.3902" lon="4.01377">
        <ele>856</ele>
        <time>2011-06-14T13:14:06Z</time>
      </trkpt>
      <trkpt lat="44.39011" lon="4.01373">
        <ele>860.5</ele>
        <time>2011-06-14T13:14:13Z</time>
      </trkpt>
      <trkpt lat="44.39002" lon="4.01371">
        <ele>859.9</ele>
        <time>2011-06-14T13:14:20Z</time>
      </trkpt>
      <trkpt lat="44.38994" lon="4.01369">
        <ele>857.2</ele>
        <time>2011-06-14T13:14:28Z</time>
      </trkpt>
      <trkpt lat="44.38986" lon="4.01366">
        <ele>857.2</ele>
        <time>2011-06-14T13:14:37Z</time>
      </trkpt>
      <trkpt lat="44.38978" lon="4.01361">
        <ele>856.2</ele>
        <time>2011-06-14T13:14:44Z</time>
      </trkpt>
      <trkpt lat="44.3897" lon="4.0136">
        <ele>855.5</ele>
        <time>2011-06-14T13:14:53Z</time>
      </trkpt>
      <trkpt lat="44.38969" lon="4.0136">
        <ele>855</ele>
        <time>2011-06-14T13:14:54Z</time>
      </trkpt>
      <trkpt lat="44.38953" lon="4.01357">
        <ele>848</ele>
        <time>2011-06-14T13:15:10Z</time>
      </trkpt>
      <trkpt lat="44.38946" lon="4.01352">
        <ele>850.5</ele>
        <time>2011-06-14T13:15:18Z</time>
      </trkpt>
      <trkpt lat="44.38937" lon="4.01351">
        <ele>850.4</ele>
        <time>2011-06-14T13:15:25Z</time>
      </trkpt>
      <trkpt lat="44.38929" lon="4.01346">
        <ele>850.4</ele>
        <time>2011-06-14T13:15:33Z</time>
      </trkpt>
      <trkpt lat="44.38922" lon="4.01343">
        <ele>851.5</ele>
        <time>2011-06-14T13:15:40Z</time>
      </trkpt>
      <trkpt lat="44.38913" lon="4.0134">
        <ele>850.7</ele>
        <time>2011-06-14T13:15:49Z</time>
      </trkpt>
      <trkpt lat="44.38905" lon="4.01337">
        <ele>849.5</ele>
        <time>2011-06-14T13:15:57Z</time>
      </trkpt>
      <trkpt lat="44.38904" lon="4.01336">
        <ele>850</ele>
        <time>2011-06-14T13:15:58Z</time>
      </trkpt>
      <trkpt lat="44.38888" lon="4.01335">
        <ele>845</ele>
        <time>2011-06-14T13:16:15Z</time>
      </trkpt>
      <trkpt lat="44.3888" lon="4.01336">
        <ele>841</ele>
        <time>2011-06-14T13:16:23Z</time>
      </trkpt>
      <trkpt lat="44.38873" lon="4.01328">
        <ele>843</ele>
        <time>2011-06-14T13:16:30Z</time>
      </trkpt>
      <trkpt lat="44.38866" lon="4.01322">
        <ele>846.4</ele>
        <time>2011-06-14T13:16:36Z</time>
      </trkpt>
      <trkpt lat="44.3886" lon="4.01315">
        <ele>850.9</ele>
        <time>2011-06-14T13:16:41Z</time>
      </trkpt>
      <trkpt lat="44.38853" lon="4.01307">
        <ele>853.5</ele>
        <time>2011-06-14T13:16:51Z</time>
      </trkpt>
      <trkpt lat="44.38845" lon="4.01306">
        <ele>856.5</ele>
        <time>2011-06-14T13:21:15Z</time>
      </trkpt>
      <trkpt lat="44.38844" lon="4.01304">
        <ele>857.9</ele>
        <time>2011-06-14T13:21:16Z</time>
      </trkpt>
      <trkpt lat="44.38828" lon="4.01302">
        <ele>846.7</ele>
        <time>2011-06-14T13:21:40Z</time>
      </trkpt>
      <trkpt lat="44.38819" lon="4.013">
        <ele>845.4</ele>
        <time>2011-06-14T13:21:52Z</time>
      </trkpt>
      <trkpt lat="44.38811" lon="4.013">
        <ele>849.5</ele>
        <time>2011-06-14T13:22:08Z</time>
      </trkpt>
      <trkpt lat="44.38802" lon="4.01304">
        <ele>857.4</ele>
        <time>2011-06-14T13:22:24Z</time>
      </trkpt>
      <trkpt lat="44.38802" lon="4.01303">
        <ele>859.5</ele>
        <time>2011-06-14T13:22:25Z</time>
      </trkpt>
      <trkpt lat="44.38786" lon="4.01308">
        <ele>854.2</ele>
        <time>2011-06-14T13:22:48Z</time>
      </trkpt>
      <trkpt lat="44.38777" lon="4.01311">
        <ele>851.7</ele>
        <time>2011-06-14T13:22:58Z</time>
      </trkpt>
      <trkpt lat="44.38768" lon="4.01312">
        <ele>854.7</ele>
        <time>2011-06-14T13:23:09Z</time>
      </trkpt>
      <trkpt lat="44.3876" lon="4.01314">
        <ele>861.7</ele>
        <time>2011-06-14T13:23:21Z</time>
      </trkpt>
      <trkpt lat="44.38751" lon="4.01317">
        <ele>864.9</ele>
        <time>2011-06-14T13:23:33Z</time>
      </trkpt>
      <trkpt lat="44.3875" lon="4.01317">
        <ele>865.5</ele>
        <time>2011-06-14T13:23:34Z</time>
      </trkpt>
      <trkpt lat="44.38736" lon="4.01328">
        <ele>865.9</ele>
        <time>2011-06-14T13:24:00Z</time>
      </trkpt>
      <trkpt lat="44.38727" lon="4.01327">
        <ele>865</ele>
        <time>2011-06-14T13:24:09Z</time>
      </trkpt>
      <trkpt lat="44.38719" lon="4.01331">
        <ele>865.2</ele>
        <time>2011-06-14T13:24:20Z</time>
      </trkpt>
      <trkpt lat="44.38711" lon="4.01338">
        <ele>864.5</ele>
        <time>2011-06-14T13:24:31Z</time>
      </trkpt>
      <trkpt lat="44.38705" lon="4.01346">
        <ele>863.2</ele>
        <time>2011-06-14T13:24:42Z</time>
      </trkpt>
      <trkpt lat="44.38703" lon="4.01346">
        <ele>862.4</ele>
        <time>2011-06-14T13:24:43Z</time>
      </trkpt>
      <trkpt lat="44.38688" lon="4.01351">
        <ele>864.7</ele>
        <time>2011-06-14T13:25:01Z</time>
      </trkpt>
      <trkpt lat="44.38679" lon="4.01353">
        <ele>871</ele>
        <time>2011-06-14T13:25:10Z</time>
      </trkpt>
      <trkpt lat="44.38675" lon="4.01344">
        <ele>894.2</ele>
        <time>2011-06-14T13:26:26Z</time>
      </trkpt>
      <trkpt lat="44.38675" lon="4.01342">
        <ele>895.5</ele>
        <time>2011-06-14T13:26:27Z</time>
      </trkpt>
      <trkpt lat="44.38685" lon="4.01363">
        <ele>873.7</ele>
        <time>2011-06-14T13:26:57Z</time>
      </trkpt>
      <trkpt lat="44.38693" lon="4.0136">
        <ele>873.2</ele>
        <time>2011-06-14T13:27:09Z</time>
      </trkpt>
      <trkpt lat="44.38702" lon="4.01358">
        <ele>877.5</ele>
        <time>2011-06-14T13:27:22Z</time>
      </trkpt>
      <trkpt lat="44.38709" lon="4.01363">
        <ele>876.5</ele>
        <time>2011-06-14T13:27:32Z</time>
      </trkpt>
      <trkpt lat="44.3871" lon="4.01364">
        <ele>876</ele>
        <time>2011-06-14T13:27:33Z</time>
      </trkpt>
      <trkpt lat="44.38726" lon="4.01365">
        <ele>879</ele>
        <time>2011-06-14T13:27:58Z</time>
      </trkpt>
      <trkpt lat="44.38734" lon="4.01371">
        <ele>878.5</ele>
        <time>2011-06-14T13:28:12Z</time>
      </trkpt>
      <trkpt lat="44.38742" lon="4.01376">
        <ele>879.5</ele>
        <time>2011-06-14T13:28:25Z</time>
      </trkpt>
      <trkpt lat="44.3875" lon="4.01378">
        <ele>879.9</ele>
        <time>2011-06-14T13:28:35Z</time>
      </trkpt>
      <trkpt lat="44.38751" lon="4.0138">
        <ele>879</ele>
        <time>2011-06-14T13:28:36Z</time>
      </trkpt>
      <trkpt lat="44.38765" lon="4.01392">
        <ele>881.9</ele>
        <time>2011-06-14T13:29:03Z</time>
      </trkpt>
      <trkpt lat="44.38773" lon="4.01398">
        <ele>885.7</ele>
        <time>2011-06-14T13:29:15Z</time>
      </trkpt>
      <trkpt lat="44.3878" lon="4.01404">
        <ele>883.5</ele>
        <time>2011-06-14T13:29:25Z</time>
      </trkpt>
      <trkpt lat="44.38788" lon="4.01409">
        <ele>882</ele>
        <time>2011-06-14T13:29:37Z</time>
      </trkpt>
      <trkpt lat="44.38788" lon="4.0141">
        <ele>881.9</ele>
        <time>2011-06-14T13:29:38Z</time>
      </trkpt>
      <trkpt lat="44.38803" lon="4.0142">
        <ele>879.7</ele>
        <time>2011-06-14T13:30:00Z</time>
      </trkpt>
      <trkpt lat="44.38807" lon="4.0143">
        <ele>886</ele>
        <time>2011-06-14T13:30:10Z</time>
      </trkpt>
      <trkpt lat="44.38799" lon="4.01433">
        <ele>891.7</ele>
        <time>2011-06-14T13:30:30Z</time>
      </trkpt>
      <trkpt lat="44.38791" lon="4.01432">
        <ele>884.7</ele>
        <time>2011-06-14T13:30:42Z</time>
      </trkpt>
      <trkpt lat="44.3879" lon="4.01432">
        <ele>884</ele>
        <time>2011-06-14T13:30:43Z</time>
      </trkpt>
      <trkpt lat="44.38774" lon="4.01431">
        <ele>888.5</ele>
        <time>2011-06-14T13:31:05Z</time>
      </trkpt>
      <trkpt lat="44.38765" lon="4.01432">
        <ele>887.9</ele>
        <time>2011-06-14T13:31:17Z</time>
      </trkpt>
      <trkpt lat="44.38757" lon="4.01434">
        <ele>888.2</ele>
        <time>2011-06-14T13:31:31Z</time>
      </trkpt>
      <trkpt lat="44.38748" lon="4.01435">
        <ele>889.5</ele>
        <time>2011-06-14T13:31:42Z</time>
      </trkpt>
      <trkpt lat="44.3874" lon="4.01438">
        <ele>890.7</ele>
        <time>2011-06-14T13:31:57Z</time>
      </trkpt>
      <trkpt lat="44.38739" lon="4.01438">
        <ele>891</ele>
        <time>2011-06-14T13:31:58Z</time>
      </trkpt>
      <trkpt lat="44.38724" lon="4.01447">
        <ele>896.9</ele>
        <time>2011-06-14T13:32:23Z</time>
      </trkpt>
      <trkpt lat="44.38716" lon="4.01448">
        <ele>899.2</ele>
        <time>2011-06-14T13:32:34Z</time>
      </trkpt>
      <trkpt lat="44.38708" lon="4.0145">
        <ele>902.9</ele>
        <time>2011-06-14T13:32:46Z</time>
      </trkpt>
      <trkpt lat="44.38701" lon="4.01458">
        <ele>904</ele>
        <time>2011-06-14T13:32:58Z</time>
      </trkpt>
      <trkpt lat="44.38701" lon="4.01459">
        <ele>904.9</ele>
        <time>2011-06-14T13:32:59Z</time>
      </trkpt>
      <trkpt lat="44.38685" lon="4.01468">
        <ele>908.5</ele>
        <time>2011-06-14T13:33:24Z</time>
      </trkpt>
      <trkpt lat="44.38678" lon="4.01476">
        <ele>911</ele>
        <time>2011-06-14T13:33:39Z</time>
      </trkpt>
      <trkpt lat="44.38671" lon="4.01481">
        <ele>908.5</ele>
        <time>2011-06-14T13:33:53Z</time>
      </trkpt>
      <trkpt lat="44.38665" lon="4.01489">
        <ele>910.7</ele>
        <time>2011-06-14T13:34:05Z</time>
      </trkpt>
      <trkpt lat="44.38665" lon="4.0149">
        <ele>911.2</ele>
        <time>2011-06-14T13:34:06Z</time>
      </trkpt>
      <trkpt lat="44.38649" lon="4.01501">
        <ele>912.5</ele>
        <time>2011-06-14T13:34:30Z</time>
      </trkpt>
      <trkpt lat="44.38643" lon="4.01511">
        <ele>917</ele>
        <time>2011-06-14T13:34:42Z</time>
      </trkpt>
      <trkpt lat="44.38636" lon="4.01517">
        <ele>924.9</ele>
        <time>2011-06-14T13:34:54Z</time>
      </trkpt>
      <trkpt lat="44.38629" lon="4.01524">
        <ele>921.2</ele>
        <time>2011-06-14T13:35:07Z</time>
      </trkpt>
      <trkpt lat="44.38629" lon="4.01525">
        <ele>920.5</ele>
        <time>2011-06-14T13:35:08Z</time>
      </trkpt>
      <trkpt lat="44.38625" lon="4.01545">
        <ele>921.7</ele>
        <time>2011-06-14T13:35:31Z</time>
      </trkpt>
      <trkpt lat="44.38632" lon="4.01553">
        <ele>929</ele>
        <time>2011-06-14T13:35:44Z</time>
      </trkpt>
      <trkpt lat="44.3864" lon="4.01551">
        <ele>932.2</ele>
        <time>2011-06-14T13:35:58Z</time>
      </trkpt>
      <trkpt lat="44.38649" lon="4.01554">
        <ele>931.2</ele>
        <time>2011-06-14T13:36:11Z</time>
      </trkpt>
      <trkpt lat="44.38649" lon="4.01554">
        <ele>931.2</ele>
        <time>2011-06-14T13:36:12Z</time>
      </trkpt>
      <trkpt lat="44.38665" lon="4.0156">
        <ele>932.2</ele>
        <time>2011-06-14T13:36:33Z</time>
      </trkpt>
      <trkpt lat="44.38674" lon="4.01563">
        <ele>936</ele>
        <time>2011-06-14T13:36:46Z</time>
      </trkpt>
      <trkpt lat="44.38682" lon="4.01567">
        <ele>933.9</ele>
        <time>2011-06-14T13:37:01Z</time>
      </trkpt>
      <trkpt lat="44.3869" lon="4.0157">
        <ele>933.2</ele>
        <time>2011-06-14T13:37:12Z</time>
      </trkpt>
      <trkpt lat="44.3869" lon="4.01571">
        <ele>933.2</ele>
        <time>2011-06-14T13:37:13Z</time>
      </trkpt>
      <trkpt lat="44.38706" lon="4.01579">
        <ele>940.5</ele>
        <time>2011-06-14T13:37:38Z</time>
      </trkpt>
      <trkpt lat="44.38714" lon="4.01586">
        <ele>939.4</ele>
        <time>2011-06-14T13:37:52Z</time>
      </trkpt>
      <trkpt lat="44.38721" lon="4.01593">
        <ele>941.2</ele>
        <time>2011-06-14T13:38:05Z</time>
      </trkpt>
      <trkpt lat="44.38727" lon="4.01602">
        <ele>939.2</ele>
        <time>2011-06-14T13:38:15Z</time>
      </trkpt>
      <trkpt lat="44.38727" lon="4.01603">
        <ele>938.7</ele>
        <time>2011-06-14T13:38:16Z</time>
      </trkpt>
      <trkpt lat="44.3874" lon="4.01618">
        <ele>935</ele>
        <time>2011-06-14T13:38:40Z</time>
      </trkpt>
      <trkpt lat="44.38747" lon="4.01623">
        <ele>932.7</ele>
        <time>2011-06-14T13:38:52Z</time>
      </trkpt>
      <trkpt lat="44.38753" lon="4.01631">
        <ele>936</ele>
        <time>2011-06-14T13:39:04Z</time>
      </trkpt>
      <trkpt lat="44.38759" lon="4.0164">
        <ele>938.7</ele>
        <time>2011-06-14T13:39:16Z</time>
      </trkpt>
      <trkpt lat="44.38765" lon="4.01648">
        <ele>939</ele>
        <time>2011-06-14T13:39:27Z</time>
      </trkpt>
      <trkpt lat="44.38766" lon="4.01649">
        <ele>939.2</ele>
        <time>2011-06-14T13:39:28Z</time>
      </trkpt>
      <trkpt lat="44.38779" lon="4.01663">
        <ele>941.4</ele>
        <time>2011-06-14T13:39:52Z</time>
      </trkpt>
      <trkpt lat="44.38787" lon="4.01669">
        <ele>946</ele>
        <time>2011-06-14T13:40:04Z</time>
      </trkpt>
      <trkpt lat="44.38794" lon="4.01675">
        <ele>948.5</ele>
        <time>2011-06-14T13:40:16Z</time>
      </trkpt>
      <trkpt lat="44.38802" lon="4.01681">
        <ele>955.7</ele>
        <time>2011-06-14T13:40:31Z</time>
      </trkpt>
      <trkpt lat="44.38803" lon="4.01681">
        <ele>955.7</ele>
        <time>2011-06-14T13:40:32Z</time>
      </trkpt>
      <trkpt lat="44.38818" lon="4.0169">
        <ele>956.4</ele>
        <time>2011-06-14T13:40:54Z</time>
      </trkpt>
      <trkpt lat="44.38827" lon="4.01692">
        <ele>953.2</ele>
        <time>2011-06-14T13:41:04Z</time>
      </trkpt>
      <trkpt lat="44.38835" lon="4.01694">
        <ele>951</ele>
        <time>2011-06-14T13:41:16Z</time>
      </trkpt>
      <trkpt lat="44.38843" lon="4.01698">
        <ele>956</ele>
        <time>2011-06-14T13:41:28Z</time>
      </trkpt>
      <trkpt lat="44.38852" lon="4.01699">
        <ele>959.2</ele>
        <time>2011-06-14T13:41:38Z</time>
      </trkpt>
      <trkpt lat="44.38852" lon="4.01699">
        <ele>959.2</ele>
        <time>2011-06-14T13:41:39Z</time>
      </trkpt>
      <trkpt lat="44.38868" lon="4.01698">
        <ele>961.5</ele>
        <time>2011-06-14T13:42:03Z</time>
      </trkpt>
      <trkpt lat="44.38869" lon="4.01711">
        <ele>949.5</ele>
        <time>2011-06-14T13:42:58Z</time>
      </trkpt>
      <trkpt lat="44.3887" lon="4.01711">
        <ele>948.9</ele>
        <time>2011-06-14T13:42:59Z</time>
      </trkpt>
      <trkpt lat="44.38861" lon="4.01707">
        <ele>966.5</ele>
        <time>2011-06-14T13:47:04Z</time>
      </trkpt>
      <trkpt lat="44.38844" lon="4.01708">
        <ele>960.5</ele>
        <time>2011-06-14T13:47:25Z</time>
      </trkpt>
      <trkpt lat="44.38835" lon="4.01706">
        <ele>961.5</ele>
        <time>2011-06-14T13:47:35Z</time>
      </trkpt>
      <trkpt lat="44.38827" lon="4.01708">
        <ele>956.4</ele>
        <time>2011-06-14T13:47:44Z</time>
      </trkpt>
      <trkpt lat="44.38818" lon="4.0171">
        <ele>953.7</ele>
        <time>2011-06-14T13:47:54Z</time>
      </trkpt>
      <trkpt lat="44.3881" lon="4.01708">
        <ele>954.7</ele>
        <time>2011-06-14T13:48:03Z</time>
      </trkpt>
      <trkpt lat="44.38801" lon="4.01707">
        <ele>953.2</ele>
        <time>2011-06-14T13:48:11Z</time>
      </trkpt>
      <trkpt lat="44.38801" lon="4.01707">
        <ele>953</ele>
        <time>2011-06-14T13:48:12Z</time>
      </trkpt>
      <trkpt lat="44.38785" lon="4.01701">
        <ele>955</ele>
        <time>2011-06-14T13:48:28Z</time>
      </trkpt>
      <trkpt lat="44.38777" lon="4.01697">
        <ele>954.7</ele>
        <time>2011-06-14T13:48:35Z</time>
      </trkpt>
      <trkpt lat="44.38769" lon="4.01696">
        <ele>952.7</ele>
        <time>2011-06-14T13:48:43Z</time>
      </trkpt>
      <trkpt lat="44.38761" lon="4.01694">
        <ele>951</ele>
        <time>2011-06-14T13:48:51Z</time>
      </trkpt>
      <trkpt lat="44.38753" lon="4.01692">
        <ele>948.4</ele>
        <time>2011-06-14T13:48:58Z</time>
      </trkpt>
      <trkpt lat="44.38744" lon="4.0169">
        <ele>946</ele>
        <time>2011-06-14T13:49:06Z</time>
      </trkpt>
      <trkpt lat="44.38735" lon="4.01688">
        <ele>943.9</ele>
        <time>2011-06-14T13:49:15Z</time>
      </trkpt>
      <trkpt lat="44.38735" lon="4.01688">
        <ele>943.5</ele>
        <time>2011-06-14T13:49:16Z</time>
      </trkpt>
      <trkpt lat="44.38719" lon="4.01685">
        <ele>941.7</ele>
        <time>2011-06-14T13:49:30Z</time>
      </trkpt>
      <trkpt lat="44.3871" lon="4.01684">
        <ele>941.5</ele>
        <time>2011-06-14T13:49:37Z</time>
      </trkpt>
      <trkpt lat="44.38702" lon="4.01684">
        <ele>942.2</ele>
        <time>2011-06-14T13:49:45Z</time>
      </trkpt>
      <trkpt lat="44.38694" lon="4.01686">
        <ele>943.2</ele>
        <time>2011-06-14T13:49:54Z</time>
      </trkpt>
      <trkpt lat="44.38685" lon="4.01687">
        <ele>945.5</ele>
        <time>2011-06-14T13:50:03Z</time>
      </trkpt>
      <trkpt lat="44.38677" lon="4.0169">
        <ele>946.7</ele>
        <time>2011-06-14T13:50:12Z</time>
      </trkpt>
      <trkpt lat="44.38668" lon="4.01693">
        <ele>946.9</ele>
        <time>2011-06-14T13:50:20Z</time>
      </trkpt>
      <trkpt lat="44.38667" lon="4.01693">
        <ele>947</ele>
        <time>2011-06-14T13:50:21Z</time>
      </trkpt>
      <trkpt lat="44.38652" lon="4.017">
        <ele>948.2</ele>
        <time>2011-06-14T13:50:35Z</time>
      </trkpt>
      <trkpt lat="44.38645" lon="4.01707">
        <ele>947.4</ele>
        <time>2011-06-14T13:50:44Z</time>
      </trkpt>
      <trkpt lat="44.38638" lon="4.01714">
        <ele>947.5</ele>
        <time>2011-06-14T13:50:52Z</time>
      </trkpt>
      <trkpt lat="44.38632" lon="4.0172">
        <ele>948</ele>
        <time>2011-06-14T13:51:00Z</time>
      </trkpt>
      <trkpt lat="44.38624" lon="4.01726">
        <ele>947.7</ele>
        <time>2011-06-14T13:51:08Z</time>
      </trkpt>
      <trkpt lat="44.38617" lon="4.01733">
        <ele>947.2</ele>
        <time>2011-06-14T13:51:16Z</time>
      </trkpt>
      <trkpt lat="44.38609" lon="4.01739">
        <ele>945.7</ele>
        <time>2011-06-14T13:51:24Z</time>
      </trkpt>
      <trkpt lat="44.38608" lon="4.0174">
        <ele>945.7</ele>
        <time>2011-06-14T13:51:25Z</time>
      </trkpt>
      <trkpt lat="44.38594" lon="4.01748">
        <ele>945.9</ele>
        <time>2011-06-14T13:51:40Z</time>
      </trkpt>
      <trkpt lat="44.38586" lon="4.01753">
        <ele>946.5</ele>
        <time>2011-06-14T13:51:48Z</time>
      </trkpt>
      <trkpt lat="44.38579" lon="4.01757">
        <ele>945.4</ele>
        <time>2011-06-14T13:51:55Z</time>
      </trkpt>
      <trkpt lat="44.38571" lon="4.01761">
        <ele>945</ele>
        <time>2011-06-14T13:52:03Z</time>
      </trkpt>
      <trkpt lat="44.38564" lon="4.01765">
        <ele>944.4</ele>
        <time>2011-06-14T13:52:11Z</time>
      </trkpt>
      <trkpt lat="44.38556" lon="4.01766">
        <ele>943.4</ele>
        <time>2011-06-14T13:52:17Z</time>
      </trkpt>
      <trkpt lat="44.38547" lon="4.01769">
        <ele>946.5</ele>
        <time>2011-06-14T13:52:25Z</time>
      </trkpt>
      <trkpt lat="44.38539" lon="4.0177">
        <ele>948.5</ele>
        <time>2011-06-14T13:52:32Z</time>
      </trkpt>
      <trkpt lat="44.38538" lon="4.0177">
        <ele>948.4</ele>
        <time>2011-06-14T13:52:33Z</time>
      </trkpt>
      <trkpt lat="44.38524" lon="4.01777">
        <ele>948.4</ele>
        <time>2011-06-14T13:52:47Z</time>
      </trkpt>
      <trkpt lat="44.38516" lon="4.01784">
        <ele>947.7</ele>
        <time>2011-06-14T13:52:56Z</time>
      </trkpt>
      <trkpt lat="44.3851" lon="4.01791">
        <ele>946.9</ele>
        <time>2011-06-14T13:53:03Z</time>
      </trkpt>
      <trkpt lat="44.38503" lon="4.01798">
        <ele>947.2</ele>
        <time>2011-06-14T13:53:11Z</time>
      </trkpt>
      <trkpt lat="44.38496" lon="4.01804">
        <ele>947.7</ele>
        <time>2011-06-14T13:53:19Z</time>
      </trkpt>
      <trkpt lat="44.38489" lon="4.0181">
        <ele>945.5</ele>
        <time>2011-06-14T13:53:27Z</time>
      </trkpt>
      <trkpt lat="44.38481" lon="4.01812">
        <ele>948.4</ele>
        <time>2011-06-14T13:53:34Z</time>
      </trkpt>
      <trkpt lat="44.3848" lon="4.01813">
        <ele>949</ele>
        <time>2011-06-14T13:53:35Z</time>
      </trkpt>
      <trkpt lat="44.38464" lon="4.01815">
        <ele>951.2</ele>
        <time>2011-06-14T13:53:50Z</time>
      </trkpt>
      <trkpt lat="44.38457" lon="4.01811">
        <ele>949.7</ele>
        <time>2011-06-14T13:53:56Z</time>
      </trkpt>
      <trkpt lat="44.38449" lon="4.0181">
        <ele>954.5</ele>
        <time>2011-06-14T13:54:03Z</time>
      </trkpt>
      <trkpt lat="44.38449" lon="4.01822">
        <ele>945.7</ele>
        <time>2011-06-14T13:54:14Z</time>
      </trkpt>
      <trkpt lat="44.38448" lon="4.01833">
        <ele>944.2</ele>
        <time>2011-06-14T13:54:20Z</time>
      </trkpt>
      <trkpt lat="44.38444" lon="4.01844">
        <ele>939.7</ele>
        <time>2011-06-14T13:54:31Z</time>
      </trkpt>
      <trkpt lat="44.38436" lon="4.0185">
        <ele>942.7</ele>
        <time>2011-06-14T13:54:39Z</time>
      </trkpt>
      <trkpt lat="44.38435" lon="4.0185">
        <ele>941.9</ele>
        <time>2011-06-14T13:54:40Z</time>
      </trkpt>
      <trkpt lat="44.38422" lon="4.01864">
        <ele>943.7</ele>
        <time>2011-06-14T13:55:00Z</time>
      </trkpt>
      <trkpt lat="44.38415" lon="4.0187">
        <ele>944.7</ele>
        <time>2011-06-14T13:55:08Z</time>
      </trkpt>
      <trkpt lat="44.38409" lon="4.01878">
        <ele>943.2</ele>
        <time>2011-06-14T13:55:16Z</time>
      </trkpt>
      <trkpt lat="44.38403" lon="4.01887">
        <ele>942</ele>
        <time>2011-06-14T13:55:23Z</time>
      </trkpt>
      <trkpt lat="44.38397" lon="4.01895">
        <ele>942.7</ele>
        <time>2011-06-14T13:55:29Z</time>
      </trkpt>
      <trkpt lat="44.38392" lon="4.01905">
        <ele>943.2</ele>
        <time>2011-06-14T13:55:36Z</time>
      </trkpt>
      <trkpt lat="44.38385" lon="4.01913">
        <ele>947</ele>
        <time>2011-06-14T13:55:45Z</time>
      </trkpt>
      <trkpt lat="44.38384" lon="4.01913">
        <ele>948.4</ele>
        <time>2011-06-14T13:55:46Z</time>
      </trkpt>
      <trkpt lat="44.38372" lon="4.01928">
        <ele>962.2</ele>
        <time>2011-06-14T13:56:17Z</time>
      </trkpt>
      <trkpt lat="44.3838" lon="4.01926">
        <ele>950.7</ele>
        <time>2011-06-14T13:57:29Z</time>
      </trkpt>
      <trkpt lat="44.38381" lon="4.01926">
        <ele>950.7</ele>
        <time>2011-06-14T13:57:30Z</time>
      </trkpt>
      <trkpt lat="44.38372" lon="4.01932">
        <ele>945.7</ele>
        <time>2011-06-14T13:59:07Z</time>
      </trkpt>
      <trkpt lat="44.38381" lon="4.01928">
        <ele>949.2</ele>
        <time>2011-06-14T14:01:48Z</time>
      </trkpt>
      <trkpt lat="44.38381" lon="4.01931">
        <ele>953.7</ele>
        <time>2011-06-14T14:04:13Z</time>
      </trkpt>
      <trkpt lat="44.38381" lon="4.01932">
        <ele>955</ele>
        <time>2011-06-14T14:04:14Z</time>
      </trkpt>
      <trkpt lat="44.38372" lon="4.01936">
        <ele>955.4</ele>
        <time>2011-06-14T14:05:34Z</time>
      </trkpt>
      <trkpt lat="44.38373" lon="4.01922">
        <ele>956.7</ele>
        <time>2011-06-14T14:07:06Z</time>
      </trkpt>
      <trkpt lat="44.3839" lon="4.0193">
        <ele>951.2</ele>
        <time>2011-06-14T14:07:41Z</time>
      </trkpt>
      <trkpt lat="44.38398" lon="4.01933">
        <ele>945.7</ele>
        <time>2011-06-14T14:07:49Z</time>
      </trkpt>
      <trkpt lat="44.38406" lon="4.01932">
        <ele>939.5</ele>
        <time>2011-06-14T14:07:57Z</time>
      </trkpt>
      <trkpt lat="44.38415" lon="4.01931">
        <ele>935.4</ele>
        <time>2011-06-14T14:08:06Z</time>
      </trkpt>
      <trkpt lat="44.38423" lon="4.01936">
        <ele>933</ele>
        <time>2011-06-14T14:08:16Z</time>
      </trkpt>
      <trkpt lat="44.38424" lon="4.01936">
        <ele>933.5</ele>
        <time>2011-06-14T14:08:17Z</time>
      </trkpt>
      <trkpt lat="44.38438" lon="4.01943">
        <ele>935.7</ele>
        <time>2011-06-14T14:08:31Z</time>
      </trkpt>
      <trkpt lat="44.38445" lon="4.01946">
        <ele>936.2</ele>
        <time>2011-06-14T14:08:42Z</time>
      </trkpt>
      <trkpt lat="44.38454" lon="4.01943">
        <ele>935.7</ele>
        <time>2011-06-14T14:08:50Z</time>
      </trkpt>
      <trkpt lat="44.38461" lon="4.01941">
        <ele>937.5</ele>
        <time>2011-06-14T14:08:56Z</time>
      </trkpt>
      <trkpt lat="44.38469" lon="4.01942">
        <ele>939.9</ele>
        <time>2011-06-14T14:09:04Z</time>
      </trkpt>
      <trkpt lat="44.38477" lon="4.01945">
        <ele>942</ele>
        <time>2011-06-14T14:09:13Z</time>
      </trkpt>
      <trkpt lat="44.38484" lon="4.01949">
        <ele>943.4</ele>
        <time>2011-06-14T14:09:21Z</time>
      </trkpt>
      <trkpt lat="44.38486" lon="4.01949">
        <ele>943.4</ele>
        <time>2011-06-14T14:09:22Z</time>
      </trkpt>
      <trkpt lat="44.38501" lon="4.01951">
        <ele>942.7</ele>
        <time>2011-06-14T14:09:43Z</time>
      </trkpt>
      <trkpt lat="44.3851" lon="4.01953">
        <ele>948</ele>
        <time>2011-06-14T14:09:52Z</time>
      </trkpt>
      <trkpt lat="44.38518" lon="4.01954">
        <ele>943</ele>
        <time>2011-06-14T14:10:04Z</time>
      </trkpt>
      <trkpt lat="44.38526" lon="4.01955">
        <ele>937.5</ele>
        <time>2011-06-14T14:10:16Z</time>
      </trkpt>
      <trkpt lat="44.38533" lon="4.01962">
        <ele>937.7</ele>
        <time>2011-06-14T14:10:32Z</time>
      </trkpt>
      <trkpt lat="44.38533" lon="4.01962">
        <ele>937.2</ele>
        <time>2011-06-14T14:10:33Z</time>
      </trkpt>
      <trkpt lat="44.38535" lon="4.01981">
        <ele>946.7</ele>
        <time>2011-06-14T14:10:51Z</time>
      </trkpt>
      <trkpt lat="44.38531" lon="4.01992">
        <ele>948.2</ele>
        <time>2011-06-14T14:10:59Z</time>
      </trkpt>
      <trkpt lat="44.38531" lon="4.02004">
        <ele>948.5</ele>
        <time>2011-06-14T14:11:07Z</time>
      </trkpt>
      <trkpt lat="44.38536" lon="4.02015">
        <ele>942.7</ele>
        <time>2011-06-14T14:11:16Z</time>
      </trkpt>
      <trkpt lat="44.38542" lon="4.02024">
        <ele>944.5</ele>
        <time>2011-06-14T14:11:36Z</time>
      </trkpt>
      <trkpt lat="44.38542" lon="4.02025">
        <ele>944.2</ele>
        <time>2011-06-14T14:11:37Z</time>
      </trkpt>
      <trkpt lat="44.38559" lon="4.02028">
        <ele>939.5</ele>
        <time>2011-06-14T14:11:53Z</time>
      </trkpt>
      <trkpt lat="44.38567" lon="4.02033">
        <ele>939.4</ele>
        <time>2011-06-14T14:12:02Z</time>
      </trkpt>
      <trkpt lat="44.38574" lon="4.02038">
        <ele>939.9</ele>
        <time>2011-06-14T14:12:09Z</time>
      </trkpt>
      <trkpt lat="44.38577" lon="4.02047">
        <ele>944</ele>
        <time>2011-06-14T14:12:15Z</time>
      </trkpt>
      <trkpt lat="44.38584" lon="4.02055">
        <ele>945.9</ele>
        <time>2011-06-14T14:12:22Z</time>
      </trkpt>
      <trkpt lat="44.38591" lon="4.02062">
        <ele>945.5</ele>
        <time>2011-06-14T14:12:32Z</time>
      </trkpt>
      <trkpt lat="44.38599" lon="4.02068">
        <ele>944.2</ele>
        <time>2011-06-14T14:12:39Z</time>
      </trkpt>
      <trkpt lat="44.386" lon="4.02069">
        <ele>943.9</ele>
        <time>2011-06-14T14:12:40Z</time>
      </trkpt>
      <trkpt lat="44.38613" lon="4.02081">
        <ele>939.5</ele>
        <time>2011-06-14T14:12:55Z</time>
      </trkpt>
      <trkpt lat="44.38621" lon="4.02086">
        <ele>938.2</ele>
        <time>2011-06-14T14:13:03Z</time>
      </trkpt>
      <trkpt lat="44.38627" lon="4.02094">
        <ele>936.5</ele>
        <time>2011-06-14T14:13:12Z</time>
      </trkpt>
      <trkpt lat="44.38632" lon="4.02105">
        <ele>932.5</ele>
        <time>2011-06-14T14:13:22Z</time>
      </trkpt>
      <trkpt lat="44.38636" lon="4.02116">
        <ele>930.7</ele>
        <time>2011-06-14T14:13:31Z</time>
      </trkpt>
      <trkpt lat="44.38645" lon="4.02118">
        <ele>930.5</ele>
        <time>2011-06-14T14:13:40Z</time>
      </trkpt>
      <trkpt lat="44.38654" lon="4.0212">
        <ele>930.5</ele>
        <time>2011-06-14T14:13:49Z</time>
      </trkpt>
      <trkpt lat="44.38654" lon="4.0212">
        <ele>930.4</ele>
        <time>2011-06-14T14:13:50Z</time>
      </trkpt>
      <trkpt lat="44.38669" lon="4.02131">
        <ele>930.5</ele>
        <time>2011-06-14T14:14:09Z</time>
      </trkpt>
      <trkpt lat="44.38677" lon="4.02136">
        <ele>926.5</ele>
        <time>2011-06-14T14:14:19Z</time>
      </trkpt>
      <trkpt lat="44.38683" lon="4.02143">
        <ele>924.4</ele>
        <time>2011-06-14T14:14:28Z</time>
      </trkpt>
      <trkpt lat="44.38689" lon="4.02151">
        <ele>924.4</ele>
        <time>2011-06-14T14:14:37Z</time>
      </trkpt>
      <trkpt lat="44.38696" lon="4.02157">
        <ele>925.5</ele>
        <time>2011-06-14T14:14:46Z</time>
      </trkpt>
      <trkpt lat="44.38702" lon="4.02164">
        <ele>925</ele>
        <time>2011-06-14T14:14:56Z</time>
      </trkpt>
      <trkpt lat="44.38703" lon="4.02165">
        <ele>924.7</ele>
        <time>2011-06-14T14:14:57Z</time>
      </trkpt>
      <trkpt lat="44.38716" lon="4.02176">
        <ele>925</ele>
        <time>2011-06-14T14:15:10Z</time>
      </trkpt>
      <trkpt lat="44.38722" lon="4.02184">
        <ele>923.5</ele>
        <time>2011-06-14T14:15:18Z</time>
      </trkpt>
      <trkpt lat="44.38726" lon="4.02195">
        <ele>925.2</ele>
        <time>2011-06-14T14:15:28Z</time>
      </trkpt>
      <trkpt lat="44.38728" lon="4.02207">
        <ele>922.5</ele>
        <time>2011-06-14T14:15:36Z</time>
      </trkpt>
      <trkpt lat="44.38734" lon="4.02215">
        <ele>926</ele>
        <time>2011-06-14T14:15:46Z</time>
      </trkpt>
      <trkpt lat="44.3874" lon="4.02224">
        <ele>929.7</ele>
        <time>2011-06-14T14:15:54Z</time>
      </trkpt>
      <trkpt lat="44.38746" lon="4.02233">
        <ele>931.2</ele>
        <time>2011-06-14T14:16:04Z</time>
      </trkpt>
      <trkpt lat="44.38746" lon="4.02234">
        <ele>932.7</ele>
        <time>2011-06-14T14:16:05Z</time>
      </trkpt>
      <trkpt lat="44.38753" lon="4.02255">
        <ele>936.2</ele>
        <time>2011-06-14T14:16:20Z</time>
      </trkpt>
      <trkpt lat="44.38757" lon="4.02265">
        <ele>939.5</ele>
        <time>2011-06-14T14:16:29Z</time>
      </trkpt>
      <trkpt lat="44.38766" lon="4.02268">
        <ele>944.2</ele>
        <time>2011-06-14T14:16:37Z</time>
      </trkpt>
      <trkpt lat="44.38774" lon="4.02264">
        <ele>947.7</ele>
        <time>2011-06-14T14:16:43Z</time>
      </trkpt>
      <trkpt lat="44.38783" lon="4.02261">
        <ele>948</ele>
        <time>2011-06-14T14:16:53Z</time>
      </trkpt>
      <trkpt lat="44.38791" lon="4.02267">
        <ele>950</ele>
        <time>2011-06-14T14:17:02Z</time>
      </trkpt>
      <trkpt lat="44.38797" lon="4.02275">
        <ele>947.5</ele>
        <time>2011-06-14T14:17:19Z</time>
      </trkpt>
      <trkpt lat="44.38797" lon="4.02276">
        <ele>948</ele>
        <time>2011-06-14T14:17:20Z</time>
      </trkpt>
      <trkpt lat="44.38812" lon="4.02288">
        <ele>942.7</ele>
        <time>2011-06-14T14:17:47Z</time>
      </trkpt>
      <trkpt lat="44.3882" lon="4.0229">
        <ele>939.9</ele>
        <time>2011-06-14T14:18:00Z</time>
      </trkpt>
      <trkpt lat="44.38826" lon="4.02298">
        <ele>934.4</ele>
        <time>2011-06-14T14:18:14Z</time>
      </trkpt>
      <trkpt lat="44.38835" lon="4.02299">
        <ele>937.2</ele>
        <time>2011-06-14T14:18:24Z</time>
      </trkpt>
      <trkpt lat="44.38836" lon="4.023">
        <ele>937.5</ele>
        <time>2011-06-14T14:18:25Z</time>
      </trkpt>
      <trkpt lat="44.38851" lon="4.02308">
        <ele>937</ele>
        <time>2011-06-14T14:18:44Z</time>
      </trkpt>
      <trkpt lat="44.38858" lon="4.02313">
        <ele>935.9</ele>
        <time>2011-06-14T14:18:55Z</time>
      </trkpt>
      <trkpt lat="44.38865" lon="4.02321">
        <ele>933.7</ele>
        <time>2011-06-14T14:19:07Z</time>
      </trkpt>
      <trkpt lat="44.38873" lon="4.02327">
        <ele>931.7</ele>
        <time>2011-06-14T14:19:17Z</time>
      </trkpt>
      <trkpt lat="44.38881" lon="4.02332">
        <ele>934.5</ele>
        <time>2011-06-14T14:19:25Z</time>
      </trkpt>
      <trkpt lat="44.38889" lon="4.02334">
        <ele>932.5</ele>
        <time>2011-06-14T14:19:34Z</time>
      </trkpt>
      <trkpt lat="44.3889" lon="4.02334">
        <ele>933.2</ele>
        <time>2011-06-14T14:19:35Z</time>
      </trkpt>
      <trkpt lat="44.38902" lon="4.02349">
        <ele>930</ele>
        <time>2011-06-14T14:19:59Z</time>
      </trkpt>
      <trkpt lat="44.38909" lon="4.02356">
        <ele>928.7</ele>
        <time>2011-06-14T14:20:13Z</time>
      </trkpt>
      <trkpt lat="44.38918" lon="4.02355">
        <ele>926.5</ele>
        <time>2011-06-14T14:20:34Z</time>
      </trkpt>
      <trkpt lat="44.38926" lon="4.02356">
        <ele>927.5</ele>
        <time>2011-06-14T14:20:46Z</time>
      </trkpt>
      <trkpt lat="44.38927" lon="4.02355">
        <ele>928</ele>
        <time>2011-06-14T14:20:47Z</time>
      </trkpt>
      <trkpt lat="44.38942" lon="4.02354">
        <ele>923.2</ele>
        <time>2011-06-14T14:21:24Z</time>
      </trkpt>
      <trkpt lat="44.3895" lon="4.02354">
        <ele>922.7</ele>
        <time>2011-06-14T14:21:33Z</time>
      </trkpt>
      <trkpt lat="44.38959" lon="4.02355">
        <ele>914.9</ele>
        <time>2011-06-14T14:21:47Z</time>
      </trkpt>
      <trkpt lat="44.38967" lon="4.02355">
        <ele>910.5</ele>
        <time>2011-06-14T14:21:55Z</time>
      </trkpt>
      <trkpt lat="44.38968" lon="4.02355">
        <ele>910.5</ele>
        <time>2011-06-14T14:21:56Z</time>
      </trkpt>
      <trkpt lat="44.38983" lon="4.02362">
        <ele>917.5</ele>
        <time>2011-06-14T14:22:29Z</time>
      </trkpt>
      <trkpt lat="44.38992" lon="4.02359">
        <ele>913</ele>
        <time>2011-06-14T14:22:39Z</time>
      </trkpt>
      <trkpt lat="44.38999" lon="4.02363">
        <ele>916.9</ele>
        <time>2011-06-14T14:22:49Z</time>
      </trkpt>
      <trkpt lat="44.39008" lon="4.02366">
        <ele>915.2</ele>
        <time>2011-06-14T14:23:05Z</time>
      </trkpt>
      <trkpt lat="44.39008" lon="4.02367">
        <ele>915.2</ele>
        <time>2011-06-14T14:23:06Z</time>
      </trkpt>
      <trkpt lat="44.39012" lon="4.02388">
        <ele>914.7</ele>
        <time>2011-06-14T14:23:33Z</time>
      </trkpt>
      <trkpt lat="44.39014" lon="4.024">
        <ele>913.2</ele>
        <time>2011-06-14T14:23:49Z</time>
      </trkpt>
      <trkpt lat="44.39009" lon="4.02411">
        <ele>921.7</ele>
        <time>2011-06-14T14:23:56Z</time>
      </trkpt>
      <trkpt lat="44.39013" lon="4.02421">
        <ele>917</ele>
        <time>2011-06-14T14:24:12Z</time>
      </trkpt>
      <trkpt lat="44.39013" lon="4.02422">
        <ele>917.4</ele>
        <time>2011-06-14T14:24:13Z</time>
      </trkpt>
      <trkpt lat="44.39024" lon="4.02439">
        <ele>916.2</ele>
        <time>2011-06-14T14:24:37Z</time>
      </trkpt>
      <trkpt lat="44.39027" lon="4.02451">
        <ele>914.9</ele>
        <time>2011-06-14T14:24:50Z</time>
      </trkpt>
      <trkpt lat="44.3903" lon="4.02461">
        <ele>913</ele>
        <time>2011-06-14T14:25:02Z</time>
      </trkpt>
      <trkpt lat="44.39035" lon="4.02471">
        <ele>912.5</ele>
        <time>2011-06-14T14:25:17Z</time>
      </trkpt>
      <trkpt lat="44.39035" lon="4.02472">
        <ele>911.9</ele>
        <time>2011-06-14T14:25:18Z</time>
      </trkpt>
      <trkpt lat="44.39041" lon="4.02492">
        <ele>912.7</ele>
        <time>2011-06-14T14:25:39Z</time>
      </trkpt>
      <trkpt lat="44.39045" lon="4.02503">
        <ele>912</ele>
        <time>2011-06-14T14:25:54Z</time>
      </trkpt>
      <trkpt lat="44.39046" lon="4.02515">
        <ele>916.7</ele>
        <time>2011-06-14T14:26:03Z</time>
      </trkpt>
      <trkpt lat="44.39046" lon="4.02527">
        <ele>924</ele>
        <time>2011-06-14T14:26:17Z</time>
      </trkpt>
      <trkpt lat="44.39051" lon="4.02537">
        <ele>922.4</ele>
        <time>2011-06-14T14:26:29Z</time>
      </trkpt>
      <trkpt lat="44.39052" lon="4.02537">
        <ele>922.2</ele>
        <time>2011-06-14T14:26:30Z</time>
      </trkpt>
      <trkpt lat="44.39057" lon="4.02559">
        <ele>928</ele>
        <time>2011-06-14T14:26:50Z</time>
      </trkpt>
      <trkpt lat="44.39063" lon="4.02567">
        <ele>928.5</ele>
        <time>2011-06-14T14:27:05Z</time>
      </trkpt>
      <trkpt lat="44.39066" lon="4.02579">
        <ele>925.2</ele>
        <time>2011-06-14T14:27:16Z</time>
      </trkpt>
      <trkpt lat="44.39067" lon="4.0259">
        <ele>928</ele>
        <time>2011-06-14T14:27:25Z</time>
      </trkpt>
      <trkpt lat="44.39068" lon="4.02602">
        <ele>930</ele>
        <time>2011-06-14T14:27:31Z</time>
      </trkpt>
      <trkpt lat="44.39068" lon="4.02604">
        <ele>930.2</ele>
        <time>2011-06-14T14:27:32Z</time>
      </trkpt>
      <trkpt lat="44.39071" lon="4.02626">
        <ele>931.9</ele>
        <time>2011-06-14T14:27:48Z</time>
      </trkpt>
      <trkpt lat="44.39071" lon="4.02637">
        <ele>933.2</ele>
        <time>2011-06-14T14:27:57Z</time>
      </trkpt>
      <trkpt lat="44.39073" lon="4.02649">
        <ele>935.5</ele>
        <time>2011-06-14T14:28:06Z</time>
      </trkpt>
      <trkpt lat="44.39073" lon="4.02661">
        <ele>938</ele>
        <time>2011-06-14T14:28:16Z</time>
      </trkpt>
      <trkpt lat="44.39074" lon="4.02673">
        <ele>942.9</ele>
        <time>2011-06-14T14:28:26Z</time>
      </trkpt>
      <trkpt lat="44.39077" lon="4.02684">
        <ele>940.5</ele>
        <time>2011-06-14T14:28:33Z</time>
      </trkpt>
      <trkpt lat="44.39077" lon="4.02686">
        <ele>940.2</ele>
        <time>2011-06-14T14:28:34Z</time>
      </trkpt>
      <trkpt lat="44.39084" lon="4.02704">
        <ele>931.2</ele>
        <time>2011-06-14T14:28:46Z</time>
      </trkpt>
      <trkpt lat="44.39088" lon="4.02715">
        <ele>927.4</ele>
        <time>2011-06-14T14:28:58Z</time>
      </trkpt>
      <trkpt lat="44.39095" lon="4.02709">
        <ele>942.9</ele>
        <time>2011-06-14T14:31:03Z</time>
      </trkpt>
      <trkpt lat="44.39095" lon="4.02708">
        <ele>943.2</ele>
        <time>2011-06-14T14:31:04Z</time>
      </trkpt>
      <trkpt lat="44.39087" lon="4.02716">
        <ele>935.7</ele>
        <time>2011-06-14T14:33:26Z</time>
      </trkpt>
      <trkpt lat="44.39101" lon="4.02725">
        <ele>940.5</ele>
        <time>2011-06-14T14:33:54Z</time>
      </trkpt>
      <trkpt lat="44.39109" lon="4.02721">
        <ele>941.7</ele>
        <time>2011-06-14T14:34:03Z</time>
      </trkpt>
      <trkpt lat="44.39117" lon="4.02718">
        <ele>944.7</ele>
        <time>2011-06-14T14:34:14Z</time>
      </trkpt>
      <trkpt lat="44.39125" lon="4.02718">
        <ele>941</ele>
        <time>2011-06-14T14:34:24Z</time>
      </trkpt>
      <trkpt lat="44.39134" lon="4.02717">
        <ele>938</ele>
        <time>2011-06-14T14:34:36Z</time>
      </trkpt>
      <trkpt lat="44.39134" lon="4.02717">
        <ele>938.2</ele>
        <time>2011-06-14T14:34:37Z</time>
      </trkpt>
      <trkpt lat="44.3915" lon="4.02709">
        <ele>934</ele>
        <time>2011-06-14T14:34:51Z</time>
      </trkpt>
      <trkpt lat="44.39159" lon="4.02707">
        <ele>934.5</ele>
        <time>2011-06-14T14:34:56Z</time>
      </trkpt>
      <trkpt lat="44.39166" lon="4.02714">
        <ele>938</ele>
        <time>2011-06-14T14:35:06Z</time>
      </trkpt>
      <trkpt lat="44.39175" lon="4.02712">
        <ele>938.7</ele>
        <time>2011-06-14T14:35:17Z</time>
      </trkpt>
      <trkpt lat="44.39183" lon="4.02717">
        <ele>935.2</ele>
        <time>2011-06-14T14:35:28Z</time>
      </trkpt>
      <trkpt lat="44.3919" lon="4.02718">
        <ele>933.2</ele>
        <time>2011-06-14T14:35:36Z</time>
      </trkpt>
      <trkpt lat="44.39198" lon="4.02719">
        <ele>929.7</ele>
        <time>2011-06-14T14:35:47Z</time>
      </trkpt>
      <trkpt lat="44.39199" lon="4.02719">
        <ele>929</ele>
        <time>2011-06-14T14:35:48Z</time>
      </trkpt>
      <trkpt lat="44.39214" lon="4.0272">
        <ele>926</ele>
        <time>2011-06-14T14:36:05Z</time>
      </trkpt>
      <trkpt lat="44.39222" lon="4.02721">
        <ele>926.9</ele>
        <time>2011-06-14T14:36:14Z</time>
      </trkpt>
      <trkpt lat="44.39231" lon="4.02722">
        <ele>921.4</ele>
        <time>2011-06-14T14:36:23Z</time>
      </trkpt>
      <trkpt lat="44.39238" lon="4.02723">
        <ele>924.5</ele>
        <time>2011-06-14T14:36:29Z</time>
      </trkpt>
      <trkpt lat="44.39246" lon="4.02722">
        <ele>925.7</ele>
        <time>2011-06-14T14:36:34Z</time>
      </trkpt>
      <trkpt lat="44.39254" lon="4.02721">
        <ele>924.2</ele>
        <time>2011-06-14T14:36:41Z</time>
      </trkpt>
      <trkpt lat="44.39262" lon="4.0272">
        <ele>921.9</ele>
        <time>2011-06-14T14:36:49Z</time>
      </trkpt>
      <trkpt lat="44.39263" lon="4.0272">
        <ele>921.9</ele>
        <time>2011-06-14T14:36:50Z</time>
      </trkpt>
      <trkpt lat="44.39277" lon="4.02725">
        <ele>920.7</ele>
        <time>2011-06-14T14:37:11Z</time>
      </trkpt>
      <trkpt lat="44.39286" lon="4.02729">
        <ele>924.2</ele>
        <time>2011-06-14T14:37:22Z</time>
      </trkpt>
      <trkpt lat="44.39294" lon="4.02727">
        <ele>921.7</ele>
        <time>2011-06-14T14:37:28Z</time>
      </trkpt>
      <trkpt lat="44.39301" lon="4.02736">
        <ele>931</ele>
        <time>2011-06-14T14:37:38Z</time>
      </trkpt>
      <trkpt lat="44.39305" lon="4.02746">
        <ele>941.2</ele>
        <time>2011-06-14T14:37:51Z</time>
      </trkpt>
      <trkpt lat="44.39307" lon="4.02745">
        <ele>940.2</ele>
        <time>2011-06-14T14:37:52Z</time>
      </trkpt>
      <trkpt lat="44.39321" lon="4.02747">
        <ele>930.5</ele>
        <time>2011-06-14T14:38:03Z</time>
      </trkpt>
      <trkpt lat="44.39329" lon="4.02746">
        <ele>921.9</ele>
        <time>2011-06-14T14:38:09Z</time>
      </trkpt>
      <trkpt lat="44.39337" lon="4.02748">
        <ele>922.2</ele>
        <time>2011-06-14T14:38:15Z</time>
      </trkpt>
      <trkpt lat="44.39345" lon="4.02749">
        <ele>923</ele>
        <time>2011-06-14T14:38:23Z</time>
      </trkpt>
      <trkpt lat="44.39353" lon="4.02753">
        <ele>930.7</ele>
        <time>2011-06-14T14:38:31Z</time>
      </trkpt>
      <trkpt lat="44.39361" lon="4.02759">
        <ele>928.5</ele>
        <time>2011-06-14T14:38:39Z</time>
      </trkpt>
      <trkpt lat="44.39369" lon="4.02758">
        <ele>925</ele>
        <time>2011-06-14T14:38:51Z</time>
      </trkpt>
      <trkpt lat="44.39377" lon="4.02761">
        <ele>924.7</ele>
        <time>2011-06-14T14:39:03Z</time>
      </trkpt>
      <trkpt lat="44.39378" lon="4.0276">
        <ele>925</ele>
        <time>2011-06-14T14:39:04Z</time>
      </trkpt>
      <trkpt lat="44.39395" lon="4.02759">
        <ele>922</ele>
        <time>2011-06-14T14:39:19Z</time>
      </trkpt>
      <trkpt lat="44.39403" lon="4.02757">
        <ele>921.7</ele>
        <time>2011-06-14T14:39:26Z</time>
      </trkpt>
      <trkpt lat="44.3941" lon="4.02752">
        <ele>925.7</ele>
        <time>2011-06-14T14:39:33Z</time>
      </trkpt>
      <trkpt lat="44.39418" lon="4.02757">
        <ele>919.9</ele>
        <time>2011-06-14T14:39:47Z</time>
      </trkpt>
      <trkpt lat="44.39426" lon="4.0276">
        <ele>916.5</ele>
        <time>2011-06-14T14:39:56Z</time>
      </trkpt>
      <trkpt lat="44.39434" lon="4.02761">
        <ele>911.9</ele>
        <time>2011-06-14T14:40:09Z</time>
      </trkpt>
      <trkpt lat="44.39436" lon="4.02761">
        <ele>912</ele>
        <time>2011-06-14T14:40:10Z</time>
      </trkpt>
      <trkpt lat="44.39446" lon="4.02747">
        <ele>901.9</ele>
        <time>2011-06-14T14:40:41Z</time>
      </trkpt>
      <trkpt lat="44.39451" lon="4.02738">
        <ele>904.7</ele>
        <time>2011-06-14T14:40:52Z</time>
      </trkpt>
      <trkpt lat="44.39455" lon="4.02729">
        <ele>903</ele>
        <time>2011-06-14T14:41:00Z</time>
      </trkpt>
      <trkpt lat="44.3946" lon="4.0272">
        <ele>903.2</ele>
        <time>2011-06-14T14:41:09Z</time>
      </trkpt>
      <trkpt lat="44.39466" lon="4.0271">
        <ele>894.5</ele>
        <time>2011-06-14T14:41:26Z</time>
      </trkpt>
      <trkpt lat="44.39467" lon="4.0271">
        <ele>895.5</ele>
        <time>2011-06-14T14:41:27Z</time>
      </trkpt>
      <trkpt lat="44.39479" lon="4.02694">
        <ele>886</ele>
        <time>2011-06-14T14:42:14Z</time>
      </trkpt>
      <trkpt lat="44.39483" lon="4.02684">
        <ele>884.7</ele>
        <time>2011-06-14T14:42:22Z</time>
      </trkpt>
      <trkpt lat="44.39486" lon="4.02672">
        <ele>883.2</ele>
        <time>2011-06-14T14:42:32Z</time>
      </trkpt>
      <trkpt lat="44.39486" lon="4.02671">
        <ele>883.2</ele>
        <time>2011-06-14T14:42:33Z</time>
      </trkpt>
      <trkpt lat="44.39492" lon="4.02651">
        <ele>896</ele>
        <time>2011-06-14T14:42:52Z</time>
      </trkpt>
      <trkpt lat="44.39494" lon="4.02641">
        <ele>897.2</ele>
        <time>2011-06-14T14:42:59Z</time>
      </trkpt>
      <trkpt lat="44.39495" lon="4.0263">
        <ele>896.5</ele>
        <time>2011-06-14T14:43:04Z</time>
      </trkpt>
      <trkpt lat="44.39495" lon="4.02618">
        <ele>896.2</ele>
        <time>2011-06-14T14:43:12Z</time>
      </trkpt>
      <trkpt lat="44.395" lon="4.02608">
        <ele>892</ele>
        <time>2011-06-14T14:43:21Z</time>
      </trkpt>
      <trkpt lat="44.39505" lon="4.02598">
        <ele>895.4</ele>
        <time>2011-06-14T14:43:30Z</time>
      </trkpt>
      <trkpt lat="44.39508" lon="4.02588">
        <ele>897.7</ele>
        <time>2011-06-14T14:43:37Z</time>
      </trkpt>
      <trkpt lat="44.39508" lon="4.02586">
        <ele>897.7</ele>
        <time>2011-06-14T14:43:38Z</time>
      </trkpt>
      <trkpt lat="44.39521" lon="4.02575">
        <ele>903.7</ele>
        <time>2011-06-14T14:44:20Z</time>
      </trkpt>
      <trkpt lat="44.39528" lon="4.0258">
        <ele>901</ele>
        <time>2011-06-14T14:44:33Z</time>
      </trkpt>
      <trkpt lat="44.39536" lon="4.02586">
        <ele>894.5</ele>
        <time>2011-06-14T14:44:46Z</time>
      </trkpt>
      <trkpt lat="44.39536" lon="4.02586">
        <ele>893.5</ele>
        <time>2011-06-14T14:44:47Z</time>
      </trkpt>
      <trkpt lat="44.39551" lon="4.02595">
        <ele>885.9</ele>
        <time>2011-06-14T14:45:09Z</time>
      </trkpt>
      <trkpt lat="44.3956" lon="4.02597">
        <ele>886</ele>
        <time>2011-06-14T14:45:16Z</time>
      </trkpt>
      <trkpt lat="44.39567" lon="4.02601">
        <ele>887.4</ele>
        <time>2011-06-14T14:45:24Z</time>
      </trkpt>
      <trkpt lat="44.39574" lon="4.02603">
        <ele>888.4</ele>
        <time>2011-06-14T14:45:30Z</time>
      </trkpt>
      <trkpt lat="44.39581" lon="4.02611">
        <ele>892</ele>
        <time>2011-06-14T14:45:41Z</time>
      </trkpt>
      <trkpt lat="44.39587" lon="4.02617">
        <ele>891.4</ele>
        <time>2011-06-14T14:45:50Z</time>
      </trkpt>
      <trkpt lat="44.39588" lon="4.02618">
        <ele>891.4</ele>
        <time>2011-06-14T14:45:51Z</time>
      </trkpt>
      <trkpt lat="44.39603" lon="4.02621">
        <ele>888.5</ele>
        <time>2011-06-14T14:46:05Z</time>
      </trkpt>
      <trkpt lat="44.39612" lon="4.02624">
        <ele>883.9</ele>
        <time>2011-06-14T14:46:15Z</time>
      </trkpt>
      <trkpt lat="44.3962" lon="4.02626">
        <ele>889.2</ele>
        <time>2011-06-14T14:46:23Z</time>
      </trkpt>
      <trkpt lat="44.39627" lon="4.02635">
        <ele>890.7</ele>
        <time>2011-06-14T14:46:34Z</time>
      </trkpt>
      <trkpt lat="44.39635" lon="4.02638">
        <ele>886.5</ele>
        <time>2011-06-14T14:46:49Z</time>
      </trkpt>
      <trkpt lat="44.39643" lon="4.02636">
        <ele>880.9</ele>
        <time>2011-06-14T14:47:35Z</time>
      </trkpt>
      <trkpt lat="44.39644" lon="4.02635">
        <ele>881.2</ele>
        <time>2011-06-14T14:47:36Z</time>
      </trkpt>
      <trkpt lat="44.3966" lon="4.02644">
        <ele>879.5</ele>
        <time>2011-06-14T14:48:08Z</time>
      </trkpt>
      <trkpt lat="44.39668" lon="4.02648">
        <ele>882.7</ele>
        <time>2011-06-14T14:48:22Z</time>
      </trkpt>
      <trkpt lat="44.39676" lon="4.02648">
        <ele>882</ele>
        <time>2011-06-14T14:48:33Z</time>
      </trkpt>
      <trkpt lat="44.39685" lon="4.02646">
        <ele>881</ele>
        <time>2011-06-14T14:48:43Z</time>
      </trkpt>
      <trkpt lat="44.39685" lon="4.02647">
        <ele>880.7</ele>
        <time>2011-06-14T14:48:44Z</time>
      </trkpt>
      <trkpt lat="44.39697" lon="4.02659">
        <ele>871.9</ele>
        <time>2011-06-14T14:49:08Z</time>
      </trkpt>
      <trkpt lat="44.39704" lon="4.02666">
        <ele>870</ele>
        <time>2011-06-14T14:49:17Z</time>
      </trkpt>
      <trkpt lat="44.39712" lon="4.02671">
        <ele>870.7</ele>
        <time>2011-06-14T14:49:26Z</time>
      </trkpt>
      <trkpt lat="44.3972" lon="4.02673">
        <ele>866.4</ele>
        <time>2011-06-14T14:49:35Z</time>
      </trkpt>
      <trkpt lat="44.39729" lon="4.02676">
        <ele>861.2</ele>
        <time>2011-06-14T14:50:06Z</time>
      </trkpt>
      <trkpt lat="44.39729" lon="4.02676">
        <ele>861.2</ele>
        <time>2011-06-14T14:50:07Z</time>
      </trkpt>
      <trkpt lat="44.39743" lon="4.02687">
        <ele>859.7</ele>
        <time>2011-06-14T14:50:27Z</time>
      </trkpt>
      <trkpt lat="44.39751" lon="4.02691">
        <ele>859.5</ele>
        <time>2011-06-14T14:50:37Z</time>
      </trkpt>
      <trkpt lat="44.39759" lon="4.02696">
        <ele>860.4</ele>
        <time>2011-06-14T14:50:46Z</time>
      </trkpt>
      <trkpt lat="44.39766" lon="4.02703">
        <ele>860.5</ele>
        <time>2011-06-14T14:50:55Z</time>
      </trkpt>
      <trkpt lat="44.39774" lon="4.02705">
        <ele>861</ele>
        <time>2011-06-14T14:51:03Z</time>
      </trkpt>
      <trkpt lat="44.39779" lon="4.02715">
        <ele>864.7</ele>
        <time>2011-06-14T14:51:14Z</time>
      </trkpt>
      <trkpt lat="44.39779" lon="4.02716">
        <ele>864.5</ele>
        <time>2011-06-14T14:51:15Z</time>
      </trkpt>
      <trkpt lat="44.39789" lon="4.02717">
        <ele>864.7</ele>
        <time>2011-06-14T14:54:08Z</time>
      </trkpt>
      <trkpt lat="44.39805" lon="4.02715">
        <ele>861.2</ele>
        <time>2011-06-14T14:54:21Z</time>
      </trkpt>
      <trkpt lat="44.39813" lon="4.02715">
        <ele>859.9</ele>
        <time>2011-06-14T14:54:28Z</time>
      </trkpt>
      <trkpt lat="44.39822" lon="4.02716">
        <ele>859</ele>
        <time>2011-06-14T14:54:36Z</time>
      </trkpt>
      <trkpt lat="44.3983" lon="4.02719">
        <ele>859</ele>
        <time>2011-06-14T14:54:45Z</time>
      </trkpt>
      <trkpt lat="44.39837" lon="4.02726">
        <ele>861</ele>
        <time>2011-06-14T14:54:53Z</time>
      </trkpt>
      <trkpt lat="44.39845" lon="4.02729">
        <ele>860.5</ele>
        <time>2011-06-14T14:55:09Z</time>
      </trkpt>
      <trkpt lat="44.39846" lon="4.0273">
        <ele>860.5</ele>
        <time>2011-06-14T14:55:10Z</time>
      </trkpt>
      <trkpt lat="44.39861" lon="4.02741">
        <ele>857.2</ele>
        <time>2011-06-14T14:55:29Z</time>
      </trkpt>
      <trkpt lat="44.39869" lon="4.02747">
        <ele>853</ele>
        <time>2011-06-14T14:55:40Z</time>
      </trkpt>
      <trkpt lat="44.39877" lon="4.0275">
        <ele>850.2</ele>
        <time>2011-06-14T14:55:55Z</time>
      </trkpt>
      <trkpt lat="44.39881" lon="4.0276">
        <ele>851.4</ele>
        <time>2011-06-14T14:56:05Z</time>
      </trkpt>
      <trkpt lat="44.39882" lon="4.02772">
        <ele>854.9</ele>
        <time>2011-06-14T14:56:10Z</time>
      </trkpt>
      <trkpt lat="44.39882" lon="4.02773">
        <ele>854.5</ele>
        <time>2011-06-14T14:56:11Z</time>
      </trkpt>
      <trkpt lat="44.39888" lon="4.02795">
        <ele>857.2</ele>
        <time>2011-06-14T14:56:29Z</time>
      </trkpt>
      <trkpt lat="44.39893" lon="4.02805">
        <ele>855.5</ele>
        <time>2011-06-14T14:56:40Z</time>
      </trkpt>
      <trkpt lat="44.39901" lon="4.02809">
        <ele>854</ele>
        <time>2011-06-14T14:56:50Z</time>
      </trkpt>
      <trkpt lat="44.39904" lon="4.02819">
        <ele>852</ele>
        <time>2011-06-14T14:57:00Z</time>
      </trkpt>
      <trkpt lat="44.39907" lon="4.02831">
        <ele>855.7</ele>
        <time>2011-06-14T14:57:47Z</time>
      </trkpt>
      <trkpt lat="44.39907" lon="4.02831">
        <ele>855</ele>
        <time>2011-06-14T14:57:48Z</time>
      </trkpt>
      <trkpt lat="44.39921" lon="4.02835">
        <ele>852.2</ele>
        <time>2011-06-14T14:58:06Z</time>
      </trkpt>
      <trkpt lat="44.39928" lon="4.0284">
        <ele>849.7</ele>
        <time>2011-06-14T14:58:17Z</time>
      </trkpt>
      <trkpt lat="44.39937" lon="4.02842">
        <ele>846.5</ele>
        <time>2011-06-14T14:58:28Z</time>
      </trkpt>
      <trkpt lat="44.39943" lon="4.02849">
        <ele>853</ele>
        <time>2011-06-14T14:58:35Z</time>
      </trkpt>
      <trkpt lat="44.39951" lon="4.02854">
        <ele>853.7</ele>
        <time>2011-06-14T14:58:46Z</time>
      </trkpt>
      <trkpt lat="44.3996" lon="4.02854">
        <ele>849.9</ele>
        <time>2011-06-14T14:58:53Z</time>
      </trkpt>
      <trkpt lat="44.39961" lon="4.02856">
        <ele>850.4</ele>
        <time>2011-06-14T14:58:54Z</time>
      </trkpt>
      <trkpt lat="44.39975" lon="4.02855">
        <ele>844.9</ele>
        <time>2011-06-14T14:59:12Z</time>
      </trkpt>
      <trkpt lat="44.39982" lon="4.02858">
        <ele>846.2</ele>
        <time>2011-06-14T14:59:17Z</time>
      </trkpt>
      <trkpt lat="44.3999" lon="4.02857">
        <ele>844.2</ele>
        <time>2011-06-14T14:59:23Z</time>
      </trkpt>
      <trkpt lat="44.39998" lon="4.0286">
        <ele>844.7</ele>
        <time>2011-06-14T14:59:29Z</time>
      </trkpt>
      <trkpt lat="44.40006" lon="4.0286">
        <ele>842</ele>
        <time>2011-06-14T14:59:36Z</time>
      </trkpt>
      <trkpt lat="44.40014" lon="4.0286">
        <ele>843.5</ele>
        <time>2011-06-14T14:59:42Z</time>
      </trkpt>
      <trkpt lat="44.40015" lon="4.02848">
        <ele>854.5</ele>
        <time>2011-06-14T14:59:56Z</time>
      </trkpt>
      <trkpt lat="44.40015" lon="4.02845">
        <ele>852.9</ele>
        <time>2011-06-14T14:59:57Z</time>
      </trkpt>
      <trkpt lat="44.40024" lon="4.02836">
        <ele>851.9</ele>
        <time>2011-06-14T15:00:15Z</time>
      </trkpt>
      <trkpt lat="44.40032" lon="4.02838">
        <ele>852.2</ele>
        <time>2011-06-14T15:00:20Z</time>
      </trkpt>
      <trkpt lat="44.40036" lon="4.02849">
        <ele>868.4</ele>
        <time>2011-06-14T15:00:48Z</time>
      </trkpt>
      <trkpt lat="44.40037" lon="4.02861">
        <ele>871.5</ele>
        <time>2011-06-14T15:00:55Z</time>
      </trkpt>
      <trkpt lat="44.40031" lon="4.02869">
        <ele>875.2</ele>
        <time>2011-06-14T15:01:01Z</time>
      </trkpt>
      <trkpt lat="44.4003" lon="4.02869">
        <ele>875.5</ele>
        <time>2011-06-14T15:01:02Z</time>
      </trkpt>
      <trkpt lat="44.4003" lon="4.02887">
        <ele>874.9</ele>
        <time>2011-06-14T15:01:23Z</time>
      </trkpt>
      <trkpt lat="44.40033" lon="4.02899">
        <ele>875.2</ele>
        <time>2011-06-14T15:01:35Z</time>
      </trkpt>
      <trkpt lat="44.40029" lon="4.0291">
        <ele>869.2</ele>
        <time>2011-06-14T15:01:49Z</time>
      </trkpt>
      <trkpt lat="44.40026" lon="4.0292">
        <ele>863.7</ele>
        <time>2011-06-14T15:01:58Z</time>
      </trkpt>
      <trkpt lat="44.40022" lon="4.0293">
        <ele>858.5</ele>
        <time>2011-06-14T15:02:08Z</time>
      </trkpt>
      <trkpt lat="44.40021" lon="4.02931">
        <ele>857.7</ele>
        <time>2011-06-14T15:02:09Z</time>
      </trkpt>
      <trkpt lat="44.40007" lon="4.02941">
        <ele>856</ele>
        <time>2011-06-14T15:02:30Z</time>
      </trkpt>
      <trkpt lat="44.40002" lon="4.02949">
        <ele>857.7</ele>
        <time>2011-06-14T15:02:38Z</time>
      </trkpt>
      <trkpt lat="44.4" lon="4.02961">
        <ele>853.5</ele>
        <time>2011-06-14T15:02:48Z</time>
      </trkpt>
      <trkpt lat="44.39996" lon="4.02972">
        <ele>851.5</ele>
        <time>2011-06-14T15:02:56Z</time>
      </trkpt>
      <trkpt lat="44.39993" lon="4.02984">
        <ele>850.2</ele>
        <time>2011-06-14T15:03:06Z</time>
      </trkpt>
      <trkpt lat="44.39991" lon="4.02996">
        <ele>847.5</ele>
        <time>2011-06-14T15:03:14Z</time>
      </trkpt>
      <trkpt lat="44.39991" lon="4.02997">
        <ele>847.5</ele>
        <time>2011-06-14T15:03:15Z</time>
      </trkpt>
      <trkpt lat="44.39984" lon="4.03018">
        <ele>848.5</ele>
        <time>2011-06-14T15:03:32Z</time>
      </trkpt>
      <trkpt lat="44.39982" lon="4.03029">
        <ele>845.7</ele>
        <time>2011-06-14T15:03:40Z</time>
      </trkpt>
      <trkpt lat="44.39975" lon="4.03035">
        <ele>846.7</ele>
        <time>2011-06-14T15:03:51Z</time>
      </trkpt>
      <trkpt lat="44.3997" lon="4.03045">
        <ele>844.5</ele>
        <time>2011-06-14T15:04:05Z</time>
      </trkpt>
      <trkpt lat="44.39965" lon="4.03055">
        <ele>842.7</ele>
        <time>2011-06-14T15:04:14Z</time>
      </trkpt>
      <trkpt lat="44.39964" lon="4.03067">
        <ele>841.9</ele>
        <time>2011-06-14T15:04:31Z</time>
      </trkpt>
      <trkpt lat="44.39964" lon="4.03068">
        <ele>841.7</ele>
        <time>2011-06-14T15:04:32Z</time>
      </trkpt>
      <trkpt lat="44.39962" lon="4.03091">
        <ele>840.7</ele>
        <time>2011-06-14T15:05:05Z</time>
      </trkpt>
      <trkpt lat="44.3996" lon="4.03102">
        <ele>837.7</ele>
        <time>2011-06-14T15:05:20Z</time>
      </trkpt>
      <trkpt lat="44.39952" lon="4.03104">
        <ele>843.5</ele>
        <time>2011-06-14T15:05:29Z</time>
      </trkpt>
      <trkpt lat="44.39951" lon="4.03092">
        <ele>846.2</ele>
        <time>2011-06-14T15:05:37Z</time>
      </trkpt>
      <trkpt lat="44.3995" lon="4.03091">
        <ele>848</ele>
        <time>2011-06-14T15:05:38Z</time>
      </trkpt>
      <trkpt lat="44.39937" lon="4.03081">
        <ele>856.9</ele>
        <time>2011-06-14T15:05:53Z</time>
      </trkpt>
      <trkpt lat="44.39933" lon="4.0307">
        <ele>856.2</ele>
        <time>2011-06-14T15:06:08Z</time>
      </trkpt>
      <trkpt lat="44.39926" lon="4.03064">
        <ele>860.4</ele>
        <time>2011-06-14T15:06:28Z</time>
      </trkpt>
      <trkpt lat="44.39929" lon="4.03061">
        <ele>854.9</ele>
        <time>2011-06-14T15:06:50Z</time>
      </trkpt>
      <trkpt lat="44.39938" lon="4.03063">
        <ele>842.9</ele>
        <time>2011-06-14T15:06:51Z</time>
      </trkpt>
      <trkpt lat="44.39944" lon="4.0307">
        <ele>836.4</ele>
        <time>2011-06-14T15:06:55Z</time>
      </trkpt>
      <trkpt lat="44.39951" lon="4.03077">
        <ele>829.9</ele>
        <time>2011-06-14T15:06:58Z</time>
      </trkpt>
      <trkpt lat="44.39958" lon="4.03082">
        <ele>820.2</ele>
        <time>2011-06-14T15:07:01Z</time>
      </trkpt>
      <trkpt lat="44.39954" lon="4.03072">
        <ele>804.5</ele>
        <time>2011-06-14T15:07:34Z</time>
      </trkpt>
      <trkpt lat="44.39954" lon="4.03061">
        <ele>810.9</ele>
        <time>2011-06-14T15:07:53Z</time>
      </trkpt>
      <trkpt lat="44.39952" lon="4.0306">
        <ele>812.4</ele>
        <time>2011-06-14T15:07:54Z</time>
      </trkpt>
      <trkpt lat="44.39952" lon="4.03056">
        <ele>811.5</ele>
        <time>2011-06-14T15:08:52Z</time>
      </trkpt>
      <trkpt lat="44.39945" lon="4.03054">
        <ele>831.7</ele>
        <time>2011-06-14T15:09:05Z</time>
      </trkpt>
      <trkpt lat="44.39943" lon="4.03053">
        <ele>835.2</ele>
        <time>2011-06-14T15:09:06Z</time>
      </trkpt>
      <trkpt lat="44.39948" lon="4.03067">
        <ele>825.2</ele>
        <time>2011-06-14T15:09:59Z</time>
      </trkpt>
      <trkpt lat="44.39956" lon="4.03068">
        <ele>831.2</ele>
        <time>2011-06-14T15:10:20Z</time>
      </trkpt>
      <trkpt lat="44.39958" lon="4.03068">
        <ele>830.5</ele>
        <time>2011-06-14T15:10:21Z</time>
      </trkpt>
      <trkpt lat="44.39945" lon="4.03062">
        <ele>846.5</ele>
        <time>2011-06-14T15:10:32Z</time>
      </trkpt>
      <trkpt lat="44.39938" lon="4.03055">
        <ele>856.4</ele>
        <time>2011-06-14T15:10:35Z</time>
      </trkpt>
      <trkpt lat="44.39941" lon="4.03067">
        <ele>839.7</ele>
        <time>2011-06-14T15:10:54Z</time>
      </trkpt>
      <trkpt lat="44.39948" lon="4.03059">
        <ele>828</ele>
        <time>2011-06-14T15:11:06Z</time>
      </trkpt>
      <trkpt lat="44.39955" lon="4.0306">
        <ele>816.7</ele>
        <time>2011-06-14T15:11:10Z</time>
      </trkpt>
      <trkpt lat="44.3996" lon="4.03068">
        <ele>809.7</ele>
        <time>2011-06-14T15:11:16Z</time>
      </trkpt>
      <trkpt lat="44.39963" lon="4.03077">
        <ele>807</ele>
        <time>2011-06-14T15:11:19Z</time>
      </trkpt>
      <trkpt lat="44.39956" lon="4.03078">
        <ele>822.5</ele>
        <time>2011-06-14T15:11:41Z</time>
      </trkpt>
      <trkpt lat="44.39953" lon="4.03077">
        <ele>827.9</ele>
        <time>2011-06-14T15:11:42Z</time>
      </trkpt>
      <trkpt lat="44.39958" lon="4.03102">
        <ele>838.2</ele>
        <time>2011-06-14T15:12:29Z</time>
      </trkpt>
      <trkpt lat="44.39959" lon="4.03114">
        <ele>838.7</ele>
        <time>2011-06-14T15:12:56Z</time>
      </trkpt>
      <trkpt lat="44.3996" lon="4.03115">
        <ele>836.5</ele>
        <time>2011-06-14T15:12:57Z</time>
      </trkpt>
      <trkpt lat="44.39967" lon="4.03133">
        <ele>812.9</ele>
        <time>2011-06-14T15:13:18Z</time>
      </trkpt>
      <trkpt lat="44.39962" lon="4.03144">
        <ele>816.2</ele>
        <time>2011-06-14T15:13:31Z</time>
      </trkpt>
      <trkpt lat="44.3996" lon="4.03154">
        <ele>812.7</ele>
        <time>2011-06-14T15:13:43Z</time>
      </trkpt>
      <trkpt lat="44.39952" lon="4.03151">
        <ele>826.7</ele>
        <time>2011-06-14T15:13:46Z</time>
      </trkpt>
      <trkpt lat="44.39945" lon="4.03147">
        <ele>839.7</ele>
        <time>2011-06-14T15:13:51Z</time>
      </trkpt>
      <trkpt lat="44.39937" lon="4.03142">
        <ele>853.7</ele>
        <time>2011-06-14T15:13:56Z</time>
      </trkpt>
      <trkpt lat="44.39945" lon="4.03146">
        <ele>843.4</ele>
        <time>2011-06-14T15:14:20Z</time>
      </trkpt>
      <trkpt lat="44.39945" lon="4.03146">
        <ele>842.5</ele>
        <time>2011-06-14T15:14:21Z</time>
      </trkpt>
      <trkpt lat="44.39954" lon="4.03139">
        <ele>835.9</ele>
        <time>2011-06-14T15:14:47Z</time>
      </trkpt>
      <trkpt lat="44.39959" lon="4.03149">
        <ele>824</ele>
        <time>2011-06-14T15:14:53Z</time>
      </trkpt>
      <trkpt lat="44.39966" lon="4.03146">
        <ele>832.4</ele>
        <time>2011-06-14T15:15:06Z</time>
      </trkpt>
      <trkpt lat="44.39975" lon="4.03144">
        <ele>829.9</ele>
        <time>2011-06-14T15:15:20Z</time>
      </trkpt>
      <trkpt lat="44.39981" lon="4.03136">
        <ele>821.2</ele>
        <time>2011-06-14T15:16:31Z</time>
      </trkpt>
      <trkpt lat="44.39982" lon="4.03135">
        <ele>819.7</ele>
        <time>2011-06-14T15:16:32Z</time>
      </trkpt>
      <trkpt lat="44.39981" lon="4.03112">
        <ele>834.7</ele>
        <time>2011-06-14T15:16:59Z</time>
      </trkpt>
      <trkpt lat="44.39978" lon="4.03102">
        <ele>838.9</ele>
        <time>2011-06-14T15:17:10Z</time>
      </trkpt>
      <trkpt lat="44.39977" lon="4.03091">
        <ele>828.5</ele>
        <time>2011-06-14T15:17:47Z</time>
      </trkpt>
      <trkpt lat="44.39976" lon="4.03089">
        <ele>830.2</ele>
        <time>2011-06-14T15:17:48Z</time>
      </trkpt>
      <trkpt lat="44.3997" lon="4.03071">
        <ele>834.2</ele>
        <time>2011-06-14T15:18:23Z</time>
      </trkpt>
      <trkpt lat="44.39967" lon="4.03059">
        <ele>843.5</ele>
        <time>2011-06-14T15:18:38Z</time>
      </trkpt>
      <trkpt lat="44.39972" lon="4.03057">
        <ele>833.5</ele>
        <time>2011-06-14T15:18:46Z</time>
      </trkpt>
      <trkpt lat="44.39978" lon="4.03048">
        <ele>826.4</ele>
        <time>2011-06-14T15:18:57Z</time>
      </trkpt>
      <trkpt lat="44.39978" lon="4.03046">
        <ele>826.7</ele>
        <time>2011-06-14T15:18:58Z</time>
      </trkpt>
      <trkpt lat="44.39987" lon="4.03028">
        <ele>826.9</ele>
        <time>2011-06-14T15:19:14Z</time>
      </trkpt>
      <trkpt lat="44.39992" lon="4.0302">
        <ele>829</ele>
        <time>2011-06-14T15:19:25Z</time>
      </trkpt>
      <trkpt lat="44.39996" lon="4.03009">
        <ele>831</ele>
        <time>2011-06-14T15:19:38Z</time>
      </trkpt>
      <trkpt lat="44.40002" lon="4.03">
        <ele>827.5</ele>
        <time>2011-06-14T15:19:48Z</time>
      </trkpt>
      <trkpt lat="44.40005" lon="4.02989">
        <ele>825.2</ele>
        <time>2011-06-14T15:19:58Z</time>
      </trkpt>
      <trkpt lat="44.40008" lon="4.02978">
        <ele>826</ele>
        <time>2011-06-14T15:20:07Z</time>
      </trkpt>
      <trkpt lat="44.40007" lon="4.02976">
        <ele>827.2</ele>
        <time>2011-06-14T15:20:08Z</time>
      </trkpt>
      <trkpt lat="44.40016" lon="4.02958">
        <ele>821.5</ele>
        <time>2011-06-14T15:20:27Z</time>
      </trkpt>
      <trkpt lat="44.40014" lon="4.02947">
        <ele>833.5</ele>
        <time>2011-06-14T15:20:37Z</time>
      </trkpt>
      <trkpt lat="44.4002" lon="4.02938">
        <ele>835.5</ele>
        <time>2011-06-14T15:20:51Z</time>
      </trkpt>
      <trkpt lat="44.40028" lon="4.02933">
        <ele>834.7</ele>
        <time>2011-06-14T15:21:00Z</time>
      </trkpt>
      <trkpt lat="44.40035" lon="4.02925">
        <ele>835.7</ele>
        <time>2011-06-14T15:21:11Z</time>
      </trkpt>
      <trkpt lat="44.40036" lon="4.02924">
        <ele>836</ele>
        <time>2011-06-14T15:21:12Z</time>
      </trkpt>
      <trkpt lat="44.40049" lon="4.02913">
        <ele>832.2</ele>
        <time>2011-06-14T15:21:33Z</time>
      </trkpt>
      <trkpt lat="44.40056" lon="4.02905">
        <ele>835</ele>
        <time>2011-06-14T15:21:42Z</time>
      </trkpt>
      <trkpt lat="44.40056" lon="4.02893">
        <ele>842.7</ele>
        <time>2011-06-14T15:21:52Z</time>
      </trkpt>
      <trkpt lat="44.40049" lon="4.02888">
        <ele>842.9</ele>
        <time>2011-06-14T15:22:09Z</time>
      </trkpt>
      <trkpt lat="44.40046" lon="4.02877">
        <ele>846.4</ele>
        <time>2011-06-14T15:22:16Z</time>
      </trkpt>
      <trkpt lat="44.40046" lon="4.02875">
        <ele>846.7</ele>
        <time>2011-06-14T15:22:17Z</time>
      </trkpt>
      <trkpt lat="44.40056" lon="4.02859">
        <ele>836</ele>
        <time>2011-06-14T15:22:33Z</time>
      </trkpt>
      <trkpt lat="44.4006" lon="4.02848">
        <ele>835.9</ele>
        <time>2011-06-14T15:22:42Z</time>
      </trkpt>
      <trkpt lat="44.40057" lon="4.02837">
        <ele>843.5</ele>
        <time>2011-06-14T15:22:52Z</time>
      </trkpt>
      <trkpt lat="44.40049" lon="4.02834">
        <ele>851.5</ele>
        <time>2011-06-14T15:22:59Z</time>
      </trkpt>
      <trkpt lat="44.40041" lon="4.02839">
        <ele>863</ele>
        <time>2011-06-14T15:23:11Z</time>
      </trkpt>
      <trkpt lat="44.40034" lon="4.02844">
        <ele>869.2</ele>
        <time>2011-06-14T15:23:21Z</time>
      </trkpt>
      <trkpt lat="44.40032" lon="4.02843">
        <ele>870</ele>
        <time>2011-06-14T15:23:22Z</time>
      </trkpt>
      <trkpt lat="44.40021" lon="4.02856">
        <ele>862.2</ele>
        <time>2011-06-14T15:23:35Z</time>
      </trkpt>
      <trkpt lat="44.40013" lon="4.02857">
        <ele>859.9</ele>
        <time>2011-06-14T15:23:41Z</time>
      </trkpt>
      <trkpt lat="44.40006" lon="4.02864">
        <ele>854</ele>
        <time>2011-06-14T15:23:50Z</time>
      </trkpt>
      <trkpt lat="44.39998" lon="4.02865">
        <ele>851.9</ele>
        <time>2011-06-14T15:23:58Z</time>
      </trkpt>
      <trkpt lat="44.3999" lon="4.02861">
        <ele>851</ele>
        <time>2011-06-14T15:24:08Z</time>
      </trkpt>
      <trkpt lat="44.39982" lon="4.02859">
        <ele>848.7</ele>
        <time>2011-06-14T15:24:20Z</time>
      </trkpt>
      <trkpt lat="44.39973" lon="4.02859">
        <ele>851.7</ele>
        <time>2011-06-14T15:24:29Z</time>
      </trkpt>
      <trkpt lat="44.39973" lon="4.02859">
        <ele>851.7</ele>
        <time>2011-06-14T15:24:30Z</time>
      </trkpt>
      <trkpt lat="44.39957" lon="4.02854">
        <ele>853.9</ele>
        <time>2011-06-14T15:24:48Z</time>
      </trkpt>
      <trkpt lat="44.39948" lon="4.0285">
        <ele>852.7</ele>
        <time>2011-06-14T15:24:55Z</time>
      </trkpt>
      <trkpt lat="44.3994" lon="4.02844">
        <ele>853.4</ele>
        <time>2011-06-14T15:25:09Z</time>
      </trkpt>
      <trkpt lat="44.39934" lon="4.02836">
        <ele>846.2</ele>
        <time>2011-06-14T15:25:23Z</time>
      </trkpt>
      <trkpt lat="44.39925" lon="4.02835">
        <ele>845.7</ele>
        <time>2011-06-14T15:25:35Z</time>
      </trkpt>
      <trkpt lat="44.39924" lon="4.02835">
        <ele>846.5</ele>
        <time>2011-06-14T15:25:36Z</time>
      </trkpt>
      <trkpt lat="44.39914" lon="4.02818">
        <ele>840</ele>
        <time>2011-06-14T15:26:08Z</time>
      </trkpt>
      <trkpt lat="44.39907" lon="4.02811">
        <ele>844.7</ele>
        <time>2011-06-14T15:26:24Z</time>
      </trkpt>
      <trkpt lat="44.399" lon="4.02803">
        <ele>852</ele>
        <time>2011-06-14T15:26:37Z</time>
      </trkpt>
      <trkpt lat="44.399" lon="4.02803">
        <ele>852.2</ele>
        <time>2011-06-14T15:26:38Z</time>
      </trkpt>
      <trkpt lat="44.39887" lon="4.02789">
        <ele>856.5</ele>
        <time>2011-06-14T15:26:55Z</time>
      </trkpt>
      <trkpt lat="44.39884" lon="4.02778">
        <ele>854.5</ele>
        <time>2011-06-14T15:27:09Z</time>
      </trkpt>
      <trkpt lat="44.39879" lon="4.02768">
        <ele>854</ele>
        <time>2011-06-14T15:27:21Z</time>
      </trkpt>
      <trkpt lat="44.39873" lon="4.02759">
        <ele>853.2</ele>
        <time>2011-06-14T15:27:36Z</time>
      </trkpt>
      <trkpt lat="44.39867" lon="4.02751">
        <ele>853.9</ele>
        <time>2011-06-14T15:27:49Z</time>
      </trkpt>
      <trkpt lat="44.39866" lon="4.0275">
        <ele>854.5</ele>
        <time>2011-06-14T15:27:50Z</time>
      </trkpt>
      <trkpt lat="44.39853" lon="4.02741">
        <ele>860.4</ele>
        <time>2011-06-14T15:28:10Z</time>
      </trkpt>
      <trkpt lat="44.39845" lon="4.02736">
        <ele>864.5</ele>
        <time>2011-06-14T15:28:19Z</time>
      </trkpt>
      <trkpt lat="44.39836" lon="4.02735">
        <ele>866</ele>
        <time>2011-06-14T15:28:32Z</time>
      </trkpt>
      <trkpt lat="44.3983" lon="4.02726">
        <ele>863.7</ele>
        <time>2011-06-14T15:28:48Z</time>
      </trkpt>
      <trkpt lat="44.39822" lon="4.02725">
        <ele>863.5</ele>
        <time>2011-06-14T15:28:57Z</time>
      </trkpt>
      <trkpt lat="44.3982" lon="4.02724">
        <ele>864.5</ele>
        <time>2011-06-14T15:28:58Z</time>
      </trkpt>
      <trkpt lat="44.39804" lon="4.02722">
        <ele>865.2</ele>
        <time>2011-06-14T15:29:17Z</time>
      </trkpt>
      <trkpt lat="44.39796" lon="4.02722">
        <ele>864.4</ele>
        <time>2011-06-14T15:29:26Z</time>
      </trkpt>
      <trkpt lat="44.39788" lon="4.02724">
        <ele>862.7</ele>
        <time>2011-06-14T15:29:52Z</time>
      </trkpt>
      <trkpt lat="44.39785" lon="4.02712">
        <ele>854.4</ele>
        <time>2011-06-14T15:30:51Z</time>
      </trkpt>
      <trkpt lat="44.39786" lon="4.02711">
        <ele>853</ele>
        <time>2011-06-14T15:30:52Z</time>
      </trkpt>
      <trkpt lat="44.39775" lon="4.02709">
        <ele>857.5</ele>
        <time>2011-06-14T15:32:09Z</time>
      </trkpt>
      <trkpt lat="44.3976" lon="4.02707">
        <ele>863.5</ele>
        <time>2011-06-14T15:33:01Z</time>
      </trkpt>
      <trkpt lat="44.39752" lon="4.02702">
        <ele>862.4</ele>
        <time>2011-06-14T15:33:12Z</time>
      </trkpt>
      <trkpt lat="44.39751" lon="4.02702">
        <ele>863</ele>
        <time>2011-06-14T15:33:13Z</time>
      </trkpt>
      <trkpt lat="44.39737" lon="4.02696">
        <ele>862.7</ele>
        <time>2011-06-14T15:33:30Z</time>
      </trkpt>
      <trkpt lat="44.39729" lon="4.02691">
        <ele>861.9</ele>
        <time>2011-06-14T15:33:38Z</time>
      </trkpt>
      <trkpt lat="44.39722" lon="4.02687">
        <ele>865.2</ele>
        <time>2011-06-14T15:33:46Z</time>
      </trkpt>
      <trkpt lat="44.39725" lon="4.02676">
        <ele>863.5</ele>
        <time>2011-06-14T15:34:03Z</time>
      </trkpt>
      <trkpt lat="44.39734" lon="4.02673">
        <ele>861.2</ele>
        <time>2011-06-14T15:34:16Z</time>
      </trkpt>
      <trkpt lat="44.39734" lon="4.02673">
        <ele>861.2</ele>
        <time>2011-06-14T15:34:17Z</time>
      </trkpt>
      <trkpt lat="44.39749" lon="4.02675">
        <ele>869</ele>
        <time>2011-06-14T15:34:38Z</time>
      </trkpt>
      <trkpt lat="44.39758" lon="4.02674">
        <ele>868.5</ele>
        <time>2011-06-14T15:34:46Z</time>
      </trkpt>
      <trkpt lat="44.39766" lon="4.02678">
        <ele>868.5</ele>
        <time>2011-06-14T15:34:55Z</time>
      </trkpt>
      <trkpt lat="44.39773" lon="4.02684">
        <ele>868.2</ele>
        <time>2011-06-14T15:35:05Z</time>
      </trkpt>
      <trkpt lat="44.39782" lon="4.02688">
        <ele>869</ele>
        <time>2011-06-14T15:35:16Z</time>
      </trkpt>
      <trkpt lat="44.3979" lon="4.02687">
        <ele>872.5</ele>
        <time>2011-06-14T15:35:24Z</time>
      </trkpt>
      <trkpt lat="44.39791" lon="4.02687">
        <ele>872.4</ele>
        <time>2011-06-14T15:35:25Z</time>
      </trkpt>
      <trkpt lat="44.39804" lon="4.02684">
        <ele>864.4</ele>
        <time>2011-06-14T15:35:47Z</time>
      </trkpt>
      <trkpt lat="44.39808" lon="4.02673">
        <ele>863.7</ele>
        <time>2011-06-14T15:36:03Z</time>
      </trkpt>
      <trkpt lat="44.39813" lon="4.02663">
        <ele>862</ele>
        <time>2011-06-14T15:36:17Z</time>
      </trkpt>
      <trkpt lat="44.3982" lon="4.02657">
        <ele>861.9</ele>
        <time>2011-06-14T15:36:31Z</time>
      </trkpt>
      <trkpt lat="44.3982" lon="4.02657">
        <ele>861.9</ele>
        <time>2011-06-14T15:36:32Z</time>
      </trkpt>
      <trkpt lat="44.39835" lon="4.02661">
        <ele>873.5</ele>
        <time>2011-06-14T15:36:50Z</time>
      </trkpt>
      <trkpt lat="44.39844" lon="4.02661">
        <ele>879.9</ele>
        <time>2011-06-14T15:37:06Z</time>
      </trkpt>
      <trkpt lat="44.39853" lon="4.02657">
        <ele>880.4</ele>
        <time>2011-06-14T15:37:20Z</time>
      </trkpt>
      <trkpt lat="44.39861" lon="4.02654">
        <ele>880.5</ele>
        <time>2011-06-14T15:37:34Z</time>
      </trkpt>
      <trkpt lat="44.39862" lon="4.02653">
        <ele>881</ele>
        <time>2011-06-14T15:37:35Z</time>
      </trkpt>
      <trkpt lat="44.39878" lon="4.02651">
        <ele>891.7</ele>
        <time>2011-06-14T15:37:58Z</time>
      </trkpt>
      <trkpt lat="44.39886" lon="4.02649">
        <ele>893</ele>
        <time>2011-06-14T15:38:16Z</time>
      </trkpt>
      <trkpt lat="44.39895" lon="4.02648">
        <ele>888.7</ele>
        <time>2011-06-14T15:38:27Z</time>
      </trkpt>
      <trkpt lat="44.39903" lon="4.02648">
        <ele>889.9</ele>
        <time>2011-06-14T15:38:40Z</time>
      </trkpt>
      <trkpt lat="44.39904" lon="4.02647">
        <ele>889.7</ele>
        <time>2011-06-14T15:38:41Z</time>
      </trkpt>
      <trkpt lat="44.39919" lon="4.02642">
        <ele>893.9</ele>
        <time>2011-06-14T15:39:05Z</time>
      </trkpt>
      <trkpt lat="44.39927" lon="4.0264">
        <ele>891.5</ele>
        <time>2011-06-14T15:39:12Z</time>
      </trkpt>
      <trkpt lat="44.39935" lon="4.02638">
        <ele>891.5</ele>
        <time>2011-06-14T15:39:20Z</time>
      </trkpt>
      <trkpt lat="44.39938" lon="4.02626">
        <ele>891</ele>
        <time>2011-06-14T15:39:38Z</time>
      </trkpt>
      <trkpt lat="44.39946" lon="4.02622">
        <ele>889.4</ele>
        <time>2011-06-14T15:39:48Z</time>
      </trkpt>
      <trkpt lat="44.39947" lon="4.02621">
        <ele>888.7</ele>
        <time>2011-06-14T15:39:49Z</time>
      </trkpt>
      <trkpt lat="44.39956" lon="4.02603">
        <ele>891.7</ele>
        <time>2011-06-14T15:40:10Z</time>
      </trkpt>
      <trkpt lat="44.39953" lon="4.02592">
        <ele>893.2</ele>
        <time>2011-06-14T15:40:24Z</time>
      </trkpt>
      <trkpt lat="44.39954" lon="4.0258">
        <ele>884.2</ele>
        <time>2011-06-14T15:40:39Z</time>
      </trkpt>
      <trkpt lat="44.39955" lon="4.02568">
        <ele>888.2</ele>
        <time>2011-06-14T15:40:50Z</time>
      </trkpt>
      <trkpt lat="44.39953" lon="4.02567">
        <ele>887.5</ele>
        <time>2011-06-14T15:40:51Z</time>
      </trkpt>
      <trkpt lat="44.39946" lon="4.0255">
        <ele>890</ele>
        <time>2011-06-14T15:41:07Z</time>
      </trkpt>
      <trkpt lat="44.3994" lon="4.0254">
        <ele>895</ele>
        <time>2011-06-14T15:41:15Z</time>
      </trkpt>
      <trkpt lat="44.39938" lon="4.02529">
        <ele>894.9</ele>
        <time>2011-06-14T15:41:23Z</time>
      </trkpt>
      <trkpt lat="44.39933" lon="4.0252">
        <ele>892</ele>
        <time>2011-06-14T15:41:31Z</time>
      </trkpt>
      <trkpt lat="44.39932" lon="4.02509">
        <ele>888.5</ele>
        <time>2011-06-14T15:41:38Z</time>
      </trkpt>
      <trkpt lat="44.39931" lon="4.02498">
        <ele>887.4</ele>
        <time>2011-06-14T15:41:46Z</time>
      </trkpt>
      <trkpt lat="44.39926" lon="4.02488">
        <ele>885</ele>
        <time>2011-06-14T15:41:55Z</time>
      </trkpt>
      <trkpt lat="44.39926" lon="4.02486">
        <ele>883.2</ele>
        <time>2011-06-14T15:41:56Z</time>
      </trkpt>
      <trkpt lat="44.39932" lon="4.0247">
        <ele>886.2</ele>
        <time>2011-06-14T15:42:15Z</time>
      </trkpt>
      <trkpt lat="44.3994" lon="4.02471">
        <ele>891.5</ele>
        <time>2011-06-14T15:42:28Z</time>
      </trkpt>
      <trkpt lat="44.39949" lon="4.02473">
        <ele>892.2</ele>
        <time>2011-06-14T15:42:43Z</time>
      </trkpt>
      <trkpt lat="44.39957" lon="4.02477">
        <ele>893.7</ele>
        <time>2011-06-14T15:42:53Z</time>
      </trkpt>
      <trkpt lat="44.39966" lon="4.02478">
        <ele>894.5</ele>
        <time>2011-06-14T15:43:06Z</time>
      </trkpt>
      <trkpt lat="44.39966" lon="4.02478">
        <ele>893.9</ele>
        <time>2011-06-14T15:43:07Z</time>
      </trkpt>
      <trkpt lat="44.39983" lon="4.0248">
        <ele>893.2</ele>
        <time>2011-06-14T15:43:26Z</time>
      </trkpt>
      <trkpt lat="44.39991" lon="4.02483">
        <ele>896.2</ele>
        <time>2011-06-14T15:43:40Z</time>
      </trkpt>
      <trkpt lat="44.39997" lon="4.02488">
        <ele>898.7</ele>
        <time>2011-06-14T15:43:46Z</time>
      </trkpt>
      <trkpt lat="44.40006" lon="4.02492">
        <ele>902.2</ele>
        <time>2011-06-14T15:43:52Z</time>
      </trkpt>
      <trkpt lat="44.40012" lon="4.02498">
        <ele>904</ele>
        <time>2011-06-14T15:44:02Z</time>
      </trkpt>
      <trkpt lat="44.40019" lon="4.02506">
        <ele>905.7</ele>
        <time>2011-06-14T15:44:08Z</time>
      </trkpt>
      <trkpt lat="44.4002" lon="4.02507">
        <ele>906</ele>
        <time>2011-06-14T15:44:09Z</time>
      </trkpt>
      <trkpt lat="44.40036" lon="4.02509">
        <ele>903.9</ele>
        <time>2011-06-14T15:44:28Z</time>
      </trkpt>
      <trkpt lat="44.40044" lon="4.02505">
        <ele>900.9</ele>
        <time>2011-06-14T15:44:36Z</time>
      </trkpt>
      <trkpt lat="44.40051" lon="4.02502">
        <ele>901.5</ele>
        <time>2011-06-14T15:44:47Z</time>
      </trkpt>
      <trkpt lat="44.4006" lon="4.02504">
        <ele>901.5</ele>
        <time>2011-06-14T15:44:53Z</time>
      </trkpt>
      <trkpt lat="44.40068" lon="4.02503">
        <ele>903.5</ele>
        <time>2011-06-14T15:45:02Z</time>
      </trkpt>
      <trkpt lat="44.40075" lon="4.02496">
        <ele>897.7</ele>
        <time>2011-06-14T15:45:12Z</time>
      </trkpt>
      <trkpt lat="44.40076" lon="4.02495">
        <ele>897.2</ele>
        <time>2011-06-14T15:45:13Z</time>
      </trkpt>
      <trkpt lat="44.40091" lon="4.02485">
        <ele>899.7</ele>
        <time>2011-06-14T15:45:29Z</time>
      </trkpt>
      <trkpt lat="44.40096" lon="4.02478">
        <ele>902.5</ele>
        <time>2011-06-14T15:45:36Z</time>
      </trkpt>
      <trkpt lat="44.40104" lon="4.02472">
        <ele>899.2</ele>
        <time>2011-06-14T15:45:44Z</time>
      </trkpt>
      <trkpt lat="44.4011" lon="4.02462">
        <ele>890</ele>
        <time>2011-06-14T15:45:54Z</time>
      </trkpt>
      <trkpt lat="44.40116" lon="4.02457">
        <ele>900.2</ele>
        <time>2011-06-14T15:46:05Z</time>
      </trkpt>
      <trkpt lat="44.40124" lon="4.02452">
        <ele>902.5</ele>
        <time>2011-06-14T15:46:10Z</time>
      </trkpt>
      <trkpt lat="44.40129" lon="4.02443">
        <ele>894.4</ele>
        <time>2011-06-14T15:46:17Z</time>
      </trkpt>
      <trkpt lat="44.4013" lon="4.02442">
        <ele>893.9</ele>
        <time>2011-06-14T15:46:18Z</time>
      </trkpt>
      <trkpt lat="44.40136" lon="4.0242">
        <ele>893.5</ele>
        <time>2011-06-14T15:46:38Z</time>
      </trkpt>
      <trkpt lat="44.4014" lon="4.02411">
        <ele>895.2</ele>
        <time>2011-06-14T15:46:46Z</time>
      </trkpt>
      <trkpt lat="44.40143" lon="4.024">
        <ele>895.9</ele>
        <time>2011-06-14T15:46:54Z</time>
      </trkpt>
      <trkpt lat="44.40146" lon="4.02389">
        <ele>894.4</ele>
        <time>2011-06-14T15:47:03Z</time>
      </trkpt>
      <trkpt lat="44.40147" lon="4.02377">
        <ele>892.7</ele>
        <time>2011-06-14T15:47:12Z</time>
      </trkpt>
      <trkpt lat="44.40152" lon="4.02367">
        <ele>896.2</ele>
        <time>2011-06-14T15:47:19Z</time>
      </trkpt>
      <trkpt lat="44.40153" lon="4.02366">
        <ele>897</ele>
        <time>2011-06-14T15:47:20Z</time>
      </trkpt>
      <trkpt lat="44.40165" lon="4.02352">
        <ele>903.2</ele>
        <time>2011-06-14T15:47:36Z</time>
      </trkpt>
      <trkpt lat="44.40169" lon="4.02342">
        <ele>899.5</ele>
        <time>2011-06-14T15:47:44Z</time>
      </trkpt>
      <trkpt lat="44.40171" lon="4.0233">
        <ele>895.2</ele>
        <time>2011-06-14T15:47:54Z</time>
      </trkpt>
      <trkpt lat="44.40176" lon="4.02321">
        <ele>906.4</ele>
        <time>2011-06-14T15:48:06Z</time>
      </trkpt>
      <trkpt lat="44.40183" lon="4.02314">
        <ele>911</ele>
        <time>2011-06-14T15:48:15Z</time>
      </trkpt>
      <trkpt lat="44.40188" lon="4.02306">
        <ele>909.7</ele>
        <time>2011-06-14T15:48:24Z</time>
      </trkpt>
      <trkpt lat="44.40189" lon="4.02305">
        <ele>909.2</ele>
        <time>2011-06-14T15:48:25Z</time>
      </trkpt>
      <trkpt lat="44.40195" lon="4.02284">
        <ele>907</ele>
        <time>2011-06-14T15:48:40Z</time>
      </trkpt>
      <trkpt lat="44.40196" lon="4.02273">
        <ele>901.5</ele>
        <time>2011-06-14T15:48:49Z</time>
      </trkpt>
      <trkpt lat="44.40198" lon="4.02261">
        <ele>910.9</ele>
        <time>2011-06-14T15:49:02Z</time>
      </trkpt>
      <trkpt lat="44.40205" lon="4.02255">
        <ele>902.5</ele>
        <time>2011-06-14T15:49:12Z</time>
      </trkpt>
      <trkpt lat="44.40213" lon="4.0226">
        <ele>906</ele>
        <time>2011-06-14T15:49:21Z</time>
      </trkpt>
      <trkpt lat="44.40222" lon="4.02262">
        <ele>910.7</ele>
        <time>2011-06-14T15:49:36Z</time>
      </trkpt>
      <trkpt lat="44.40222" lon="4.02262">
        <ele>911.5</ele>
        <time>2011-06-14T15:49:37Z</time>
      </trkpt>
      <trkpt lat="44.40236" lon="4.02275">
        <ele>918</ele>
        <time>2011-06-14T15:50:01Z</time>
      </trkpt>
      <trkpt lat="44.40245" lon="4.02276">
        <ele>917.4</ele>
        <time>2011-06-14T15:50:17Z</time>
      </trkpt>
      <trkpt lat="44.40252" lon="4.02282">
        <ele>918.2</ele>
        <time>2011-06-14T15:50:29Z</time>
      </trkpt>
      <trkpt lat="44.4026" lon="4.02287">
        <ele>924.7</ele>
        <time>2011-06-14T15:50:44Z</time>
      </trkpt>
      <trkpt lat="44.40262" lon="4.02286">
        <ele>923.5</ele>
        <time>2011-06-14T15:50:45Z</time>
      </trkpt>
      <trkpt lat="44.40276" lon="4.02278">
        <ele>908.7</ele>
        <time>2011-06-14T15:50:56Z</time>
      </trkpt>
      <trkpt lat="44.40284" lon="4.02272">
        <ele>903.7</ele>
        <time>2011-06-14T15:51:16Z</time>
      </trkpt>
      <trkpt lat="44.40291" lon="4.02267">
        <ele>914</ele>
        <time>2011-06-14T15:51:40Z</time>
      </trkpt>
      <trkpt lat="44.40299" lon="4.02265">
        <ele>905</ele>
        <time>2011-06-14T15:51:47Z</time>
      </trkpt>
      <trkpt lat="44.403" lon="4.02264">
        <ele>905.5</ele>
        <time>2011-06-14T15:51:48Z</time>
      </trkpt>
      <trkpt lat="44.40312" lon="4.02251">
        <ele>894.7</ele>
        <time>2011-06-14T15:52:17Z</time>
      </trkpt>
      <trkpt lat="44.40314" lon="4.02239">
        <ele>896.2</ele>
        <time>2011-06-14T15:52:32Z</time>
      </trkpt>
      <trkpt lat="44.40315" lon="4.02227">
        <ele>908</ele>
        <time>2011-06-14T15:52:50Z</time>
      </trkpt>
      <trkpt lat="44.40316" lon="4.02227">
        <ele>909</ele>
        <time>2011-06-14T15:52:51Z</time>
      </trkpt>
      <trkpt lat="44.40328" lon="4.02214">
        <ele>911.5</ele>
        <time>2011-06-14T15:53:15Z</time>
      </trkpt>
      <trkpt lat="44.40335" lon="4.0221">
        <ele>914</ele>
        <time>2011-06-14T15:53:25Z</time>
      </trkpt>
      <trkpt lat="44.40344" lon="4.02206">
        <ele>912</ele>
        <time>2011-06-14T15:53:34Z</time>
      </trkpt>
      <trkpt lat="44.40349" lon="4.02196">
        <ele>904.9</ele>
        <time>2011-06-14T15:53:47Z</time>
      </trkpt>
      <trkpt lat="44.40356" lon="4.02196">
        <ele>901.2</ele>
        <time>2011-06-14T15:53:52Z</time>
      </trkpt>
      <trkpt lat="44.40358" lon="4.02195">
        <ele>900.2</ele>
        <time>2011-06-14T15:53:53Z</time>
      </trkpt>
      <trkpt lat="44.4037" lon="4.02182">
        <ele>899.7</ele>
        <time>2011-06-14T15:54:14Z</time>
      </trkpt>
      <trkpt lat="44.40371" lon="4.0217">
        <ele>900.9</ele>
        <time>2011-06-14T15:54:23Z</time>
      </trkpt>
      <trkpt lat="44.40375" lon="4.0216">
        <ele>920.7</ele>
        <time>2011-06-14T15:54:46Z</time>
      </trkpt>
      <trkpt lat="44.40368" lon="4.02151">
        <ele>933.5</ele>
        <time>2011-06-14T15:54:56Z</time>
      </trkpt>
      <trkpt lat="44.40368" lon="4.0215">
        <ele>933.9</ele>
        <time>2011-06-14T15:54:57Z</time>
      </trkpt>
      <trkpt lat="44.4038" lon="4.02134">
        <ele>933.4</ele>
        <time>2011-06-14T15:55:16Z</time>
      </trkpt>
      <trkpt lat="44.40387" lon="4.02127">
        <ele>923.5</ele>
        <time>2011-06-14T15:55:26Z</time>
      </trkpt>
      <trkpt lat="44.40395" lon="4.02124">
        <ele>917.2</ele>
        <time>2011-06-14T15:55:33Z</time>
      </trkpt>
      <trkpt lat="44.40403" lon="4.02117">
        <ele>905</ele>
        <time>2011-06-14T15:55:44Z</time>
      </trkpt>
      <trkpt lat="44.40406" lon="4.02106">
        <ele>933</ele>
        <time>2011-06-14T15:56:03Z</time>
      </trkpt>
      <trkpt lat="44.40406" lon="4.02106">
        <ele>933</ele>
        <time>2011-06-14T15:56:04Z</time>
      </trkpt>
      <trkpt lat="44.40422" lon="4.021">
        <ele>942.7</ele>
        <time>2011-06-14T15:56:26Z</time>
      </trkpt>
      <trkpt lat="44.40428" lon="4.02092">
        <ele>959.7</ele>
        <time>2011-06-14T15:56:46Z</time>
      </trkpt>
      <trkpt lat="44.40435" lon="4.02086">
        <ele>957.9</ele>
        <time>2011-06-14T15:56:55Z</time>
      </trkpt>
      <trkpt lat="44.40443" lon="4.02081">
        <ele>957.2</ele>
        <time>2011-06-14T15:57:14Z</time>
      </trkpt>
      <trkpt lat="44.40444" lon="4.0208">
        <ele>956.7</ele>
        <time>2011-06-14T15:57:15Z</time>
      </trkpt>
      <trkpt lat="44.40459" lon="4.0207">
        <ele>947.5</ele>
        <time>2011-06-14T15:57:34Z</time>
      </trkpt>
      <trkpt lat="44.40466" lon="4.02063">
        <ele>951</ele>
        <time>2011-06-14T15:57:57Z</time>
      </trkpt>
      <trkpt lat="44.40474" lon="4.02057">
        <ele>946.2</ele>
        <time>2011-06-14T15:58:04Z</time>
      </trkpt>
      <trkpt lat="44.40479" lon="4.02047">
        <ele>943.2</ele>
        <time>2011-06-14T15:58:17Z</time>
      </trkpt>
      <trkpt lat="44.4048" lon="4.02046">
        <ele>941.7</ele>
        <time>2011-06-14T15:58:18Z</time>
      </trkpt>
      <trkpt lat="44.40491" lon="4.02034">
        <ele>948.7</ele>
        <time>2011-06-14T15:59:12Z</time>
      </trkpt>
      <trkpt lat="44.40493" lon="4.02022">
        <ele>944.2</ele>
        <time>2011-06-14T15:59:27Z</time>
      </trkpt>
      <trkpt lat="44.40494" lon="4.02022">
        <ele>944.5</ele>
        <time>2011-06-14T15:59:28Z</time>
      </trkpt>
      <trkpt lat="44.40481" lon="4.02027">
        <ele>954.9</ele>
        <time>2011-06-14T16:02:47Z</time>
      </trkpt>
      <trkpt lat="44.4048" lon="4.02027">
        <ele>955.2</ele>
        <time>2011-06-14T16:02:48Z</time>
      </trkpt>
      <trkpt lat="44.40497" lon="4.02028">
        <ele>958.7</ele>
        <time>2011-06-14T16:03:45Z</time>
      </trkpt>
      <trkpt lat="44.40504" lon="4.02023">
        <ele>953.7</ele>
        <time>2011-06-14T16:03:55Z</time>
      </trkpt>
      <trkpt lat="44.40505" lon="4.02022">
        <ele>952.7</ele>
        <time>2011-06-14T16:03:56Z</time>
      </trkpt>
      <trkpt lat="44.40515" lon="4.02006">
        <ele>947.9</ele>
        <time>2011-06-14T16:04:13Z</time>
      </trkpt>
      <trkpt lat="44.40521" lon="4.01996">
        <ele>943.4</ele>
        <time>2011-06-14T16:04:20Z</time>
      </trkpt>
      <trkpt lat="44.40527" lon="4.0199">
        <ele>942.5</ele>
        <time>2011-06-14T16:04:30Z</time>
      </trkpt>
      <trkpt lat="44.40534" lon="4.01983">
        <ele>943.9</ele>
        <time>2011-06-14T16:04:41Z</time>
      </trkpt>
      <trkpt lat="44.40541" lon="4.01976">
        <ele>944.4</ele>
        <time>2011-06-14T16:04:49Z</time>
      </trkpt>
      <trkpt lat="44.40547" lon="4.01967">
        <ele>942</ele>
        <time>2011-06-14T16:04:57Z</time>
      </trkpt>
      <trkpt lat="44.40548" lon="4.01967">
        <ele>941.5</ele>
        <time>2011-06-14T16:04:58Z</time>
      </trkpt>
      <trkpt lat="44.4056" lon="4.0197">
        <ele>950.2</ele>
        <time>2011-06-14T16:05:27Z</time>
      </trkpt>
      <trkpt lat="44.40566" lon="4.01962">
        <ele>944.5</ele>
        <time>2011-06-14T16:05:52Z</time>
      </trkpt>
      <trkpt lat="44.4057" lon="4.01951">
        <ele>931.7</ele>
        <time>2011-06-14T16:06:02Z</time>
      </trkpt>
      <trkpt lat="44.40571" lon="4.01949">
        <ele>929</ele>
        <time>2011-06-14T16:06:03Z</time>
      </trkpt>
      <trkpt lat="44.40585" lon="4.0194">
        <ele>927.5</ele>
        <time>2011-06-14T16:06:33Z</time>
      </trkpt>
      <trkpt lat="44.40591" lon="4.0193">
        <ele>923.2</ele>
        <time>2011-06-14T16:06:43Z</time>
      </trkpt>
      <trkpt lat="44.40597" lon="4.01923">
        <ele>922.2</ele>
        <time>2011-06-14T16:06:50Z</time>
      </trkpt>
      <trkpt lat="44.40604" lon="4.01917">
        <ele>921.4</ele>
        <time>2011-06-14T16:06:58Z</time>
      </trkpt>
      <trkpt lat="44.40611" lon="4.01911">
        <ele>923.5</ele>
        <time>2011-06-14T16:07:07Z</time>
      </trkpt>
      <trkpt lat="44.40612" lon="4.0191">
        <ele>923.5</ele>
        <time>2011-06-14T16:07:08Z</time>
      </trkpt>
      <trkpt lat="44.40626" lon="4.019">
        <ele>921.2</ele>
        <time>2011-06-14T16:07:24Z</time>
      </trkpt>
      <trkpt lat="44.40634" lon="4.01896">
        <ele>921</ele>
        <time>2011-06-14T16:07:32Z</time>
      </trkpt>
      <trkpt lat="44.40641" lon="4.01891">
        <ele>920.7</ele>
        <time>2011-06-14T16:07:41Z</time>
      </trkpt>
      <trkpt lat="44.4065" lon="4.01889">
        <ele>924.5</ele>
        <time>2011-06-14T16:07:50Z</time>
      </trkpt>
      <trkpt lat="44.40655" lon="4.01881">
        <ele>920</ele>
        <time>2011-06-14T16:07:58Z</time>
      </trkpt>
      <trkpt lat="44.40664" lon="4.01879">
        <ele>921.9</ele>
        <time>2011-06-14T16:08:08Z</time>
      </trkpt>
      <trkpt lat="44.40672" lon="4.01876">
        <ele>924.5</ele>
        <time>2011-06-14T16:08:16Z</time>
      </trkpt>
      <trkpt lat="44.40673" lon="4.01875">
        <ele>924</ele>
        <time>2011-06-14T16:08:17Z</time>
      </trkpt>
      <trkpt lat="44.40689" lon="4.01871">
        <ele>924.9</ele>
        <time>2011-06-14T16:08:31Z</time>
      </trkpt>
      <trkpt lat="44.40697" lon="4.01869">
        <ele>925.4</ele>
        <time>2011-06-14T16:08:40Z</time>
      </trkpt>
      <trkpt lat="44.40705" lon="4.01867">
        <ele>926.9</ele>
        <time>2011-06-14T16:08:50Z</time>
      </trkpt>
      <trkpt lat="44.40713" lon="4.01865">
        <ele>927</ele>
        <time>2011-06-14T16:09:02Z</time>
      </trkpt>
      <trkpt lat="44.40721" lon="4.01865">
        <ele>928.2</ele>
        <time>2011-06-14T16:09:10Z</time>
      </trkpt>
      <trkpt lat="44.4073" lon="4.01863">
        <ele>927.2</ele>
        <time>2011-06-14T16:09:19Z</time>
      </trkpt>
      <trkpt lat="44.40731" lon="4.01862">
        <ele>926.4</ele>
        <time>2011-06-14T16:09:20Z</time>
      </trkpt>
      <trkpt lat="44.40744" lon="4.01852">
        <ele>921.7</ele>
        <time>2011-06-14T16:09:35Z</time>
      </trkpt>
      <trkpt lat="44.40752" lon="4.01857">
        <ele>931.7</ele>
        <time>2011-06-14T16:09:45Z</time>
      </trkpt>
      <trkpt lat="44.40761" lon="4.01854">
        <ele>935.2</ele>
        <time>2011-06-14T16:09:56Z</time>
      </trkpt>
      <trkpt lat="44.4077" lon="4.01856">
        <ele>938.7</ele>
        <time>2011-06-14T16:10:06Z</time>
      </trkpt>
      <trkpt lat="44.40779" lon="4.01857">
        <ele>935.5</ele>
        <time>2011-06-14T16:10:18Z</time>
      </trkpt>
      <trkpt lat="44.40787" lon="4.01858">
        <ele>937.5</ele>
        <time>2011-06-14T16:10:28Z</time>
      </trkpt>
      <trkpt lat="44.40788" lon="4.01858">
        <ele>937.5</ele>
        <time>2011-06-14T16:10:29Z</time>
      </trkpt>
      <trkpt lat="44.40804" lon="4.01854">
        <ele>933.4</ele>
        <time>2011-06-14T16:10:45Z</time>
      </trkpt>
      <trkpt lat="44.40812" lon="4.01857">
        <ele>927.7</ele>
        <time>2011-06-14T16:10:53Z</time>
      </trkpt>
      <trkpt lat="44.4082" lon="4.01859">
        <ele>925.7</ele>
        <time>2011-06-14T16:11:01Z</time>
      </trkpt>
      <trkpt lat="44.40828" lon="4.01862">
        <ele>930</ele>
        <time>2011-06-14T16:11:10Z</time>
      </trkpt>
      <trkpt lat="44.40836" lon="4.01865">
        <ele>934.7</ele>
        <time>2011-06-14T16:11:25Z</time>
      </trkpt>
      <trkpt lat="44.40844" lon="4.01869">
        <ele>934.2</ele>
        <time>2011-06-14T16:11:31Z</time>
      </trkpt>
      <trkpt lat="44.40846" lon="4.01868">
        <ele>932.2</ele>
        <time>2011-06-14T16:11:32Z</time>
      </trkpt>
      <trkpt lat="44.40861" lon="4.01872">
        <ele>929</ele>
        <time>2011-06-14T16:11:51Z</time>
      </trkpt>
      <trkpt lat="44.40869" lon="4.01872">
        <ele>927.9</ele>
        <time>2011-06-14T16:11:59Z</time>
      </trkpt>
      <trkpt lat="44.40878" lon="4.01868">
        <ele>919</ele>
        <time>2011-06-14T16:12:08Z</time>
      </trkpt>
      <trkpt lat="44.40885" lon="4.01869">
        <ele>915.4</ele>
        <time>2011-06-14T16:12:14Z</time>
      </trkpt>
      <trkpt lat="44.40893" lon="4.01873">
        <ele>915.7</ele>
        <time>2011-06-14T16:12:19Z</time>
      </trkpt>
      <trkpt lat="44.40901" lon="4.01876">
        <ele>917.5</ele>
        <time>2011-06-14T16:12:29Z</time>
      </trkpt>
      <trkpt lat="44.40909" lon="4.01879">
        <ele>917.7</ele>
        <time>2011-06-14T16:12:41Z</time>
      </trkpt>
      <trkpt lat="44.40909" lon="4.01882">
        <ele>920.2</ele>
        <time>2011-06-14T16:12:42Z</time>
      </trkpt>
      <trkpt lat="44.40924" lon="4.01889">
        <ele>925.7</ele>
        <time>2011-06-14T16:12:54Z</time>
      </trkpt>
      <trkpt lat="44.40931" lon="4.01896">
        <ele>931.2</ele>
        <time>2011-06-14T16:13:04Z</time>
      </trkpt>
      <trkpt lat="44.40939" lon="4.019">
        <ele>928.7</ele>
        <time>2011-06-14T16:13:11Z</time>
      </trkpt>
      <trkpt lat="44.40948" lon="4.01902">
        <ele>923.5</ele>
        <time>2011-06-14T16:13:16Z</time>
      </trkpt>
      <trkpt lat="44.40956" lon="4.01907">
        <ele>916.4</ele>
        <time>2011-06-14T16:13:25Z</time>
      </trkpt>
      <trkpt lat="44.40962" lon="4.01915">
        <ele>914.2</ele>
        <time>2011-06-14T16:13:33Z</time>
      </trkpt>
      <trkpt lat="44.4097" lon="4.0192">
        <ele>912.9</ele>
        <time>2011-06-14T16:13:41Z</time>
      </trkpt>
      <trkpt lat="44.40977" lon="4.01928">
        <ele>921.5</ele>
        <time>2011-06-14T16:13:50Z</time>
      </trkpt>
      <trkpt lat="44.40978" lon="4.01928">
        <ele>921.7</ele>
        <time>2011-06-14T16:13:51Z</time>
      </trkpt>
      <trkpt lat="44.4099" lon="4.01942">
        <ele>928.9</ele>
        <time>2011-06-14T16:14:06Z</time>
      </trkpt>
      <trkpt lat="44.40997" lon="4.01949">
        <ele>932</ele>
        <time>2011-06-14T16:14:15Z</time>
      </trkpt>
      <trkpt lat="44.41005" lon="4.01952">
        <ele>923.9</ele>
        <time>2011-06-14T16:14:21Z</time>
      </trkpt>
      <trkpt lat="44.41012" lon="4.01958">
        <ele>916.2</ele>
        <time>2011-06-14T16:14:27Z</time>
      </trkpt>
      <trkpt lat="44.41019" lon="4.01964">
        <ele>917.5</ele>
        <time>2011-06-14T16:14:34Z</time>
      </trkpt>
      <trkpt lat="44.41026" lon="4.0197">
        <ele>915.5</ele>
        <time>2011-06-14T16:14:42Z</time>
      </trkpt>
      <trkpt lat="44.41033" lon="4.01975">
        <ele>912.4</ele>
        <time>2011-06-14T16:14:50Z</time>
      </trkpt>
      <trkpt lat="44.4104" lon="4.01981">
        <ele>911.2</ele>
        <time>2011-06-14T16:14:56Z</time>
      </trkpt>
      <trkpt lat="44.41041" lon="4.01982">
        <ele>911.5</ele>
        <time>2011-06-14T16:14:57Z</time>
      </trkpt>
      <trkpt lat="44.41055" lon="4.01992">
        <ele>904.9</ele>
        <time>2011-06-14T16:15:12Z</time>
      </trkpt>
      <trkpt lat="44.41063" lon="4.01996">
        <ele>899.7</ele>
        <time>2011-06-14T16:15:19Z</time>
      </trkpt>
      <trkpt lat="44.41068" lon="4.02006">
        <ele>902</ele>
        <time>2011-06-14T16:15:27Z</time>
      </trkpt>
      <trkpt lat="44.41075" lon="4.02014">
        <ele>906.5</ele>
        <time>2011-06-14T16:15:35Z</time>
      </trkpt>
      <trkpt lat="44.41079" lon="4.02023">
        <ele>910.4</ele>
        <time>2011-06-14T16:15:41Z</time>
      </trkpt>
      <trkpt lat="44.41084" lon="4.02032">
        <ele>915.4</ele>
        <time>2011-06-14T16:15:48Z</time>
      </trkpt>
      <trkpt lat="44.41089" lon="4.02041">
        <ele>918.5</ele>
        <time>2011-06-14T16:15:56Z</time>
      </trkpt>
      <trkpt lat="44.41095" lon="4.0205">
        <ele>923.9</ele>
        <time>2011-06-14T16:16:06Z</time>
      </trkpt>
      <trkpt lat="44.41095" lon="4.02051">
        <ele>925.2</ele>
        <time>2011-06-14T16:16:07Z</time>
      </trkpt>
      <trkpt lat="44.41107" lon="4.02062">
        <ele>917.7</ele>
        <time>2011-06-14T16:16:19Z</time>
      </trkpt>
      <trkpt lat="44.41116" lon="4.02066">
        <ele>915</ele>
        <time>2011-06-14T16:16:28Z</time>
      </trkpt>
      <trkpt lat="44.41121" lon="4.02076">
        <ele>919</ele>
        <time>2011-06-14T16:16:36Z</time>
      </trkpt>
      <trkpt lat="44.41128" lon="4.02083">
        <ele>918.7</ele>
        <time>2011-06-14T16:16:42Z</time>
      </trkpt>
      <trkpt lat="44.41136" lon="4.02083">
        <ele>911.2</ele>
        <time>2011-06-14T16:16:46Z</time>
      </trkpt>
      <trkpt lat="44.41142" lon="4.02092">
        <ele>914.9</ele>
        <time>2011-06-14T16:16:54Z</time>
      </trkpt>
      <trkpt lat="44.41148" lon="4.021">
        <ele>919.2</ele>
        <time>2011-06-14T16:17:00Z</time>
      </trkpt>
      <trkpt lat="44.41151" lon="4.0211">
        <ele>923.5</ele>
        <time>2011-06-14T16:17:07Z</time>
      </trkpt>
      <trkpt lat="44.41158" lon="4.02118">
        <ele>921.2</ele>
        <time>2011-06-14T16:17:14Z</time>
      </trkpt>
      <trkpt lat="44.41158" lon="4.02119">
        <ele>922.2</ele>
        <time>2011-06-14T16:17:15Z</time>
      </trkpt>
      <trkpt lat="44.41166" lon="4.02139">
        <ele>921.5</ele>
        <time>2011-06-14T16:17:28Z</time>
      </trkpt>
      <trkpt lat="44.41171" lon="4.02148">
        <ele>913</ele>
        <time>2011-06-14T16:17:37Z</time>
      </trkpt>
      <trkpt lat="44.41173" lon="4.0216">
        <ele>911.7</ele>
        <time>2011-06-14T16:17:44Z</time>
      </trkpt>
      <trkpt lat="44.41177" lon="4.02171">
        <ele>907.2</ele>
        <time>2011-06-14T16:17:52Z</time>
      </trkpt>
      <trkpt lat="44.4118" lon="4.02182">
        <ele>899</ele>
        <time>2011-06-14T16:18:00Z</time>
      </trkpt>
      <trkpt lat="44.41186" lon="4.02191">
        <ele>888.7</ele>
        <time>2011-06-14T16:18:08Z</time>
      </trkpt>
      <trkpt lat="44.41191" lon="4.02201">
        <ele>882</ele>
        <time>2011-06-14T16:18:16Z</time>
      </trkpt>
      <trkpt lat="44.41191" lon="4.02203">
        <ele>882.5</ele>
        <time>2011-06-14T16:18:17Z</time>
      </trkpt>
      <trkpt lat="44.41192" lon="4.02224">
        <ele>888.4</ele>
        <time>2011-06-14T16:18:29Z</time>
      </trkpt>
      <trkpt lat="44.41198" lon="4.02232">
        <ele>885.2</ele>
        <time>2011-06-14T16:18:40Z</time>
      </trkpt>
      <trkpt lat="44.41205" lon="4.0224">
        <ele>880.2</ele>
        <time>2011-06-14T16:18:49Z</time>
      </trkpt>
      <trkpt lat="44.41212" lon="4.02248">
        <ele>878.9</ele>
        <time>2011-06-14T16:18:58Z</time>
      </trkpt>
      <trkpt lat="44.41218" lon="4.02256">
        <ele>880.2</ele>
        <time>2011-06-14T16:19:06Z</time>
      </trkpt>
      <trkpt lat="44.41226" lon="4.02262">
        <ele>886.2</ele>
        <time>2011-06-14T16:19:14Z</time>
      </trkpt>
      <trkpt lat="44.41233" lon="4.02265">
        <ele>882.5</ele>
        <time>2011-06-14T16:19:21Z</time>
      </trkpt>
      <trkpt lat="44.41234" lon="4.02266">
        <ele>881.9</ele>
        <time>2011-06-14T16:19:22Z</time>
      </trkpt>
      <trkpt lat="44.41247" lon="4.02279">
        <ele>890.4</ele>
        <time>2011-06-14T16:19:41Z</time>
      </trkpt>
      <trkpt lat="44.41255" lon="4.02283">
        <ele>889.5</ele>
        <time>2011-06-14T16:19:47Z</time>
      </trkpt>
      <trkpt lat="44.41263" lon="4.02287">
        <ele>885.7</ele>
        <time>2011-06-14T16:19:55Z</time>
      </trkpt>
      <trkpt lat="44.41271" lon="4.02287">
        <ele>883</ele>
        <time>2011-06-14T16:20:01Z</time>
      </trkpt>
      <trkpt lat="44.41278" lon="4.02294">
        <ele>891</ele>
        <time>2011-06-14T16:20:08Z</time>
      </trkpt>
      <trkpt lat="44.41285" lon="4.02299">
        <ele>898.4</ele>
        <time>2011-06-14T16:20:17Z</time>
      </trkpt>
      <trkpt lat="44.41292" lon="4.023">
        <ele>902.7</ele>
        <time>2011-06-14T16:20:26Z</time>
      </trkpt>
      <trkpt lat="44.41294" lon="4.023">
        <ele>900.2</ele>
        <time>2011-06-14T16:20:27Z</time>
      </trkpt>
      <trkpt lat="44.41309" lon="4.02303">
        <ele>887.5</ele>
        <time>2011-06-14T16:20:37Z</time>
      </trkpt>
      <trkpt lat="44.41316" lon="4.02308">
        <ele>885.5</ele>
        <time>2011-06-14T16:20:45Z</time>
      </trkpt>
      <trkpt lat="44.41323" lon="4.02312">
        <ele>892.5</ele>
        <time>2011-06-14T16:20:52Z</time>
      </trkpt>
      <trkpt lat="44.4133" lon="4.02319">
        <ele>883.7</ele>
        <time>2011-06-14T16:20:59Z</time>
      </trkpt>
      <trkpt lat="44.41335" lon="4.02327">
        <ele>891.5</ele>
        <time>2011-06-14T16:21:06Z</time>
      </trkpt>
      <trkpt lat="44.41341" lon="4.02336">
        <ele>891.5</ele>
        <time>2011-06-14T16:21:14Z</time>
      </trkpt>
      <trkpt lat="44.41347" lon="4.02343">
        <ele>879.7</ele>
        <time>2011-06-14T16:21:21Z</time>
      </trkpt>
      <trkpt lat="44.41354" lon="4.02349">
        <ele>871.2</ele>
        <time>2011-06-14T16:21:28Z</time>
      </trkpt>
      <trkpt lat="44.41355" lon="4.0235">
        <ele>870.5</ele>
        <time>2011-06-14T16:21:29Z</time>
      </trkpt>
      <trkpt lat="44.41366" lon="4.02366">
        <ele>866.5</ele>
        <time>2011-06-14T16:21:45Z</time>
      </trkpt>
      <trkpt lat="44.41372" lon="4.02375">
        <ele>868.2</ele>
        <time>2011-06-14T16:21:53Z</time>
      </trkpt>
      <trkpt lat="44.41378" lon="4.02384">
        <ele>866</ele>
        <time>2011-06-14T16:21:59Z</time>
      </trkpt>
      <trkpt lat="44.41377" lon="4.02395">
        <ele>872</ele>
        <time>2011-06-14T16:22:04Z</time>
      </trkpt>
      <trkpt lat="44.4138" lon="4.02406">
        <ele>876.7</ele>
        <time>2011-06-14T16:22:10Z</time>
      </trkpt>
      <trkpt lat="44.41386" lon="4.02414">
        <ele>880.7</ele>
        <time>2011-06-14T16:22:18Z</time>
      </trkpt>
      <trkpt lat="44.41394" lon="4.02419">
        <ele>874.5</ele>
        <time>2011-06-14T16:22:27Z</time>
      </trkpt>
      <trkpt lat="44.41401" lon="4.02425">
        <ele>869.2</ele>
        <time>2011-06-14T16:22:36Z</time>
      </trkpt>
      <trkpt lat="44.41403" lon="4.02425">
        <ele>868.7</ele>
        <time>2011-06-14T16:22:37Z</time>
      </trkpt>
      <trkpt lat="44.41415" lon="4.02413">
        <ele>854.2</ele>
        <time>2011-06-14T16:22:49Z</time>
      </trkpt>
      <trkpt lat="44.4142" lon="4.02404">
        <ele>849.5</ele>
        <time>2011-06-14T16:22:57Z</time>
      </trkpt>
      <trkpt lat="44.41425" lon="4.02394">
        <ele>845.9</ele>
        <time>2011-06-14T16:23:06Z</time>
      </trkpt>
      <trkpt lat="44.41429" lon="4.02384">
        <ele>841.2</ele>
        <time>2011-06-14T16:23:14Z</time>
      </trkpt>
      <trkpt lat="44.41434" lon="4.02374">
        <ele>839.2</ele>
        <time>2011-06-14T16:23:30Z</time>
      </trkpt>
      <trkpt lat="44.41438" lon="4.02364">
        <ele>836.5</ele>
        <time>2011-06-14T16:23:37Z</time>
      </trkpt>
      <trkpt lat="44.41441" lon="4.02354">
        <ele>839.4</ele>
        <time>2011-06-14T16:23:43Z</time>
      </trkpt>
      <trkpt lat="44.41442" lon="4.02352">
        <ele>839</ele>
        <time>2011-06-14T16:23:44Z</time>
      </trkpt>
      <trkpt lat="44.41452" lon="4.02336">
        <ele>841.2</ele>
        <time>2011-06-14T16:23:59Z</time>
      </trkpt>
      <trkpt lat="44.41457" lon="4.02328">
        <ele>844.2</ele>
        <time>2011-06-14T16:24:07Z</time>
      </trkpt>
      <trkpt lat="44.41464" lon="4.0232">
        <ele>843.5</ele>
        <time>2011-06-14T16:24:13Z</time>
      </trkpt>
      <trkpt lat="44.41468" lon="4.0231">
        <ele>839.2</ele>
        <time>2011-06-14T16:24:20Z</time>
      </trkpt>
      <trkpt lat="44.41473" lon="4.023">
        <ele>837</ele>
        <time>2011-06-14T16:24:28Z</time>
      </trkpt>
      <trkpt lat="44.41478" lon="4.02291">
        <ele>836.2</ele>
        <time>2011-06-14T16:24:36Z</time>
      </trkpt>
      <trkpt lat="44.41484" lon="4.02282">
        <ele>838.7</ele>
        <time>2011-06-14T16:24:46Z</time>
      </trkpt>
      <trkpt lat="44.41484" lon="4.02281">
        <ele>838.5</ele>
        <time>2011-06-14T16:24:47Z</time>
      </trkpt>
    </trkseg>
  </trk>
</gpx>